Provisional Data: Sangerfield River near Poolville, NY


Please select a monitoring station.
Please select start date.
Please select start date.

Toggle Unit: C/F Toggle Unit: C/F
Sample Time Temperature (C) Temperature (F) Specific Conductivity (mS/cm) pH   Turbidity (NTU+) DO (mg/L)
9/6/2021 12:00:00 AM 17.01 62.618 0.402 8.16 2.52 8.58
9/6/2021 12:15:00 AM 16.97 62.546 0.402 8.16 3.13 8.58
9/6/2021 12:30:00 AM 16.93 62.474 0.402 8.16 2.6 8.58
9/6/2021 12:45:00 AM 16.88 62.384 0.403 8.15 2.66 8.59
9/6/2021 1:00:00 AM 16.81 62.258 0.403 8.15 2.6 8.59
9/6/2021 1:15:00 AM 16.75 62.15 0.403 8.15 2.48 8.59
9/6/2021 1:30:00 AM 16.69 62.042 0.403 8.14 2.58 8.6
9/6/2021 1:45:00 AM 16.63 61.934 0.403 8.14 2.48 8.6
9/6/2021 2:00:00 AM 16.56 61.808 0.403 8.13 2.54 8.62
9/6/2021 2:15:00 AM 16.49 61.682 0.403 8.13 2.57 8.62
9/6/2021 2:30:00 AM 16.41 61.538 0.403 8.12 2.76 8.63
9/6/2021 2:45:00 AM 16.35 61.43 0.403 8.12 2.79 8.64
9/6/2021 3:00:00 AM 16.3 61.34 0.403 8.12 2.76 8.65
9/6/2021 3:15:00 AM 16.24 61.232 0.403 8.11 2.82 8.66
9/6/2021 3:30:00 AM 16.18 61.124 0.403 8.11 2.87 8.67
9/6/2021 3:45:00 AM 16.12 61.016 0.403 8.11 2.86 8.68
9/6/2021 4:00:00 AM 16.07 60.926 0.403 8.11 2.7 8.69
9/6/2021 4:15:00 AM 16.01 60.818 0.403 8.11 2.74 8.71
9/6/2021 4:30:00 AM 15.95 60.71 0.403 8.1 2.84 8.71
9/6/2021 4:45:00 AM 15.9 60.62 0.403 8.1 2.57 8.72
9/6/2021 5:00:00 AM 15.84 60.512 0.403 8.1 3.01 8.73
9/6/2021 5:15:00 AM 15.79 60.422 0.403 8.1 2.57 8.74
9/6/2021 5:30:00 AM 15.74 60.332 0.403 8.1 2.68 8.74
9/6/2021 5:45:00 AM 15.69 60.242 0.403 8.1 2.97 8.76
9/6/2021 6:00:00 AM 15.64 60.152 0.403 8.1 5.94 8.76
9/6/2021 6:15:00 AM 15.59 60.062 0.403 8.1 2.71 8.78
9/6/2021 6:30:00 AM 15.55 59.99 0.403 8.1 2.76 8.79
9/6/2021 6:45:00 AM 15.51 59.918 0.403 8.1 2.69 8.82
9/6/2021 7:00:00 AM 15.46 59.828 0.403 8.1 2.57 8.86
9/6/2021 7:15:00 AM 15.42 59.756 0.403 8.1 2.54 8.91
9/6/2021 7:30:00 AM 15.4 59.72 0.403 8.11 2.52 9
9/6/2021 7:45:00 AM 15.39 59.702 0.403 8.12 2.37 9.08
9/6/2021 8:00:00 AM 15.4 59.72 0.403 8.13 2.37 9.18
9/6/2021 8:15:00 AM 15.43 59.774 0.402 8.15 2.44 9.32
9/6/2021 8:30:00 AM 15.46 59.828 0.402 8.17 2.48 9.47
9/6/2021 8:45:00 AM 15.47 59.846 0.401 8.18 2.45 9.54
9/6/2021 9:00:00 AM 15.57 60.026 0.401 8.21 2.33 9.8
9/6/2021 9:15:00 AM 15.66 60.188 0.4 8.23 2.32 10.01
9/6/2021 9:30:00 AM 15.74 60.332 0.399 8.26 2.74 10.18
9/6/2021 9:45:00 AM 15.83 60.494 0.399 8.28 2.33 10.31
9/6/2021 10:00:00 AM 15.98 60.764 0.398 8.3 2.39 10.44
9/6/2021 10:15:00 AM 16.07 60.926 0.398 8.31 4.96 10.51
9/6/2021 10:30:00 AM 16.04 60.872 0.397 8.32 2.35 10.45
9/6/2021 10:45:00 AM 16.07 60.926 0.397 8.34 2.44 10.48
9/6/2021 11:00:00 AM 16.15 61.07 0.396 8.35 2.34 10.52
9/6/2021 11:15:00 AM 16.22 61.196 0.396 8.36 2.37 10.57
9/6/2021 11:30:00 AM 16.35 61.43 0.395 8.38 2.38 10.73
9/6/2021 11:45:00 AM 16.47 61.646 0.395 8.4 2.27 10.85
9/6/2021 12:00:00 PM 16.52 61.736 0.394 8.41 2.17 10.9
9/6/2021 12:15:00 PM 16.64 61.952 0.393 8.43 2.14 10.97
9/6/2021 12:30:00 PM 16.75 62.15 0.392 8.45 2.19 11.08
9/6/2021 12:45:00 PM 16.8 62.24 0.392 8.46 2.49 11.07
9/6/2021 1:00:00 PM 16.89 62.402 0.391 8.47 2.16 11.15
9/6/2021 1:15:00 PM 17.17 62.906 0.39 8.49 2.06 11.29
9/6/2021 1:30:00 PM 17.47 63.446 0.389 8.5 2.03 11.35
9/6/2021 1:45:00 PM 17.72 63.896 0.389 8.51 1.94 11.33
9/6/2021 2:00:00 PM 18 64.4 0.388 8.53 2.03 11.38
9/6/2021 2:15:00 PM 18.14 64.652 0.387 8.54 2.02 11.34
9/6/2021 2:30:00 PM 18.28 64.904 0.387 8.54 2.07 11.3
9/6/2021 2:45:00 PM 18.49 65.282 0.387 8.54 2.05 11.3
9/6/2021 3:00:00 PM 18.68 65.624 0.386 8.55 1.96 11.34
9/6/2021 3:15:00 PM 18.75 65.75 0.385 8.56 2.01 11.28
9/6/2021 3:30:00 PM 18.75 65.75 0.385 8.56 2.15 11.13
9/6/2021 3:45:00 PM 18.87 65.966 0.384 8.57 2.13 11.11
9/6/2021 4:00:00 PM 19.02 66.236 0.384 8.57 2.03 11.08
9/6/2021 4:15:00 PM 19.04 66.272 0.384 8.57 2.1 11.03
9/6/2021 4:30:00 PM 19.07 66.326 0.384 8.57 2.04 10.99
9/6/2021 4:45:00 PM 19.05 66.29 0.383 8.57 2.07 10.92
9/6/2021 5:00:00 PM 19 66.2 0.383 8.57 2.22 10.84
9/6/2021 5:15:00 PM 19.02 66.236 0.383 8.57 2.19 10.82
9/6/2021 5:30:00 PM 18.96 66.128 0.384 8.56 2.12 10.63
9/6/2021 5:45:00 PM 18.9 66.02 0.384 8.55 2.06 10.42
9/6/2021 6:00:00 PM 18.85 65.93 0.384 8.54 2.28 10.23
9/6/2021 6:15:00 PM 18.76 65.768 0.385 8.53 2.17 10.06
9/6/2021 6:30:00 PM 18.65 65.57 0.386 8.51 2.3 9.86
9/6/2021 6:45:00 PM 18.51 65.318 0.387 8.49 2.42 9.67
9/6/2021 7:00:00 PM 18.38 65.084 0.388 8.47 2.25 9.51
9/6/2021 7:15:00 PM 18.25 64.85 0.389 8.44 2.31 9.33
9/6/2021 7:30:00 PM 18.13 64.634 0.39 8.42 2.4 9.19
9/6/2021 7:45:00 PM 18.01 64.418 0.39 8.4 2.54 9.04
9/6/2021 8:00:00 PM 17.9 64.22 0.391 8.38 3.9 8.93
9/6/2021 8:15:00 PM 17.8 64.04 0.392 8.36 2.55 8.85
9/6/2021 8:30:00 PM 17.71 63.878 0.392 8.34 2.4 8.79
9/6/2021 8:45:00 PM 17.62 63.716 0.393 8.32 2.45 8.72
9/6/2021 9:00:00 PM 17.54 63.572 0.393 8.31 2.64 8.69
9/6/2021 9:15:00 PM 17.45 63.41 0.393 8.29 2.33 8.65
9/6/2021 9:30:00 PM 17.36 63.248 0.394 8.28 2.55 8.64
9/6/2021 9:45:00 PM 17.27 63.086 0.394 8.27 2.3 8.62
9/6/2021 10:00:00 PM 17.17 62.906 0.394 8.26 2.42 8.62
9/6/2021 10:15:00 PM 17.07 62.726 0.395 8.25 2.51 8.61
9/6/2021 10:30:00 PM 16.98 62.564 0.395 8.24 2.47 8.61
9/6/2021 10:45:00 PM 16.89 62.402 0.395 8.23 2.31 8.62
9/6/2021 11:00:00 PM 16.8 62.24 0.396 8.22 2.34 8.62
9/6/2021 11:15:00 PM 16.73 62.114 0.396 8.21 2.42 8.62
9/6/2021 11:30:00 PM 16.66 61.988 0.397 8.21 2.36 8.62
9/6/2021 11:45:00 PM 16.59 61.862 0.397 8.2 2.45 8.63
9/7/2021 12:00:00 AM 16.53 61.754 0.398 8.19 2.53 8.62
9/7/2021 12:15:00 AM 16.48 61.664 0.398 8.18 2.51 8.63
9/7/2021 12:30:00 AM 16.42 61.556 0.398 8.18 3.33 8.63
9/7/2021 12:45:00 AM 16.36 61.448 0.399 8.17 2.58 8.63
9/7/2021 1:00:00 AM 16.29 61.322 0.399 8.16 2.69 8.64
9/7/2021 1:15:00 AM 16.24 61.232 0.399 8.16 2.67 8.64
9/7/2021 1:30:00 AM 16.18 61.124 0.4 8.15 2.63 8.65
9/7/2021 1:45:00 AM 16.13 61.034 0.4 8.15 2.65 8.65
9/7/2021 2:00:00 AM 16.1 60.98 0.4 8.15 2.62 8.65
9/7/2021 2:15:00 AM 16.06 60.908 0.401 8.14 2.47 8.66
9/7/2021 2:30:00 AM 16.03 60.854 0.401 8.14 2.69 8.67
9/7/2021 2:45:00 AM 15.99 60.782 0.401 8.14 2.54 8.67
9/7/2021 3:00:00 AM 15.94 60.692 0.402 8.13 2.64 8.67
9/7/2021 3:15:00 AM 15.89 60.602 0.402 8.13 2.73 8.69
9/7/2021 3:30:00 AM 15.83 60.494 0.402 8.13 2.75 8.7
9/7/2021 3:45:00 AM 15.76 60.368 0.402 8.12 2.55 8.71
9/7/2021 4:00:00 AM 15.71 60.278 0.402 8.12 2.52 8.72
9/7/2021 4:15:00 AM 15.65 60.17 0.403 8.12 2.49 8.73
9/7/2021 4:30:00 AM 15.59 60.062 0.403 8.12 2.51 8.74
9/7/2021 4:45:00 AM 15.53 59.954 0.403 8.12 2.47 8.75
9/7/2021 5:00:00 AM 15.49 59.882 0.403 8.12 2.45 8.76
9/7/2021 5:15:00 AM 15.44 59.792 0.403 8.12 2.72 8.78
9/7/2021 5:30:00 AM 15.38 59.684 0.404 8.11 2.42 8.79
9/7/2021 5:45:00 AM 15.33 59.594 0.404 8.11 2.58 8.8
9/7/2021 6:00:00 AM 15.28 59.504 0.404 8.11 2.46 8.81
9/7/2021 6:15:00 AM 15.23 59.414 0.404 8.11 2.58 8.82
9/7/2021 6:30:00 AM 15.17 59.306 0.405 8.11 2.61 8.84
9/7/2021 6:45:00 AM 15.12 59.216 0.405 8.11 2.45 8.86
9/7/2021 7:00:00 AM 15.08 59.144 0.405 8.11 2.43 8.91
9/7/2021 7:15:00 AM 15.03 59.054 0.406 8.11 2.54 8.96
9/7/2021 7:30:00 AM 15 59 0.406 8.12 3.69 9.01
9/7/2021 7:45:00 AM 14.98 58.964 0.406 8.13 2.26 9.11
9/7/2021 8:00:00 AM 14.97 58.946 0.406 8.14 2.27 9.19
9/7/2021 8:15:00 AM 14.96 58.928 0.406 8.15 2.2 9.29
9/7/2021 8:30:00 AM 14.96 58.928 0.407 8.16 2.16 9.38
9/7/2021 8:45:00 AM 14.98 58.964 0.407 8.17 2.23 9.48
9/7/2021 9:00:00 AM 15 59 0.406 8.18 2.11 9.57
9/7/2021 9:15:00 AM 15.03 59.054 0.406 8.2 2.14 9.67
9/7/2021 9:30:00 AM 15.09 59.162 0.406 8.21 2.2 9.78
9/7/2021 9:45:00 AM 15.19 59.342 0.406 8.23 2.25 9.92
9/7/2021 10:00:00 AM 15.32 59.576 0.405 8.25 2.34 10.13
9/7/2021 10:15:00 AM 15.43 59.774 0.404 8.26 2.17 10.27
9/7/2021 10:30:00 AM 15.58 60.044 0.404 8.28 3.01 10.42
9/7/2021 10:45:00 AM 15.77 60.386 0.403 8.3 2.15 10.57
9/7/2021 11:00:00 AM 15.95 60.71 0.402 8.32 2.2 10.68
9/7/2021 11:15:00 AM 15.99 60.782 0.401 8.34 2.15 10.72
9/7/2021 11:30:00 AM 16.09 60.962 0.401 8.35 2.15 10.77
9/7/2021 11:45:00 AM 16.22 61.196 0.4 8.37 2.16 10.88
9/7/2021 12:00:00 PM 16.34 61.412 0.399 8.39 2.48 10.95
9/7/2021 12:15:00 PM 16.48 61.664 0.398 8.41 2.12 11
9/7/2021 12:30:00 PM 16.76 62.168 0.398 8.43 2 11.11
9/7/2021 12:45:00 PM 16.99 62.582 0.397 8.44 2.01 11.19
9/7/2021 1:00:00 PM 17.28 63.104 0.396 8.47 1.97 11.28
9/7/2021 1:15:00 PM 17.67 63.806 0.395 8.49 1.96 11.44
9/7/2021 1:30:00 PM 18.05 64.49 0.394 8.51 2.05 11.53
9/7/2021 1:45:00 PM 18.27 64.886 0.393 8.52 1.92 11.51
9/7/2021 2:00:00 PM 18.48 65.264 0.392 8.54 1.91 11.52
9/7/2021 2:15:00 PM 18.63 65.534 0.392 8.54 1.92 11.47
9/7/2021 2:30:00 PM 18.81 65.858 0.391 8.55 1.93 11.41
9/7/2021 2:45:00 PM 19.02 66.236 0.39 8.56 2.03 11.41
9/7/2021 3:00:00 PM 19.27 66.686 0.39 8.56 2.01 11.41
9/7/2021 3:15:00 PM 19.46 67.028 0.389 8.57 2.32 11.4
9/7/2021 3:30:00 PM 19.5 67.1 0.389 8.57 2.11 11.19
9/7/2021 3:45:00 PM 19.61 67.298 0.389 8.57 1.95 11.17
9/7/2021 4:00:00 PM 19.73 67.514 0.389 8.57 1.81 11.14
9/7/2021 4:15:00 PM 19.79 67.622 0.389 8.57 1.93 11.02
9/7/2021 4:30:00 PM 19.83 67.694 0.389 8.57 1.85 10.9
9/7/2021 4:45:00 PM 19.9 67.82 0.388 8.57 1.97 10.8
9/7/2021 5:00:00 PM 19.95 67.91 0.388 8.56 1.96 10.73
9/7/2021 5:15:00 PM 19.95 67.91 0.388 8.56 2 10.59
9/7/2021 5:30:00 PM 19.88 67.784 0.389 8.55 1.9 10.43
9/7/2021 5:45:00 PM 19.82 67.676 0.389 8.54 1.98 10.27
9/7/2021 6:00:00 PM 19.72 67.496 0.39 8.53 1.99 10.07
9/7/2021 6:15:00 PM 19.59 67.262 0.391 8.51 2.07 9.85
9/7/2021 6:30:00 PM 19.43 66.974 0.392 8.49 2.12 9.64
9/7/2021 6:45:00 PM 19.26 66.668 0.393 8.46 2.09 9.44
9/7/2021 7:00:00 PM 19.08 66.344 0.394 8.44 2.27 9.27
9/7/2021 7:15:00 PM 18.89 66.002 0.396 8.42 2.18 9.11
9/7/2021 7:30:00 PM 18.73 65.714 0.397 8.39 2.34 8.96
9/7/2021 7:45:00 PM 18.58 65.444 0.397 8.37 2.29 8.82
9/7/2021 8:00:00 PM 18.46 65.228 0.398 8.35 2.56 8.72
9/7/2021 8:15:00 PM 18.35 65.03 0.399 8.33 2.49 8.63
9/7/2021 8:30:00 PM 18.24 64.832 0.399 8.31 2.99 8.58
9/7/2021 8:45:00 PM 18.15 64.67 0.399 8.3 2.45 8.54
9/7/2021 9:00:00 PM 18.06 64.508 0.399 8.29 2.2 8.51
9/7/2021 9:15:00 PM 17.97 64.346 0.4 8.27 2.35 8.49
9/7/2021 9:30:00 PM 17.88 64.184 0.4 8.26 2.39 8.46
9/7/2021 9:45:00 PM 17.79 64.022 0.4 8.25 2.3 8.45
9/7/2021 10:00:00 PM 17.7 63.86 0.4 8.24 2.28 8.45
9/7/2021 10:15:00 PM 17.6 63.68 0.4 8.24 2.26 8.45
9/7/2021 10:30:00 PM 17.52 63.536 0.4 8.23 2.22 8.45
9/7/2021 10:45:00 PM 17.43 63.374 0.401 8.22 2.31 8.45
9/7/2021 11:00:00 PM 17.35 63.23 0.401 8.21 2.2 8.45
9/7/2021 11:15:00 PM 17.27 63.086 0.401 8.21 2.28 8.45
9/7/2021 11:30:00 PM 17.2 62.96 0.402 8.2 2.3 8.45
9/7/2021 11:45:00 PM 17.14 62.852 0.402 8.19 2.39 8.46
9/8/2021 12:00:00 AM 17.09 62.762 0.402 8.19 2.39 8.46
9/8/2021 12:15:00 AM 17.05 62.69 0.403 8.18 2.36 8.47
9/8/2021 12:30:00 AM 17.01 62.618 0.403 8.18 2.38 8.46
9/8/2021 12:45:00 AM 16.96 62.528 0.403 8.17 2.36 8.47
9/8/2021 1:00:00 AM 16.92 62.456 0.403 8.17 2.3 8.46
9/8/2021 1:15:00 AM 16.9 62.42 0.404 8.16 2.26 8.47
9/8/2021 1:30:00 AM 16.88 62.384 0.404 8.16 2.36 8.47
9/8/2021 1:45:00 AM 16.85 62.33 0.404 8.15 2.42 8.47
9/8/2021 2:00:00 AM 16.82 62.276 0.405 8.15 2.36 8.47
9/8/2021 2:15:00 AM 16.8 62.24 0.405 8.15 2.27 8.47
9/8/2021 2:30:00 AM 16.78 62.204 0.405 8.14 2.3 8.47
9/8/2021 2:45:00 AM 16.75 62.15 0.406 8.14 2.31 8.48
9/8/2021 3:00:00 AM 16.71 62.078 0.406 8.14 2.48 8.48
9/8/2021 3:15:00 AM 16.68 62.024 0.406 8.13 2.43 8.48
9/8/2021 3:30:00 AM 16.65 61.97 0.406 8.13 2.43 8.48
9/8/2021 3:45:00 AM 16.61 61.898 0.407 8.13 2.57 8.49
9/8/2021 4:00:00 AM 16.57 61.826 0.407 8.12 2.46 8.5
9/8/2021 4:15:00 AM 16.53 61.754 0.407 8.12 2.49 8.5
9/8/2021 4:30:00 AM 16.49 61.682 0.407 8.12 2.77 8.5
9/8/2021 4:45:00 AM 16.45 61.61 0.407 8.12 2.57 8.51
9/8/2021 5:00:00 AM 16.41 61.538 0.408 8.12 2.52 8.52
9/8/2021 5:15:00 AM 16.38 61.484 0.408 8.12 4.86 8.51
9/8/2021 5:30:00 AM 16.34 61.412 0.408 8.12 6.75 8.52
9/8/2021 5:45:00 AM 16.31 61.358 0.408 8.12 2.57 8.53
9/8/2021 6:00:00 AM 16.27 61.286 0.408 8.11 2.42 8.53
9/8/2021 6:15:00 AM 16.24 61.232 0.408 8.11 3.77 8.53
9/8/2021 6:30:00 AM 16.21 61.178 0.409 8.11 2.3 8.55
9/8/2021 6:45:00 AM 16.18 61.124 0.409 8.11 2.37 8.57
9/8/2021 7:00:00 AM 16.15 61.07 0.409 8.11 2.27 8.58
9/8/2021 7:15:00 AM 16.14 61.052 0.409 8.12 2.41 8.66
9/8/2021 7:30:00 AM 16.16 61.088 0.408 8.13 2.29 8.79
9/8/2021 7:45:00 AM 16.19 61.142 0.408 8.15 2.51 8.95
9/8/2021 8:00:00 AM 16.19 61.142 0.408 8.16 2.17 9.05
9/8/2021 8:15:00 AM 16.2 61.16 0.408 8.17 2.22 9.12
9/8/2021 8:30:00 AM 16.22 61.196 0.407 8.18 2.22 9.2
9/8/2021 8:45:00 AM 16.26 61.268 0.407 8.2 2.14 9.32
9/8/2021 9:00:00 AM 16.31 61.358 0.407 8.21 2.08 9.45
9/8/2021 9:15:00 AM 16.36 61.448 0.406 8.23 2.15 9.6
9/8/2021 9:30:00 AM 16.39 61.502 0.406 8.24 2.21 9.68
9/8/2021 9:45:00 AM 16.53 61.754 0.405 8.26 2.11 9.87
9/8/2021 10:00:00 AM 16.63 61.934 0.405 8.28 2.1 10.02
9/8/2021 10:15:00 AM 16.74 62.132 0.405 8.29 2.23 10.09
9/8/2021 10:30:00 AM 16.88 62.384 0.404 8.31 2.09 10.18
9/8/2021 10:45:00 AM 17.01 62.618 0.404 8.32 2.06 10.24
9/8/2021 11:00:00 AM 17.11 62.798 0.403 8.34 2.14 10.35
9/8/2021 11:15:00 AM 17.22 62.996 0.403 8.35 2.15 10.43
9/8/2021 11:30:00 AM 17.4 63.32 0.402 8.37 2.33 10.51
9/8/2021 11:45:00 AM 17.65 63.77 0.401 8.39 2.22 10.75
9/8/2021 12:00:00 PM 17.9 64.22 0.4 8.41 2.15 10.88
9/8/2021 12:15:00 PM 18.12 64.616 0.399 8.43 2.06 10.96
9/8/2021 12:30:00 PM 18.24 64.832 0.399 8.45 2.09 11
9/8/2021 12:45:00 PM 18.51 65.318 0.397 8.47 2.1 11.17
9/8/2021 1:00:00 PM 18.79 65.82201 0.396 8.5 2.11 11.32
9/8/2021 1:15:00 PM 19.09 66.362 0.395 8.52 2.05 11.45
9/8/2021 1:30:00 PM 19.33 66.794 0.393 8.54 2.06 11.48
9/8/2021 1:45:00 PM 19.5 67.1 0.392 8.55 1.97 11.5
9/8/2021 2:00:00 PM 19.59 67.262 0.392 8.56 1.91 11.32
9/8/2021 2:15:00 PM 19.66 67.388 0.392 8.56 1.84 11.18
9/8/2021 2:30:00 PM 19.72 67.496 0.392 8.56 1.91 10.96
9/8/2021 2:45:00 PM 19.79 67.622 0.391 8.56 1.85 10.88
9/8/2021 3:00:00 PM 19.88 67.784 0.391 8.57 1.89 10.91
9/8/2021 3:15:00 PM 19.93 67.874 0.391 8.57 1.86 10.82
9/8/2021 3:30:00 PM 19.95 67.91 0.391 8.57 1.86 10.64
9/8/2021 3:45:00 PM 19.94 67.892 0.391 8.55 1.86 10.41
9/8/2021 4:00:00 PM 19.91 67.838 0.393 8.53 1.95 10.1
9/8/2021 4:15:00 PM 19.85 67.73 0.394 8.51 2.03 9.75
9/8/2021 4:30:00 PM 19.77 67.586 0.392 8.48 2.27 9.46
9/8/2021 4:45:00 PM 19.69 67.442 0.387 8.46 3.7 9.2
9/8/2021 5:00:00 PM 19.64 67.352 0.388 8.44 2.58 9.01
9/8/2021 5:15:00 PM 19.61 67.298 0.389 8.42 2.32 8.88
9/8/2021 5:30:00 PM 19.57 67.226 0.39 8.4 2.3 8.77
9/8/2021 5:45:00 PM 19.51 67.118 0.39 8.37 2.43 8.63
9/8/2021 6:00:00 PM 19.44 66.992 0.389 8.35 2.39 8.51
9/8/2021 6:15:00 PM 19.38 66.884 0.388 8.33 2.46 8.44
9/8/2021 6:30:00 PM 19.33 66.794 0.385 8.31 3.03 8.4
9/8/2021 6:45:00 PM 19.29 66.722 0.386 8.29 2.78 8.34
9/8/2021 7:00:00 PM 19.24 66.632 0.387 8.28 2.63 8.29
9/8/2021 7:15:00 PM 19.2 66.56 0.388 8.27 2.72 8.26
9/8/2021 7:30:00 PM 19.15 66.47 0.389 8.25 3.14 8.25
9/8/2021 7:45:00 PM 19.09 66.362 0.389 8.24 2.76 8.21
9/8/2021 8:00:00 PM 19.03 66.254 0.39 8.23 2.89 8.19
9/8/2021 8:15:00 PM 18.98 66.164 0.391 8.22 2.92 8.17
9/8/2021 8:30:00 PM 18.93 66.074 0.392 8.21 2.95 8.15
9/8/2021 8:45:00 PM 18.88 65.984 0.393 8.2 2.7 8.15
9/8/2021 9:00:00 PM 18.82 65.876 0.394 8.2 2.78 8.13
9/8/2021 9:15:00 PM 18.76 65.768 0.396 8.19 2.85 8.13
9/8/2021 9:30:00 PM 18.69 65.642 0.397 8.18 2.71 8.1
9/8/2021 9:45:00 PM 18.63 65.534 0.398 8.17 2.81 8.11
9/8/2021 10:00:00 PM 18.55 65.39 0.398 8.16 2.84 8.12
9/8/2021 10:15:00 PM 18.48 65.264 0.398 8.16 2.86 8.13
9/8/2021 10:30:00 PM 18.4 65.12 0.398 8.15 2.98 8.14
9/8/2021 10:45:00 PM 18.32 64.976 0.397 8.14 2.87 8.14
9/8/2021 11:00:00 PM 18.24 64.832 0.397 8.14 3.15 8.16
9/8/2021 11:15:00 PM 18.17 64.706 0.396 8.13 3.04 8.17
9/8/2021 11:30:00 PM 18.1 64.58 0.396 8.12 3.45 8.18
9/8/2021 11:45:00 PM 18.03 64.454 0.395 8.12 3.39 8.19
9/9/2021 12:00:00 AM 17.98 64.364 0.395 8.11 3.27 8.2
9/9/2021 12:15:00 AM 17.93 64.274 0.394 8.11 3.46 8.21
9/9/2021 12:30:00 AM 17.88 64.184 0.394 8.1 3.57 8.22
9/9/2021 12:45:00 AM 17.83 64.094 0.394 8.1 3.75 8.24
9/9/2021 1:00:00 AM 17.77 63.986 0.393 8.1 3.83 8.24
9/9/2021 1:15:00 AM 17.72 63.896 0.393 8.09 3.87 8.26
9/9/2021 1:30:00 AM 17.68 63.824 0.392 8.09 3.88 8.26
9/9/2021 1:45:00 AM 17.63 63.734 0.391 8.08 4.61 8.27
9/9/2021 2:00:00 AM 17.58 63.644 0.39 8.08 4.17 8.28
9/9/2021 2:15:00 AM 17.53 63.554 0.389 8.08 4.46 8.3
9/9/2021 2:30:00 AM 17.48 63.464 0.387 8.07 4.21 8.31
9/9/2021 2:45:00 AM 17.42 63.356 0.384 8.07 4.27 8.32
9/9/2021 3:00:00 AM 17.36 63.248 0.381 8.07 4.12 8.34
9/9/2021 3:15:00 AM 17.31 63.158 0.378 8.06 4.31 8.36
9/9/2021 3:30:00 AM 17.25 63.05 0.375 8.06 4.22 8.36
9/9/2021 3:45:00 AM 17.2 62.96 0.372 8.06 4.21 8.37
9/9/2021 4:00:00 AM 17.15 62.87 0.369 8.05 4.13 8.39
9/9/2021 4:15:00 AM 17.11 62.798 0.367 8.05 4.11 8.39
9/9/2021 4:30:00 AM 17.07 62.726 0.365 8.05 3.95 8.41
9/9/2021 4:45:00 AM 17.04 62.672 0.364 8.05 4.06 8.41
9/9/2021 5:00:00 AM 17.01 62.618 0.364 8.04 4.21 8.42
9/9/2021 5:15:00 AM 16.98 62.564 0.365 8.04 4.04 8.43
9/9/2021 5:30:00 AM 16.94 62.492 0.366 8.04 5.73 8.43
9/9/2021 5:45:00 AM 16.91 62.438 0.368 8.04 4.16 8.44
9/9/2021 6:00:00 AM 16.88 62.384 0.37 8.04 6.34 8.45
9/9/2021 6:15:00 AM 16.84 62.312 0.372 8.04 3.71 8.45
9/9/2021 6:30:00 AM 16.81 62.258 0.374 8.05 3.88 8.47
9/9/2021 6:45:00 AM 16.78 62.204 0.376 8.05 3.61 8.48
9/9/2021 7:00:00 AM 16.75 62.15 0.377 8.05 3.24 8.5
9/9/2021 7:15:00 AM 16.74 62.132 0.379 8.05 3.21 8.54
9/9/2021 7:30:00 AM 16.73 62.114 0.38 8.06 3.04 8.59
9/9/2021 7:45:00 AM 16.72 62.096 0.381 8.07 3.18 8.67
9/9/2021 8:00:00 AM 16.73 62.114 0.381 8.08 3.19 8.76
9/9/2021 8:15:00 AM 16.75 62.15 0.382 8.1 3.08 8.9
9/9/2021 8:30:00 AM 16.77 62.186 0.382 8.12 3.05 9.02
9/9/2021 8:45:00 AM 16.8 62.24 0.382 8.13 3.01 9.14
9/9/2021 9:00:00 AM 16.83 62.294 0.382 8.15 2.99 9.25
9/9/2021 9:15:00 AM 16.86 62.348 0.382 8.17 2.92 9.33
9/9/2021 9:30:00 AM 16.89 62.402 0.382 8.18 2.86 9.43
9/9/2021 9:45:00 AM 16.93 62.474 0.381 8.2 2.9 9.54
9/9/2021 10:00:00 AM 16.97 62.546 0.381 8.22 2.91 9.63
9/9/2021 10:15:00 AM 17 62.6 0.381 8.23 2.76 9.68
9/9/2021 10:30:00 AM 17.05 62.69 0.381 8.24 3.08 9.78
9/9/2021 10:45:00 AM 17.13 62.834 0.38 8.26 2.49 9.93
9/9/2021 11:00:00 AM 17.19 62.942 0.379 8.28 2.77 10.02
9/9/2021 11:15:00 AM 17.26 63.068 0.379 8.3 2.51 10.11
9/9/2021 11:30:00 AM 17.32 63.176 0.377 8.32 2.48 10.22
9/9/2021 11:45:00 AM 17.45 63.41 0.376 8.34 2.44 10.38
9/9/2021 12:00:00 PM 17.6 63.68 0.374 8.36 2.42 10.48
9/9/2021 12:15:00 PM 17.66 63.788 0.372 8.38 2.33 10.57
9/9/2021 12:30:00 PM 17.77 63.986 0.369 8.4 2.67 10.68
9/9/2021 12:45:00 PM 17.93 64.274 0.367 8.43 2.49 10.82
9/9/2021 1:00:00 PM 18.08 64.544 0.365 8.45 2.56 10.93
9/9/2021 1:15:00 PM 18.24 64.832 0.363 8.47 2.43 11.03
9/9/2021 1:30:00 PM 18.41 65.138 0.361 8.49 2.57 11.1
9/9/2021 1:45:00 PM 18.49 65.282 0.36 8.5 2.56 10.99
9/9/2021 2:00:00 PM 18.47 65.246 0.358 8.48 2.83 10.67
9/9/2021 2:15:00 PM 18.49 65.282 0.358 8.48 3.73 10.63
9/9/2021 2:30:00 PM 18.48 65.264 0.358 8.48 2.72 10.53
9/9/2021 2:45:00 PM 18.58 65.444 0.357 8.49 2.85 10.6
9/9/2021 3:00:00 PM 18.64 65.552 0.357 8.49 2.84 10.69
9/9/2021 3:15:00 PM 18.63 65.534 0.357 8.49 3.04 10.6
9/9/2021 3:30:00 PM 18.65 65.57 0.358 8.49 2.93 10.55
9/9/2021 3:45:00 PM 18.7 65.66 0.358 8.49 3.01 10.54
9/9/2021 4:00:00 PM 18.73 65.714 0.359 8.49 3.24 10.5
9/9/2021 4:15:00 PM 18.78 65.804 0.36 8.49 3.35 10.45
9/9/2021 4:30:00 PM 18.85 65.93 0.361 8.49 4.49 10.43
9/9/2021 4:45:00 PM 18.88 65.984 0.363 8.49 4.19 10.37
9/9/2021 5:00:00 PM 18.89 66.002 0.364 8.47 4.39 10.23
9/9/2021 5:15:00 PM 18.85 65.93 0.365 8.45 4.21 10.03
9/9/2021 5:30:00 PM 18.81 65.858 0.367 8.43 4.58 9.79
9/9/2021 5:45:00 PM 18.75 65.75 0.368 8.4 4.69 9.59
9/9/2021 6:00:00 PM 18.68 65.624 0.368 8.38 5.73 9.46
9/9/2021 6:15:00 PM 18.64 65.552 0.368 8.36 5.17 9.38
9/9/2021 6:30:00 PM 18.63 65.534 0.367 8.35 5.94 9.36
9/9/2021 6:45:00 PM 18.6 65.48 0.367 8.34 5.76 9.24
9/9/2021 7:00:00 PM 18.58 65.444 0.366 8.32 6.13 9.17
9/9/2021 7:15:00 PM 18.54 65.372 0.365 8.31 5.6 9.07
9/9/2021 7:30:00 PM 18.49 65.282 0.364 8.29 5.66 8.95
9/9/2021 7:45:00 PM 18.42 65.156 0.363 8.27 6.21 8.83
9/9/2021 8:00:00 PM 18.33 64.994 0.362 8.25 6.08 8.73
9/9/2021 8:15:00 PM 18.25 64.85 0.36 8.22 7.07 8.65
9/9/2021 8:30:00 PM 18.16 64.688 0.358 8.2 6.4 8.58
9/9/2021 8:45:00 PM 18.09 64.562 0.356 8.18 6.45 8.54
9/9/2021 9:00:00 PM 18.03 64.454 0.354 8.17 7.12 8.5
9/9/2021 9:15:00 PM 17.97 64.346 0.353 8.15 7.06 8.48
9/9/2021 9:30:00 PM 17.91 64.238 0.352 8.14 6.68 8.46
9/9/2021 9:45:00 PM 17.86 64.148 0.352 8.13 6.56 8.44
9/9/2021 10:00:00 PM 17.82 64.076 0.352 8.11 12.3 8.42
9/9/2021 10:15:00 PM 17.76 63.968 0.351 8.11 6.44 8.41
9/9/2021 10:30:00 PM 17.7 63.86 0.35 8.1 6.47 8.4
9/9/2021 10:45:00 PM 17.64 63.752 0.35 8.09 6.67 8.39
9/9/2021 11:00:00 PM 17.58 63.644 0.351 8.08 6.76 8.38
9/9/2021 11:15:00 PM 17.52 63.536 0.353 8.07 7.37 8.37
9/9/2021 11:30:00 PM 17.46 63.428 0.355 8.07 7.61 8.36
9/9/2021 11:45:00 PM 17.41 63.338 0.356 8.06 7.27 8.36
9/10/2021 12:00:00 AM 17.36 63.248 0.357 8.06 6.68 8.36
9/10/2021 12:15:00 AM 17.31 63.158 0.358 8.05 6.6 8.36
9/10/2021 12:30:00 AM 17.26 63.068 0.358 8.05 6.09 8.37
9/10/2021 12:45:00 AM 17.21 62.978 0.359 8.05 6.09 8.37
9/10/2021 1:00:00 AM 17.15 62.87 0.361 8.04 6.19 8.38
9/10/2021 1:15:00 AM 17.12 62.816 0.362 8.04 6.32 8.38
9/10/2021 1:30:00 AM 17.08 62.744 0.363 8.04 6.34 8.39
9/10/2021 1:45:00 AM 17.04 62.672 0.364 8.03 6.03 8.39
9/10/2021 2:00:00 AM 17 62.6 0.365 8.03 6.24 8.4
9/10/2021 2:15:00 AM 16.96 62.528 0.365 8.03 5.9 8.4
9/10/2021 2:30:00 AM 16.92 62.456 0.365 8.03 6.75 8.41
9/10/2021 2:45:00 AM 16.89 62.402 0.366 8.03 6.59 8.42
9/10/2021 3:00:00 AM 16.85 62.33 0.366 8.03 6.19 8.43
9/10/2021 3:15:00 AM 16.82 62.276 0.366 8.03 5.87 8.44
9/10/2021 3:30:00 AM 16.79 62.222 0.366 8.03 5.85 8.45
9/10/2021 3:45:00 AM 16.75 62.15 0.366 8.03 5.65 8.46
9/10/2021 4:00:00 AM 16.72 62.096 0.366 8.03 5.6 8.47
9/10/2021 4:15:00 AM 16.68 62.024 0.366 8.03 5.68 8.49
9/10/2021 4:30:00 AM 16.64 61.952 0.366 8.03 5.88 8.5
9/10/2021 4:45:00 AM 16.59 61.862 0.367 8.03 5.81 8.51
9/10/2021 5:00:00 AM 16.54 61.772 0.367 8.03 5.99 8.52
9/10/2021 5:15:00 AM 16.5 61.7 0.367 8.03 5.62 8.53
9/10/2021 5:30:00 AM 16.44 61.592 0.362 8.04 5.73 8.55
9/10/2021 5:45:00 AM 16.39 61.502 0.369 8.04 5.44 8.56
9/10/2021 6:00:00 AM 16.34 61.412 0.369 8.04 5.92 8.57
9/10/2021 6:15:00 AM 16.28 61.304 0.37 8.04 5.73 8.59
9/10/2021 6:30:00 AM 16.23 61.214 0.37 8.04 5.64 8.59
9/10/2021 6:45:00 AM 16.19 61.142 0.371 8.04 5.69 8.61
9/10/2021 7:00:00 AM 16.14 61.052 0.371 8.04 5.64 8.63
9/10/2021 7:15:00 AM 16.09 60.962 0.37 8.04 5.42 8.67
9/10/2021 7:30:00 AM 16.06 60.908 0.37 8.05 5.47 8.72
9/10/2021 7:45:00 AM 16.04 60.872 0.369 8.06 5.06 8.78
9/10/2021 8:00:00 AM 16.03 60.854 0.369 8.07 5.03 8.85
9/10/2021 8:15:00 AM 16.02 60.836 0.369 8.08 4.93 8.93
9/10/2021 8:30:00 AM 16.02 60.836 0.369 8.09 4.92 8.99
9/10/2021 8:45:00 AM 16.02 60.836 0.369 8.1 4.71 9.09
9/10/2021 9:00:00 AM 16.06 60.908 0.369 8.12 4.43 9.22
9/10/2021 9:15:00 AM 16.11 60.998 0.37 8.13 4.25 9.36
9/10/2021 9:30:00 AM 16.11 60.998 0.37 8.15 4.18 9.39
9/10/2021 9:45:00 AM 16.12 61.016 0.37 8.16 4.2 9.48
9/10/2021 10:00:00 AM 16.13 61.034 0.37 8.17 3.91 9.57
9/10/2021 10:15:00 AM 16.19 61.142 0.37 8.19 3.82 9.69
9/10/2021 10:30:00 AM 16.23 61.214 0.37 8.21 6.23 9.76
9/10/2021 10:45:00 AM 16.33 61.394 0.37 8.23 3.91 9.89
9/10/2021 11:00:00 AM 16.43 61.574 0.37 8.25 3.44 10
9/10/2021 11:15:00 AM 16.49 61.682 0.369 8.26 3.57 10.05
9/10/2021 11:30:00 AM 16.57 61.826 0.369 8.28 3.48 10.12
9/10/2021 11:45:00 AM 16.71 62.078 0.369 8.29 3.65 10.21
9/10/2021 12:00:00 PM 16.92 62.456 0.368 8.31 3.19 10.31
9/10/2021 12:15:00 PM 17.02 62.636 0.368 8.33 3.28 10.36
9/10/2021 12:30:00 PM 17.26 63.068 0.368 8.35 3.21 10.46
9/10/2021 12:45:00 PM 17.39 63.302 0.368 8.36 3.21 10.46
9/10/2021 1:00:00 PM 17.49 63.482 0.368 8.37 3.24 10.45
9/10/2021 1:15:00 PM 17.63 63.734 0.367 8.38 3.19 10.49
9/10/2021 1:30:00 PM 17.82 64.076 0.367 8.4 3.3 10.54
9/10/2021 1:45:00 PM 17.99 64.382 0.367 8.41 3.41 10.58
9/10/2021 2:00:00 PM 18.21 64.778 0.367 8.42 3.28 10.61
9/10/2021 2:15:00 PM 18.46 65.228 0.367 8.43 3.39 10.69
9/10/2021 2:30:00 PM 18.67 65.606 0.367 8.44 3.59 10.72
9/10/2021 2:45:00 PM 18.68 65.624 0.367 8.45 3.27 10.65
9/10/2021 3:00:00 PM 18.6 65.48 0.367 8.44 3.36 10.52
9/10/2021 3:15:00 PM 18.56 65.408 0.367 8.45 3.31 10.46
9/10/2021 3:30:00 PM 18.53 65.354 0.368 8.45 3.18 10.41
9/10/2021 3:45:00 PM 18.57 65.426 0.368 8.45 3.08 10.42
9/10/2021 4:00:00 PM 18.44 65.192 0.368 8.44 3.23 10.26
9/10/2021 4:15:00 PM 18.39 65.102 0.369 8.44 3.31 10.2
9/10/2021 4:30:00 PM 18.45 65.21 0.369 8.44 3.29 10.21
9/10/2021 4:45:00 PM 18.57 65.426 0.369 8.45 3.2 10.25
9/10/2021 5:00:00 PM 18.58 65.444 0.37 8.45 3.24 10.15
9/10/2021 5:15:00 PM 18.61 65.498 0.37 8.45 3.21 10.12
9/10/2021 5:30:00 PM 18.64 65.552 0.371 8.45 3.21 10.07
9/10/2021 5:45:00 PM 18.62 65.516 0.372 8.44 3.16 9.91
9/10/2021 6:00:00 PM 18.53 65.354 0.373 8.42 3.35 9.73
9/10/2021 6:15:00 PM 18.41 65.138 0.374 8.4 3.28 9.57
9/10/2021 6:30:00 PM 18.32 64.976 0.375 8.37 3.86 9.42
9/10/2021 6:45:00 PM 18.24 64.832 0.376 8.35 3.47 9.27
9/10/2021 7:00:00 PM 18.13 64.634 0.377 8.33 3.54 9.14
9/10/2021 7:15:00 PM 18.03 64.454 0.377 8.31 3.43 9.03
9/10/2021 7:30:00 PM 17.94 64.292 0.376 8.29 3.48 8.95
9/10/2021 7:45:00 PM 17.85 64.13 0.375 8.27 3.75 8.88
9/10/2021 8:00:00 PM 17.77 63.986 0.373 8.26 3.78 8.81
9/10/2021 8:15:00 PM 17.67 63.806 0.371 8.24 3.67 8.78
9/10/2021 8:30:00 PM 17.57 63.626 0.369 8.23 3.59 8.74
9/10/2021 8:45:00 PM 17.47 63.446 0.367 8.22 3.86 8.71
9/10/2021 9:00:00 PM 17.36 63.248 0.366 8.2 3.61 8.69
9/10/2021 9:15:00 PM 17.25 63.05 0.365 8.19 3.72 8.66
9/10/2021 9:30:00 PM 17.14 62.852 0.365 8.18 3.62 8.66
9/10/2021 9:45:00 PM 17.03 62.654 0.365 8.17 3.77 8.66
9/10/2021 10:00:00 PM 16.92 62.456 0.365 8.16 3.68 8.66
9/10/2021 10:15:00 PM 16.81 62.258 0.366 8.15 3.72 8.65
9/10/2021 10:30:00 PM 16.71 62.078 0.367 8.14 3.61 8.65
9/10/2021 10:45:00 PM 16.6 61.88 0.368 8.13 3.78 8.66
9/10/2021 11:00:00 PM 16.51 61.718 0.369 8.13 3.61 8.66
9/10/2021 11:15:00 PM 16.41 61.538 0.37 8.12 3.81 8.66
9/10/2021 11:30:00 PM 16.31 61.358 0.371 8.11 3.57 8.66
9/10/2021 11:45:00 PM 16.22 61.196 0.372 8.11 3.64 8.68
9/11/2021 12:00:00 AM 16.13 61.034 0.373 8.1 3.73 8.69
9/11/2021 12:15:00 AM 16.04 60.872 0.374 8.1 3.76 8.7
9/11/2021 12:30:00 AM 15.95 60.71 0.375 8.09 3.94 8.71
9/11/2021 12:45:00 AM 15.86 60.548 0.376 8.09 3.65 8.72
9/11/2021 1:00:00 AM 15.78 60.404 0.376 8.09 3.61 8.74
9/11/2021 1:15:00 AM 15.69 60.242 0.377 8.08 3.65 8.75
9/11/2021 1:30:00 AM 15.61 60.098 0.378 8.08 3.58 8.77
9/11/2021 1:45:00 AM 15.53 59.954 0.378 8.08 3.72 8.78
9/11/2021 2:00:00 AM 15.45 59.81 0.379 8.08 3.58 8.8
9/11/2021 2:15:00 AM 15.37 59.666 0.379 8.08 3.58 8.81
9/11/2021 2:30:00 AM 15.29 59.522 0.38 8.07 3.61 8.82
9/11/2021 2:45:00 AM 15.21 59.378 0.38 8.07 3.58 8.85
9/11/2021 3:00:00 AM 15.14 59.252 0.38 8.07 3.55 8.86
9/11/2021 3:15:00 AM 15.07 59.126 0.38 8.07 3.71 8.88
9/11/2021 3:30:00 AM 15.01 59.018 0.38 8.07 3.48 8.9
9/11/2021 3:45:00 AM 14.94 58.892 0.381 8.07 3.77 8.91
9/11/2021 4:00:00 AM 14.88 58.784 0.381 8.07 3.62 8.92
9/11/2021 4:15:00 AM 14.81 58.658 0.38 8.07 3.52 8.94
9/11/2021 4:30:00 AM 14.75 58.55 0.38 8.07 3.48 8.95
9/11/2021 4:45:00 AM 14.68 58.424 0.38 8.06 4.75 8.97
9/11/2021 5:00:00 AM 14.62 58.316 0.38 8.06 3.7 8.98
9/11/2021 5:15:00 AM 14.56 58.208 0.38 8.06 4.04 9
9/11/2021 5:30:00 AM 14.5 58.1 0.38 8.02 3.86 9.01
9/11/2021 5:45:00 AM 14.44 57.992 0.38 8.02 9.79 9.02
9/11/2021 6:00:00 AM 14.38 57.884 0.38 8.03 4.26 9.04
9/11/2021 6:15:00 AM 14.32 57.776 0.38 8.03 3.81 9.05
9/11/2021 6:30:00 AM 14.26 57.668 0.38 8.04 3.81 9.06
9/11/2021 6:45:00 AM 14.21 57.578 0.38 8.04 3.7 9.09
9/11/2021 7:00:00 AM 14.17 57.506 0.38 8.04 3.39 9.13
9/11/2021 7:15:00 AM 14.13 57.434 0.38 8.05 3.32 9.19
9/11/2021 7:30:00 AM 14.11 57.398 0.38 8.06 3.19 9.28
9/11/2021 7:45:00 AM 14.09 57.362 0.379 8.07 3.25 9.36
9/11/2021 8:00:00 AM 14.07 57.326 0.379 8.08 2.95 9.42
9/11/2021 8:15:00 AM 14.07 57.326 0.379 8.09 3.3 9.48
9/11/2021 8:30:00 AM 14.09 57.362 0.379 8.11 3.11 9.61
9/11/2021 8:45:00 AM 14.1 57.38 0.379 8.13 3.1 9.68
9/11/2021 9:00:00 AM 14.12 57.416 0.379 8.14 3.01 9.74
9/11/2021 9:15:00 AM 14.18 57.524 0.379 8.15 3.03 9.85
9/11/2021 9:30:00 AM 14.24 57.632 0.378 8.17 2.92 9.98
9/11/2021 9:45:00 AM 14.28 57.704 0.378 8.19 3.01 10.03
9/11/2021 10:00:00 AM 14.38 57.884 0.378 8.2 2.86 10.15
9/11/2021 10:15:00 AM 14.46 58.028 0.378 8.22 2.71 10.24
9/11/2021 10:30:00 AM 14.58 58.244 0.377 8.23 2.64 10.33
9/11/2021 10:45:00 AM 14.69 58.442 0.377 8.25 3.22 10.39
9/11/2021 11:00:00 AM 14.83 58.694 0.377 8.27 2.7 10.48
9/11/2021 11:15:00 AM 14.98 58.964 0.377 8.28 2.57 10.57
9/11/2021 11:30:00 AM 15.16 59.288 0.376 8.3 2.61 10.66
9/11/2021 11:45:00 AM 15.34 59.612 0.377 8.32 2.56 10.72
9/11/2021 12:00:00 PM 15.53 59.954 0.376 8.34 2.54 10.83
9/11/2021 12:15:00 PM 15.76 60.368 0.376 8.36 2.53 10.92
9/11/2021 12:30:00 PM 15.95 60.71 0.375 8.38 2.47 11
9/11/2021 12:45:00 PM 16.17 61.106 0.375 8.41 2.48 11.06
9/11/2021 1:00:00 PM 16.35 61.43 0.374 8.42 2.54 11.11
9/11/2021 1:15:00 PM 16.66 61.988 0.374 8.45 2.36 11.2
9/11/2021 1:30:00 PM 17 62.6 0.373 8.48 2.42 11.34
9/11/2021 1:45:00 PM 17.22 62.996 0.372 8.5 2.29 11.4
9/11/2021 2:00:00 PM 17.46 63.428 0.372 8.51 2.33 11.4
9/11/2021 2:15:00 PM 17.7 63.86 0.372 8.53 2.38 11.44
9/11/2021 2:30:00 PM 17.91 64.238 0.371 8.55 2.41 11.49
9/11/2021 2:45:00 PM 18.08 64.544 0.371 8.56 2.39 11.45
9/11/2021 3:00:00 PM 18.2 64.76 0.37 8.56 2.31 11.39
9/11/2021 3:15:00 PM 18.4 65.12 0.37 8.58 2.31 11.39
9/11/2021 3:30:00 PM 18.51 65.318 0.37 8.58 2.28 11.34
9/11/2021 3:45:00 PM 18.67 65.606 0.37 8.59 2.26 11.3
9/11/2021 4:00:00 PM 18.77 65.786 0.369 8.59 2.35 11.25
9/11/2021 4:15:00 PM 18.83 65.894 0.37 8.59 2.37 11.17
9/11/2021 4:30:00 PM 18.87 65.966 0.37 8.59 4.75 11.05
9/11/2021 4:45:00 PM 18.89 66.002 0.37 8.59 2.28 11.02
9/11/2021 5:00:00 PM 18.9 66.02 0.37 8.59 2.73 10.91
9/11/2021 5:15:00 PM 18.87 65.966 0.371 8.58 2.74 10.7
9/11/2021 5:30:00 PM 18.84 65.912 0.371 8.57 2.36 10.58
9/11/2021 5:45:00 PM 18.78 65.804 0.372 8.56 3.19 10.45
9/11/2021 6:00:00 PM 18.69 65.642 0.373 8.54 2.54 10.25
9/11/2021 6:15:00 PM 18.58 65.444 0.374 8.51 2.51 10.03
9/11/2021 6:30:00 PM 18.48 65.264 0.374 8.49 2.52 9.84
9/11/2021 6:45:00 PM 18.38 65.084 0.375 8.46 2.52 9.65
9/11/2021 7:00:00 PM 18.28 64.904 0.377 8.44 2.62 9.46
9/11/2021 7:15:00 PM 18.19 64.742 0.377 8.41 2.68 9.29
9/11/2021 7:30:00 PM 18.1 64.58 0.378 8.39 2.92 9.13
9/11/2021 7:45:00 PM 18.02 64.436 0.379 8.36 5.64 9.01
9/11/2021 8:00:00 PM 17.95 64.31 0.38 8.34 2.71 8.92
9/11/2021 8:15:00 PM 17.88 64.184 0.38 8.32 2.74 8.84
9/11/2021 8:30:00 PM 17.82 64.076 0.381 8.31 2.65 8.76
9/11/2021 8:45:00 PM 17.75 63.95 0.381 8.29 3.02 8.72
9/11/2021 9:00:00 PM 17.68 63.824 0.382 8.28 2.78 8.68
9/11/2021 9:15:00 PM 17.6 63.68 0.383 8.26 2.75 8.65
9/11/2021 9:30:00 PM 17.52 63.536 0.383 8.25 3 8.63
9/11/2021 9:45:00 PM 17.45 63.41 0.383 8.24 2.68 8.6
9/11/2021 10:00:00 PM 17.37 63.266 0.384 8.22 2.65 8.58
9/11/2021 10:15:00 PM 17.28 63.104 0.384 8.21 2.62 8.57
9/11/2021 10:30:00 PM 17.2 62.96 0.385 8.2 2.64 8.56
9/11/2021 10:45:00 PM 17.12 62.816 0.385 8.19 2.68 8.56
9/11/2021 11:00:00 PM 17.05 62.69 0.386 8.19 2.71 8.54
9/11/2021 11:15:00 PM 16.99 62.582 0.386 8.18 2.57 8.54
9/11/2021 11:30:00 PM 16.92 62.456 0.387 8.17 2.71 8.53
9/11/2021 11:45:00 PM 16.85 62.33 0.387 8.16 2.64 8.54
9/12/2021 12:00:00 AM 16.8 62.24 0.388 8.15 2.77 8.53
9/12/2021 12:15:00 AM 16.75 62.15 0.388 8.15 2.84 8.53
9/12/2021 12:30:00 AM 16.7 62.06 0.389 8.14 2.78 8.53
9/12/2021 12:45:00 AM 16.67 62.006 0.389 8.13 2.69 8.53
9/12/2021 1:00:00 AM 16.63 61.934 0.389 8.13 2.78 8.54
9/12/2021 1:15:00 AM 16.6 61.88 0.39 8.12 2.7 8.53
9/12/2021 1:30:00 AM 16.56 61.808 0.39 8.12 2.72 8.54
9/12/2021 1:45:00 AM 16.51 61.718 0.39 8.12 2.71 8.54
9/12/2021 2:00:00 AM 16.47 61.646 0.391 8.11 2.87 8.54
9/12/2021 2:15:00 AM 16.43 61.574 0.391 8.11 2.99 8.55
9/12/2021 2:30:00 AM 16.39 61.502 0.391 8.11 2.93 8.55
9/12/2021 2:45:00 AM 16.34 61.412 0.392 8.1 2.76 8.56
9/12/2021 3:00:00 AM 16.29 61.322 0.392 8.1 2.79 8.56
9/12/2021 3:15:00 AM 16.24 61.232 0.392 8.1 2.86 8.56
9/12/2021 3:30:00 AM 16.19 61.142 0.392 8.1 3.11 8.58
9/12/2021 3:45:00 AM 16.14 61.052 0.393 8.09 2.87 8.58
9/12/2021 4:00:00 AM 16.1 60.98 0.393 8.09 2.82 8.58
9/12/2021 4:15:00 AM 16.06 60.908 0.393 8.09 2.86 8.59
9/12/2021 4:30:00 AM 16.04 60.872 0.393 8.09 2.74 8.6
9/12/2021 4:45:00 AM 16.02 60.836 0.393 8.09 2.74 8.61
9/12/2021 5:00:00 AM 16.01 60.818 0.393 8.09 2.69 8.6
9/12/2021 5:15:00 AM 15.99 60.782 0.394 8.09 2.68 8.62
9/12/2021 5:30:00 AM 15.99 60.782 0.394 8.09 2.96 8.62
9/12/2021 5:45:00 AM 15.98 60.764 0.394 8.08 2.74 8.62
9/12/2021 6:00:00 AM 15.96 60.728 0.394 8.08 3.68 8.61
9/12/2021 6:15:00 AM 15.94 60.692 0.394 8.08 2.89 8.62
9/12/2021 6:30:00 AM 15.91 60.638 0.394 8.08 2.76 8.63
9/12/2021 6:45:00 AM 15.89 60.602 0.394 8.08 3.01 8.63
9/12/2021 7:00:00 AM 15.86 60.548 0.394 8.08 2.85 8.65
9/12/2021 7:15:00 AM 15.84 60.512 0.394 8.08 2.77 8.7
9/12/2021 7:30:00 AM 15.82 60.476 0.394 8.09 2.62 8.77
9/12/2021 7:45:00 AM 15.82 60.476 0.394 8.1 2.71 8.88
9/12/2021 8:00:00 AM 15.82 60.476 0.394 8.12 2.56 9.01
9/12/2021 8:15:00 AM 15.85 60.53 0.393 8.14 2.58 9.19
9/12/2021 8:30:00 AM 15.87 60.566 0.393 8.15 2.51 9.32
9/12/2021 8:45:00 AM 15.93 60.674 0.393 8.18 2.48 9.51
9/12/2021 9:00:00 AM 16 60.8 0.392 8.2 3.5 9.68
9/12/2021 9:15:00 AM 16.06 60.908 0.392 8.22 2.38 9.81
9/12/2021 9:30:00 AM 16.16 61.088 0.391 8.25 2.4 10.02
9/12/2021 9:45:00 AM 16.29 61.322 0.39 8.29 2.37 10.31
9/12/2021 10:00:00 AM 16.37 61.466 0.39 8.31 2.47 10.39
9/12/2021 10:15:00 AM 16.42 61.556 0.39 8.32 2.36 10.36
9/12/2021 10:30:00 AM 16.58 61.844 0.389 8.35 2.6 10.58
9/12/2021 10:45:00 AM 16.73 62.114 0.388 8.39 2.43 10.87
9/12/2021 11:00:00 AM 16.82 62.276 0.387 8.41 2.33 10.96
9/12/2021 11:15:00 AM 16.92 62.456 0.387 8.42 2.52 10.97
9/12/2021 11:30:00 AM 17.11 62.798 0.386 8.44 2.49 11.16
9/12/2021 11:45:00 AM 17.3 63.14 0.385 8.48 2.43 11.37
9/12/2021 12:00:00 PM 17.37 63.266 0.385 8.49 2.33 11.36
9/12/2021 12:15:00 PM 17.41 63.338 0.384 8.5 2.3 11.27
9/12/2021 12:30:00 PM 17.45 63.41 0.384 8.49 2.35 11.07
9/12/2021 12:45:00 PM 17.48 63.464 0.385 8.48 2.31 10.83
9/12/2021 1:00:00 PM 17.51 63.518 0.385 8.47 2.21 10.6
9/12/2021 1:15:00 PM 17.56 63.608 0.385 8.47 2.15 10.47
9/12/2021 1:30:00 PM 17.62 63.716 0.385 8.47 2.23 10.4
9/12/2021 1:45:00 PM 17.7 63.86 0.385 8.47 2.16 10.42
9/12/2021 2:00:00 PM 17.76 63.968 0.385 8.47 2.21 10.37
9/12/2021 2:15:00 PM 17.78 64.004 0.385 8.46 2.14 10.25
9/12/2021 2:30:00 PM 17.8 64.04 0.385 8.45 2.16 10.16
9/12/2021 2:45:00 PM 17.82 64.076 0.385 8.44 2.21 10.07
9/12/2021 3:00:00 PM 17.84 64.112 0.385 8.44 2.21 10
9/12/2021 3:15:00 PM 17.87 64.166 0.385 8.43 2.17 9.96
9/12/2021 3:30:00 PM 17.93 64.274 0.385 8.44 2.24 10.01
9/12/2021 3:45:00 PM 18.08 64.544 0.384 8.47 2.2 10.29
9/12/2021 4:00:00 PM 18.2 64.76 0.383 8.49 2.19 10.47
9/12/2021 4:15:00 PM 18.27 64.886 0.383 8.5 2.12 10.49
9/12/2021 4:30:00 PM 18.34 65.012 0.382 8.51 2.23 10.47
9/12/2021 4:45:00 PM 18.36 65.048 0.382 8.5 2.34 10.27
9/12/2021 5:00:00 PM 18.37 65.066 0.382 8.49 2.28 10.1
9/12/2021 5:15:00 PM 18.38 65.084 0.382 8.48 2.34 9.93
9/12/2021 5:30:00 PM 18.37 65.066 0.383 8.47 2.26 9.77
9/12/2021 5:45:00 PM 18.35 65.03 0.383 8.45 2.29 9.58
9/12/2021 6:00:00 PM 18.32 64.976 0.384 8.42 2.45 9.39
9/12/2021 6:15:00 PM 18.28 64.904 0.384 8.39 2.37 9.22
9/12/2021 6:30:00 PM 18.24 64.832 0.385 8.36 2.39 9.06
9/12/2021 6:45:00 PM 18.2 64.76 0.385 8.34 2.65 8.92
9/12/2021 7:00:00 PM 18.17 64.706 0.386 8.31 2.64 8.82
9/12/2021 7:15:00 PM 18.14 64.652 0.386 8.29 2.51 8.74
9/12/2021 7:30:00 PM 18.1 64.58 0.387 8.27 2.46 8.66
9/12/2021 7:45:00 PM 18.07 64.526 0.387 8.25 2.76 8.6
9/12/2021 8:00:00 PM 18.05 64.49 0.388 8.23 2.55 8.53
9/12/2021 8:15:00 PM 18.02 64.436 0.388 8.21 2.59 8.51
9/12/2021 8:30:00 PM 18 64.4 0.388 8.19 2.49 8.48
9/12/2021 8:45:00 PM 17.98 64.364 0.388 8.18 2.43 8.46
9/12/2021 9:00:00 PM 17.96 64.328 0.388 8.17 2.63 8.44
9/12/2021 9:15:00 PM 17.94 64.292 0.389 8.16 2.47 8.42
9/12/2021 9:30:00 PM 17.92 64.256 0.389 8.14 2.42 8.4
9/12/2021 9:45:00 PM 17.9 64.22 0.389 8.13 2.5 8.38
9/12/2021 10:00:00 PM 17.88 64.184 0.388 8.12 2.58 8.37
9/12/2021 10:15:00 PM 17.87 64.166 0.388 8.11 2.6 8.36
9/12/2021 10:30:00 PM 17.85 64.13 0.388 8.1 2.59 8.34
9/12/2021 10:45:00 PM 17.83 64.094 0.388 8.09 2.43 8.33
9/12/2021 11:00:00 PM 17.81 64.058 0.388 8.08 2.52 8.32
9/12/2021 11:15:00 PM 17.79 64.022 0.388 8.08 2.53 8.31
9/12/2021 11:30:00 PM 17.77 63.986 0.388 8.07 2.79 8.3
9/12/2021 11:45:00 PM 17.75 63.95 0.388 8.07 2.57 8.29
9/13/2021 12:00:00 AM 17.73 63.914 0.387 8.05 2.64 8.29
9/13/2021 12:15:00 AM 17.72 63.896 0.388 8.05 2.75 8.28
9/13/2021 12:30:00 AM 17.7 63.86 0.388 8.05 2.59 8.26
9/13/2021 12:45:00 AM 17.68 63.824 0.388 8.04 2.54 8.27
9/13/2021 1:00:00 AM 17.67 63.806 0.389 8.04 2.66 8.27
9/13/2021 1:15:00 AM 17.65 63.77 0.389 8.04 2.74 8.28
9/13/2021 1:30:00 AM 17.64 63.752 0.389 8.03 2.67 8.27
9/13/2021 1:45:00 AM 17.62 63.716 0.389 8.03 2.69 8.27
9/13/2021 2:00:00 AM 17.61 63.698 0.39 8.03 2.74 8.27
9/13/2021 2:15:00 AM 17.57 63.626 0.389 8.03 2.6 8.28
9/13/2021 2:30:00 AM 17.52 63.536 0.389 8.04 2.65 8.27
9/13/2021 2:45:00 AM 17.45 63.41 0.389 8.04 2.57 8.29
9/13/2021 3:00:00 AM 17.36 63.248 0.388 8.04 2.67 8.32
9/13/2021 3:15:00 AM 17.27 63.086 0.385 8.05 2.88 8.34
9/13/2021 3:30:00 AM 17.19 62.942 0.383 8.05 2.99 8.36
9/13/2021 3:45:00 AM 17.12 62.816 0.382 8.05 2.9 8.39
9/13/2021 4:00:00 AM 17.04 62.672 0.383 8.06 3.04 8.4
9/13/2021 4:15:00 AM 16.96 62.528 0.382 8.06 3.24 8.42
9/13/2021 4:30:00 AM 16.88 62.384 0.382 8.06 3.04 8.45
9/13/2021 4:45:00 AM 16.81 62.258 0.381 8.06 3.45 8.45
9/13/2021 5:00:00 AM 16.75 62.15 0.381 8.06 3.09 8.45
9/13/2021 5:15:00 AM 16.7 62.06 0.382 8.06 3.21 8.46
9/13/2021 5:30:00 AM 16.66 61.988 0.383 8.06 3.24 8.47
9/13/2021 5:45:00 AM 16.61 61.898 0.384 8.05 5.91 8.46
9/13/2021 6:00:00 AM 16.58 61.844 0.386 8.05 3.41 8.47
9/13/2021 6:15:00 AM 16.53 61.754 0.387 8.05 3.17 8.49
9/13/2021 6:30:00 AM 16.51 61.718 0.388 8.06 3.19 8.49
9/13/2021 6:45:00 AM 16.47 61.646 0.388 8.06 3.41 8.5
9/13/2021 7:00:00 AM 16.43 61.574 0.388 8.06 3.18 8.52
9/13/2021 7:15:00 AM 16.39 61.502 0.387 8.06 3.14 8.56
9/13/2021 7:30:00 AM 16.35 61.43 0.387 8.07 2.92 8.63
9/13/2021 7:45:00 AM 16.32 61.376 0.386 8.07 3.21 8.71
9/13/2021 8:00:00 AM 16.33 61.394 0.386 8.09 3.37 8.82
9/13/2021 8:15:00 AM 16.3 61.34 0.385 8.09 3.05 8.89
9/13/2021 8:30:00 AM 16.29 61.322 0.385 8.1 3.31 8.97
9/13/2021 8:45:00 AM 16.3 61.34 0.384 8.11 3.7 9.06
9/13/2021 9:00:00 AM 16.31 61.358 0.383 8.12 4.59 9.14
9/13/2021 9:15:00 AM 16.32 61.376 0.382 8.12 4.05 9.19
9/13/2021 9:30:00 AM 16.35 61.43 0.381 8.12 4.8 9.24
9/13/2021 9:45:00 AM 16.4 61.52 0.38 8.13 4.63 9.3
9/13/2021 10:00:00 AM 16.45 61.61 0.379 8.14 5 9.37
9/13/2021 10:15:00 AM 16.52 61.736 0.377 8.15 4.99 9.44
9/13/2021 10:30:00 AM 16.6 61.88 0.374 8.16 7.58 9.54
9/13/2021 10:45:00 AM 16.68 62.024 0.369 8.18 4.89 9.63
9/13/2021 11:00:00 AM 16.75 62.15 0.362 8.2 4.54 9.71
9/13/2021 11:15:00 AM 16.86 62.348 0.356 8.22 4.85 9.85
9/13/2021 11:30:00 AM 16.98 62.564 0.351 8.24 4.38 9.96
9/13/2021 11:45:00 AM 17.11 62.798 0.347 8.26 4.24 10.06
9/13/2021 12:00:00 PM 17.25 63.05 0.346 8.28 4.01 10.15
9/13/2021 12:15:00 PM 17.42 63.356 0.346 8.3 4.13 10.26
9/13/2021 12:30:00 PM 17.61 63.698 0.348 8.33 4.47 10.35
9/13/2021 12:45:00 PM 17.8 64.04 0.35 8.35 3.89 10.42
9/13/2021 1:00:00 PM 18.02 64.436 0.352 8.37 3.87 10.51
9/13/2021 1:15:00 PM 18.23 64.814 0.354 8.38 3.93 10.57
9/13/2021 1:30:00 PM 18.43 65.174 0.355 8.4 4.81 10.64
9/13/2021 1:45:00 PM 18.63 65.534 0.355 8.42 3.82 10.68
9/13/2021 2:00:00 PM 18.83 65.894 0.355 8.43 4.09 10.72
9/13/2021 2:15:00 PM 18.93 66.074 0.355 8.44 6.4 10.66
9/13/2021 2:30:00 PM 19.09 66.362 0.353 8.46 4.44 10.71
9/13/2021 2:45:00 PM 19.17 66.506 0.352 8.47 4.25 10.71
9/13/2021 3:00:00 PM 19.2 66.56 0.35 8.47 4.43 10.62
9/13/2021 3:15:00 PM 19.21 66.578 0.348 8.47 5.18 10.55
9/13/2021 3:30:00 PM 19.22 66.596 0.346 8.48 4.26 10.47
9/13/2021 3:45:00 PM 19.25 66.65 0.342 8.48 4.01 10.48
9/13/2021 4:00:00 PM 19.31 66.758 0.338 8.49 4.75 10.5
9/13/2021 4:15:00 PM 19.35 66.83 0.334 8.49 4.45 10.45
9/13/2021 4:30:00 PM 19.41 66.938 0.33 8.49 4.3 10.39
9/13/2021 4:45:00 PM 19.46 67.028 0.325 8.49 4.75 10.3
9/13/2021 5:00:00 PM 19.47 67.046 0.322 8.49 4.82 10.21
9/13/2021 5:15:00 PM 19.42 66.956 0.32 8.47 5.15 10.07
9/13/2021 5:30:00 PM 19.33 66.794 0.318 8.45 5.39 9.9
9/13/2021 5:45:00 PM 19.21 66.578 0.318 8.42 5.87 9.73
9/13/2021 6:00:00 PM 19.1 66.38 0.319 8.38 6.04 9.55
9/13/2021 6:15:00 PM 19 66.2 0.32 8.35 6.15 9.39
9/13/2021 6:30:00 PM 18.91 66.038 0.322 8.32 6.15 9.25
9/13/2021 6:45:00 PM 18.83 65.894 0.324 8.3 6.06 9.15
9/13/2021 7:00:00 PM 18.76 65.768 0.327 8.28 5.86 9.04
9/13/2021 7:15:00 PM 18.68 65.624 0.33 8.26 5.74 8.95
9/13/2021 7:30:00 PM 18.6 65.48 0.333 8.24 7.19 8.87
9/13/2021 7:45:00 PM 18.51 65.318 0.336 8.22 7.63 8.79
9/13/2021 8:00:00 PM 18.42 65.156 0.338 8.2 6.83 8.73
9/13/2021 8:15:00 PM 18.33 64.994 0.341 8.18 6.5 8.67
9/13/2021 8:30:00 PM 18.26 64.868 0.343 8.17 6.14 8.62
9/13/2021 8:45:00 PM 18.19 64.742 0.345 8.15 6.56 8.58
9/13/2021 9:00:00 PM 18.14 64.652 0.346 8.14 5.99 8.55
9/13/2021 9:15:00 PM 18.09 64.562 0.347 8.13 6.82 8.51
9/13/2021 9:30:00 PM 18.05 64.49 0.349 8.12 6.74 8.48
9/13/2021 9:45:00 PM 18 64.4 0.35 8.11 6.13 8.46
9/13/2021 10:00:00 PM 17.95 64.31 0.351 8.1 7.05 8.44
9/13/2021 10:15:00 PM 17.89 64.202 0.353 8.09 26.11 8.42
9/13/2021 10:30:00 PM 17.83 64.094 0.354 8.08 6.98 8.42
9/13/2021 10:45:00 PM 17.77 63.986 0.357 8.08 7.55 8.39
9/13/2021 11:00:00 PM 17.7 63.86 0.358 8.07 6.7 8.4
9/13/2021 11:15:00 PM 17.64 63.752 0.359 8.07 6.7 8.4
9/13/2021 11:30:00 PM 17.58 63.644 0.361 8.06 6.3 8.4
9/13/2021 11:45:00 PM 17.52 63.536 0.362 8.06 6.63 8.41
9/14/2021 12:00:00 AM 17.46 63.428 0.363 8.05 6.78 8.41
9/14/2021 12:15:00 AM 17.4 63.32 0.364 8.05 6.56 8.42
9/14/2021 12:30:00 AM 17.34 63.212 0.365 8.05 7.08 8.42
9/14/2021 12:45:00 AM 17.28 63.104 0.366 8.05 7.05 8.43
9/14/2021 1:00:00 AM 17.22 62.996 0.367 8.04 6.88 8.44
9/14/2021 1:15:00 AM 17.15 62.87 0.368 8.04 7.58 8.45
9/14/2021 1:30:00 AM 17.09 62.762 0.369 8.04 6.71 8.46
9/14/2021 1:45:00 AM 17.03 62.654 0.37 8.04 7.27 8.47
9/14/2021 2:00:00 AM 16.98 62.564 0.37 8.03 8.65 8.48
9/14/2021 2:15:00 AM 16.92 62.456 0.371 8.03 9.93 8.49
9/14/2021 2:30:00 AM 16.87 62.366 0.371 8.03 8.23 8.5
9/14/2021 2:45:00 AM 16.81 62.258 0.372 8.03 7.63 8.51
9/14/2021 3:00:00 AM 16.75 62.15 0.372 8.03 7.18 8.52
9/14/2021 3:15:00 AM 16.7 62.06 0.372 8.02 8.34 8.53
9/14/2021 3:30:00 AM 16.65 61.97 0.372 8.02 7.76 8.54
9/14/2021 3:45:00 AM 16.61 61.898 0.372 8.02 7.95 8.55
9/14/2021 4:00:00 AM 16.57 61.826 0.372 8.02 7.29 8.56
9/14/2021 4:15:00 AM 16.53 61.754 0.371 8.02 8.11 8.56
9/14/2021 4:30:00 AM 16.49 61.682 0.371 8.02 7.17 8.57
9/14/2021 4:45:00 AM 16.45 61.61 0.37 8.02 8.15 8.58
9/14/2021 5:00:00 AM 16.41 61.538 0.369 8.02 7.77 8.59
9/14/2021 5:15:00 AM 16.37 61.466 0.368 8.01 7.22 8.59
9/14/2021 5:30:00 AM 16.33 61.394 0.366 8.01 7.48 8.6
9/14/2021 5:45:00 AM 16.3 61.34 0.365 8.01 9.39 8.61
9/14/2021 6:00:00 AM 16.26 61.268 0.363 8.01 7.45 8.61
9/14/2021 6:15:00 AM 16.22 61.196 0.362 8 7.4 8.62
9/14/2021 6:30:00 AM 16.19 61.142 0.361 8 9.81 8.63
9/14/2021 6:45:00 AM 16.16 61.088 0.36 8 8.03 8.63
9/14/2021 7:00:00 AM 16.13 61.034 0.359 8 7.5 8.66
9/14/2021 7:15:00 AM 16.1 60.98 0.358 8 7.47 8.68
9/14/2021 7:30:00 AM 16.07 60.926 0.357 8 7.04 8.73
9/14/2021 7:45:00 AM 16.04 60.872 0.357 8.01 6.67 8.79
9/14/2021 8:00:00 AM 16.04 60.872 0.357 8.02 7.18 8.87
9/14/2021 8:15:00 AM 16.05 60.89 0.357 8.03 6.6 8.96
9/14/2021 8:30:00 AM 16.06 60.908 0.357 8.04 6.54 9.04
9/14/2021 8:45:00 AM 16.08 60.944 0.358 8.05 5.85 9.1
9/14/2021 9:00:00 AM 16.12 61.016 0.358 8.07 5.88 9.22
9/14/2021 9:15:00 AM 16.17 61.106 0.359 8.08 5.63 9.34
9/14/2021 9:30:00 AM 16.22 61.196 0.36 8.1 5.31 9.45
9/14/2021 9:45:00 AM 16.28 61.304 0.36 8.13 5.09 9.59
9/14/2021 10:00:00 AM 16.33 61.394 0.361 8.15 4.51 9.7
9/14/2021 10:15:00 AM 16.42 61.556 0.362 8.17 5.18 9.84
9/14/2021 10:30:00 AM 16.5 61.7 0.363 8.19 6.05 9.95
9/14/2021 10:45:00 AM 16.57 61.826 0.363 8.21 4.62 10.03
9/14/2021 11:00:00 AM 16.66 61.988 0.365 8.23 4.7 10.14
9/14/2021 11:15:00 AM 16.78 62.204 0.366 8.26 4.23 10.26
9/14/2021 11:30:00 AM 16.9 62.42 0.366 8.28 4.2 10.35
9/14/2021 11:45:00 AM 17.04 62.672 0.366 8.31 4.24 10.48
9/14/2021 12:00:00 PM 17.21 62.978 0.366 8.33 4.4 10.61
9/14/2021 12:15:00 PM 17.46 63.428 0.366 8.36 3.92 10.75
9/14/2021 12:30:00 PM 17.55 63.59 0.367 8.38 4.01 10.74
9/14/2021 12:45:00 PM 17.63 63.734 0.367 8.38 3.92 10.72
9/14/2021 1:00:00 PM 17.9 64.22 0.366 8.41 4.23 10.9
9/14/2021 1:15:00 PM 18.1 64.58 0.366 8.43 3.89 10.99
9/14/2021 1:30:00 PM 18.28 64.904 0.366 8.45 4.02 11.03
9/14/2021 1:45:00 PM 18.44 65.192 0.365 8.46 4.07 11.05
9/14/2021 2:00:00 PM 18.57 65.426 0.365 8.47 4.16 11.07
9/14/2021 2:15:00 PM 18.74 65.732 0.364 8.49 4.26 11.08
9/14/2021 2:30:00 PM 18.92 66.056 0.363 8.5 4.36 11.08
9/14/2021 2:45:00 PM 19.08 66.344 0.363 8.5 3.99 11.08
9/14/2021 3:00:00 PM 19.11 66.398 0.362 8.5 4.07 10.92
9/14/2021 3:15:00 PM 19.13 66.434 0.362 8.49 3.86 10.72
9/14/2021 3:30:00 PM 19.19 66.542 0.362 8.49 4.01 10.68
9/14/2021 3:45:00 PM 19.26 66.668 0.361 8.49 4.11 10.67
9/14/2021 4:00:00 PM 19.32 66.776 0.361 8.49 4.11 10.59
9/14/2021 4:15:00 PM 19.41 66.938 0.36 8.49 4.01 10.59
9/14/2021 4:30:00 PM 19.51 67.118 0.36 8.5 4.11 10.55
9/14/2021 4:45:00 PM 19.57 67.226 0.36 8.49 4.25 10.44
9/14/2021 5:00:00 PM 19.62 67.316 0.359 8.49 4.19 10.32
9/14/2021 5:15:00 PM 19.64 67.352 0.36 8.47 4.18 10.14
9/14/2021 5:30:00 PM 19.62 67.316 0.36 8.46 4.2 10
9/14/2021 5:45:00 PM 19.56 67.208 0.36 8.43 4.47 9.79
9/14/2021 6:00:00 PM 19.5 67.1 0.361 8.4 4.57 9.62
9/14/2021 6:15:00 PM 19.45 67.01 0.361 8.38 4.32 9.48
9/14/2021 6:30:00 PM 19.4 66.92 0.361 8.36 4.74 9.34
9/14/2021 6:45:00 PM 19.36 66.848 0.362 8.34 4.58 9.22
9/14/2021 7:00:00 PM 19.29 66.722 0.362 8.32 4.48 9.08
9/14/2021 7:15:00 PM 19.22 66.596 0.362 8.29 4.33 8.95
9/14/2021 7:30:00 PM 19.15 66.47 0.363 8.26 4.59 8.83
9/14/2021 7:45:00 PM 19.08 66.344 0.363 8.24 7.85 8.71
9/14/2021 8:00:00 PM 19.01 66.218 0.364 8.22 4.94 8.62
9/14/2021 8:15:00 PM 18.94 66.092 0.364 8.19 4.79 8.54
9/14/2021 8:30:00 PM 18.87 65.966 0.364 8.18 4.43 8.48
9/14/2021 8:45:00 PM 18.81 65.858 0.365 8.16 4.82 8.43
9/14/2021 9:00:00 PM 18.74 65.732 0.365 8.14 4.64 8.39
9/14/2021 9:15:00 PM 18.68 65.624 0.365 8.13 4.54 8.35
9/14/2021 9:30:00 PM 18.62 65.516 0.366 8.12 4.65 8.32
9/14/2021 9:45:00 PM 18.57 65.426 0.366 8.11 4.63 8.3
9/14/2021 10:00:00 PM 18.51 65.318 0.366 8.09 4.5 8.28
9/14/2021 10:15:00 PM 18.45 65.21 0.367 8.08 7.94 8.26
9/14/2021 10:30:00 PM 18.39 65.102 0.367 8.07 4.93 8.23
9/14/2021 10:45:00 PM 18.35 65.03 0.367 8.06 4.62 8.22
9/14/2021 11:00:00 PM 18.3 64.94 0.368 8.06 4.43 8.21
9/14/2021 11:15:00 PM 18.25 64.85 0.368 8.05 4.42 8.2
9/14/2021 11:30:00 PM 18.21 64.778 0.368 8.05 4.38 8.19
9/14/2021 11:45:00 PM 18.17 64.706 0.368 8.04 4.53 8.18
9/15/2021 12:00:00 AM 18.13 64.634 0.369 8.04 5.16 8.17
9/15/2021 12:15:00 AM 18.09 64.562 0.369 8.03 5.24 8.16
9/15/2021 12:30:00 AM 18.05 64.49 0.369 8.03 4.48 8.17
9/15/2021 12:45:00 AM 18.02 64.436 0.369 8.03 4.69 8.16
9/15/2021 1:00:00 AM 17.99 64.382 0.369 8.02 4.64 8.17
9/15/2021 1:15:00 AM 17.96 64.328 0.369 8.02 4.5 8.16
9/15/2021 1:30:00 AM 17.93 64.274 0.369 8.02 4.87 8.16
9/15/2021 1:45:00 AM 17.9 64.22 0.37 8.02 4.6 8.16
9/15/2021 2:00:00 AM 17.86 64.148 0.37 8.01 4.38 8.17
9/15/2021 2:15:00 AM 17.83 64.094 0.37 8.01 4.63 8.17
9/15/2021 2:30:00 AM 17.8 64.04 0.37 8.01 4.4 8.18
9/15/2021 2:45:00 AM 17.77 63.986 0.37 8.01 4.51 8.18
9/15/2021 3:00:00 AM 17.76 63.968 0.37 8 4.54 8.18
9/15/2021 3:15:00 AM 17.73 63.914 0.37 8 4.61 8.17
9/15/2021 3:30:00 AM 17.7 63.86 0.37 8 4.73 8.18
9/15/2021 3:45:00 AM 17.69 63.842 0.37 8 4.78 8.19
9/15/2021 4:00:00 AM 17.67 63.806 0.37 7.99 4.64 8.19
9/15/2021 4:15:00 AM 17.66 63.788 0.37 7.99 6.46 8.18
9/15/2021 4:30:00 AM 17.65 63.77 0.37 7.99 4.58 8.19
9/15/2021 4:45:00 AM 17.63 63.734 0.37 7.99 4.45 8.19
9/15/2021 5:00:00 AM 17.62 63.716 0.37 7.99 4.45 8.19
9/15/2021 5:15:00 AM 17.6 63.68 0.369 7.99 4.56 8.19
9/15/2021 5:30:00 AM 17.59 63.662 0.369 7.98 7.84 8.2
9/15/2021 5:45:00 AM 17.58 63.644 0.369 7.99 7.23 8.18
9/15/2021 6:00:00 AM 17.56 63.608 0.369 7.99 4.97 8.2
9/15/2021 6:15:00 AM 17.53 63.554 0.369 7.98 34.32 8.16
9/15/2021 6:30:00 AM 17.51 63.518 0.369 7.98 8.06 8.2
9/15/2021 6:45:00 AM 17.49 63.482 0.369 7.98 4.45 8.21
9/15/2021 7:00:00 AM 17.47 63.446 0.368 7.99 15.18 8.22
9/15/2021 7:15:00 AM 17.46 63.428 0.368 7.99 43.43 8.24
9/15/2021 7:30:00 AM 17.46 63.428 0.368 7.99 5.77 8.28
9/15/2021 7:45:00 AM 17.46 63.428 0.368 8 78.04 8.37
9/15/2021 8:00:00 AM 17.48 63.464 0.367 8.02 45.33 8.48
9/15/2021 8:15:00 AM 17.5 63.5 0.367 8.03 22.67 8.59
9/15/2021 8:30:00 AM 17.54 63.572 0.367 8.05 4.23 8.72
9/15/2021 8:45:00 AM 17.58 63.644 0.366 8.07 46.62 8.82
9/15/2021 9:00:00 AM 17.61 63.698 0.366 8.08 11.61 8.88
9/15/2021 9:15:00 AM 17.67 63.806 0.365 8.11 3.94 9.06
9/15/2021 9:30:00 AM 17.72 63.896 0.365 8.12 25.46 9.14
9/15/2021 9:45:00 AM 17.79 64.022 0.364 8.15 11.79 9.29
9/15/2021 10:00:00 AM 17.88 64.184 0.364 8.18 3.56 9.49
9/15/2021 10:15:00 AM 17.96 64.328 0.363 8.21 17.29 9.62
9/15/2021 10:30:00 AM 18.04 64.472 0.363 8.23 7.33 9.73
9/15/2021 10:45:00 AM 18.17 64.706 0.362 8.27 4.57 9.97
9/15/2021 11:00:00 AM 18.26 64.868 0.361 8.3 10.9 10.13
9/15/2021 11:15:00 AM 18.33 64.994 0.361 8.32 8.47 10.18
9/15/2021 11:30:00 AM 18.4 65.12 0.36 8.33 20.21 10.13
9/15/2021 11:45:00 AM 18.63 65.534 0.359 8.38 5.77 10.47
9/15/2021 12:00:00 PM 18.71 65.67799 0.358 8.41 2.9 10.63
9/15/2021 12:15:00 PM 18.68 65.624 0.355 8.38 4.22 10.15
9/15/2021 12:30:00 PM 18.64 65.552 0.348 8.35 10.21 9.74
9/15/2021 12:45:00 PM 18.65 65.57 0.348 8.35 3.94 9.65
9/15/2021 1:00:00 PM 18.67 65.606 0.348 8.35 3.65 9.65
9/15/2021 1:15:00 PM 18.68 65.624 0.346 8.34 44.85 9.59
9/15/2021 1:30:00 PM 18.76 65.768 0.345 8.35 8.3 9.73
9/15/2021 1:45:00 PM 18.79 65.82201 0.344 8.37 11.83 9.85
9/15/2021 2:00:00 PM 18.8 65.84 0.345 8.37 7.62 9.8
9/15/2021 2:15:00 PM 18.84 65.912 0.346 8.38 4.91 9.79
9/15/2021 2:30:00 PM 18.86 65.948 0.348 8.37 23.44 9.75
9/15/2021 2:45:00 PM 18.88 65.984 0.35 8.36 19.76 9.64
9/15/2021 3:00:00 PM 18.91 66.038 0.351 8.37 14.06 9.63
9/15/2021 3:15:00 PM 18.92 66.056 0.351 8.35 15.17 9.49
9/15/2021 3:30:00 PM 18.91 66.038 0.351 8.33 3.48 9.29
9/15/2021 3:45:00 PM 18.89 66.002 0.349 8.3 5.85 9.13
9/15/2021 4:00:00 PM 18.83 65.894 0.334 8.29 7.77 9.01
9/15/2021 4:15:00 PM 18.81 65.858 0.335 8.27 6.67 8.95
9/15/2021 4:30:00 PM 18.76 65.768 0.333 8.26 7.64 8.96
9/15/2021 4:45:00 PM 18.69 65.642 0.326 8.22 12.67 8.87
9/15/2021 5:00:00 PM 18.66 65.588 0.322 8.2 11.7 8.81
9/15/2021 5:15:00 PM 18.64 65.552 0.324 8.19 16.8 8.81
9/15/2021 5:30:00 PM 18.62 65.516 0.328 8.17 17.93 8.72
9/15/2021 5:45:00 PM 18.62 65.516 0.328 8.16 16.87 8.68
9/15/2021 6:00:00 PM 18.61 65.498 0.329 8.15 14.87 8.63
9/15/2021 6:15:00 PM 18.6 65.48 0.33 8.14 12.17 8.61
9/15/2021 6:30:00 PM 18.57 65.426 0.33 8.12 10.07 8.58
9/15/2021 6:45:00 PM 18.53 65.354 0.33 8.11 9.53 8.54
9/15/2021 7:00:00 PM 18.48 65.264 0.329 8.09 9.43 8.49
9/15/2021 7:15:00 PM 18.43 65.174 0.325 8.07 11.07 8.43
9/15/2021 7:30:00 PM 18.37 65.066 0.322 8.05 18.18 8.39
9/15/2021 7:45:00 PM 18.33 64.994 0.319 8.03 14.17 8.37
9/15/2021 8:00:00 PM 18.28 64.904 0.317 8.02 15.31 8.34
9/15/2021 8:15:00 PM 18.25 64.85 0.315 8 15.8 8.32
9/15/2021 8:30:00 PM 18.21 64.778 0.314 7.99 14.21 8.3
9/15/2021 8:45:00 PM 18.17 64.706 0.311 7.98 15.43 8.28
9/15/2021 9:00:00 PM 18.12 64.616 0.307 7.97 20.66 8.27
9/15/2021 9:15:00 PM 18.07 64.526 0.304 7.96 19.48 8.27
9/15/2021 9:30:00 PM 18.02 64.436 0.3 7.95 16.25 8.26
9/15/2021 9:45:00 PM 17.97 64.346 0.298 7.94 25.28 8.26
9/15/2021 10:00:00 PM 17.92 64.256 0.297 7.93 17.2 8.26
9/15/2021 10:15:00 PM 17.88 64.184 0.296 7.92 15.68 8.26
9/15/2021 10:30:00 PM 17.83 64.094 0.295 7.92 17.13 8.26
9/15/2021 10:45:00 PM 17.79 64.022 0.294 7.91 16.9 8.27
9/15/2021 11:00:00 PM 17.75 63.95 0.293 7.91 14.96 8.27
9/15/2021 11:15:00 PM 17.71 63.878 0.293 7.91 15.14 8.27
9/15/2021 11:30:00 PM 17.67 63.806 0.293 7.9 14.97 8.29
9/15/2021 11:45:00 PM 17.64 63.752 0.294 7.9 15.33 8.29
9/16/2021 12:00:00 AM 17.6 63.68 0.295 7.9 14.16 8.3
9/16/2021 12:15:00 AM 17.56 63.608 0.296 7.9 13.58 8.31
9/16/2021 12:30:00 AM 17.52 63.536 0.297 7.9 13.91 8.32
9/16/2021 12:45:00 AM 17.48 63.464 0.298 7.9 12.99 8.33
9/16/2021 1:00:00 AM 17.44 63.392 0.3 7.9 13.09 8.34
9/16/2021 1:15:00 AM 17.4 63.32 0.301 7.9 11.89 8.34
9/16/2021 1:30:00 AM 17.35 63.23 0.303 7.9 12.02 8.36
9/16/2021 1:45:00 AM 17.31 63.158 0.305 7.9 11.36 8.37
9/16/2021 2:00:00 AM 17.28 63.104 0.306 7.9 11.18 8.38
9/16/2021 2:15:00 AM 17.24 63.032 0.306 7.91 10.69 8.39
9/16/2021 2:30:00 AM 17.21 62.978 0.307 7.91 10.63 8.4
9/16/2021 2:45:00 AM 17.17 62.906 0.308 7.91 10.6 8.41
9/16/2021 3:00:00 AM 17.14 62.852 0.308 7.91 10.36 8.42
9/16/2021 3:15:00 AM 17.11 62.798 0.309 7.91 16.94 8.43
9/16/2021 3:30:00 AM 17.08 62.744 0.311 7.91 14.33 8.44
9/16/2021 3:45:00 AM 17.05 62.69 0.312 7.91 10.61 8.44
9/16/2021 4:00:00 AM 17.02 62.636 0.307 7.91 11.57 8.44
9/16/2021 4:15:00 AM 16.98 62.564 0.315 7.91 10.96 8.45
9/16/2021 4:30:00 AM 16.96 62.528 0.316 7.91 12.88 8.46
9/16/2021 4:45:00 AM 16.94 62.492 0.317 7.91 15.33 8.46
9/16/2021 5:00:00 AM 16.91 62.438 0.318 7.91 13.19 8.47
9/16/2021 5:15:00 AM 16.89 62.402 0.319 7.91 13.69 8.48
9/16/2021 5:30:00 AM 16.88 62.384 0.32 7.91 11.72 8.48
9/16/2021 5:45:00 AM 16.87 62.366 0.32 7.92 12.58 8.49
9/16/2021 6:00:00 AM 16.86 62.348 0.321 7.92 15.61 8.49
9/16/2021 6:15:00 AM 16.84 62.312 0.321 7.92 10.74 8.5
9/16/2021 6:30:00 AM 16.83 62.294 0.322 7.92 12.94 8.51
9/16/2021 6:45:00 AM 16.81 62.258 0.322 7.92 15.04 8.51
9/16/2021 7:00:00 AM 16.8 62.24 0.323 7.92 14.77 8.52
9/16/2021 7:15:00 AM 16.79 62.222 0.323 7.93 15.12 8.53
9/16/2021 7:30:00 AM 16.79 62.222 0.324 7.93 38.69 8.56
9/16/2021 7:45:00 AM 16.78 62.204 0.324 7.93 11.54 8.6
9/16/2021 8:00:00 AM 16.79 62.222 0.325 7.94 10.04 8.64
9/16/2021 8:15:00 AM 16.8 62.24 0.325 7.95 9.1 8.72
9/16/2021 8:30:00 AM 16.79 62.222 0.326 7.96 11.93 8.74
9/16/2021 8:45:00 AM 16.81 62.258 0.326 7.97 13.1 8.84
9/16/2021 9:00:00 AM 16.86 62.348 0.326 7.99 8.24 8.98
9/16/2021 9:15:00 AM 16.91 62.438 0.327 8.01 8.62 9.09
9/16/2021 9:30:00 AM 16.96 62.528 0.327 8.02 8.98 9.19
9/16/2021 9:45:00 AM 17 62.6 0.328 8.04 8.55 9.27
9/16/2021 10:00:00 AM 17.03 62.654 0.328 8.05 7.72 9.33
9/16/2021 10:15:00 AM 17.07 62.726 0.328 8.07 7.14 9.4
9/16/2021 10:30:00 AM 17.11 62.798 0.329 8.07 6.73 9.42
9/16/2021 10:45:00 AM 17.15 62.87 0.329 8.08 14.56 9.42
9/16/2021 11:00:00 AM 17.34 63.212 0.329 8.11 8.65 9.58
9/16/2021 11:15:00 AM 17.44 63.392 0.329 8.12 11.76 9.65
9/16/2021 11:30:00 AM 17.52 63.536 0.329 8.14 10.77 9.67
9/16/2021 11:45:00 AM 17.64 63.752 0.329 8.16 11.7 9.79
9/16/2021 12:00:00 PM 17.72 63.896 0.329 8.17 10.96 9.8
9/16/2021 12:15:00 PM 17.93 64.274 0.329 8.2 10.7 9.93
9/16/2021 12:30:00 PM 18.07 64.526 0.329 8.22 11.36 10.01
9/16/2021 12:45:00 PM 18.25 64.85 0.329 8.24 6.75 10.09
9/16/2021 1:00:00 PM 18.39 65.102 0.329 8.26 6.94 10.16
9/16/2021 1:15:00 PM 18.48 65.264 0.329 8.27 7.9 10.12
9/16/2021 1:30:00 PM 18.63 65.534 0.328 8.28 6.79 10.19
9/16/2021 1:45:00 PM 18.78 65.804 0.328 8.3 7.12 10.24
9/16/2021 2:00:00 PM 18.96 66.128 0.328 8.32 6.88 10.29
9/16/2021 2:15:00 PM 19.19 66.542 0.327 8.34 7.41 10.38
9/16/2021 2:30:00 PM 19.38 66.884 0.327 8.35 7.72 10.41
9/16/2021 2:45:00 PM 19.56 67.208 0.326 8.36 7.27 10.41
9/16/2021 3:00:00 PM 19.73 67.514 0.325 8.37 7.15 10.44
9/16/2021 3:15:00 PM 19.89 67.802 0.324 8.39 7.46 10.44
9/16/2021 3:30:00 PM 20.02 68.036 0.324 8.39 7.19 10.36
9/16/2021 3:45:00 PM 20.13 68.234 0.32 8.39 57.34 10.32
9/16/2021 4:00:00 PM 20.17 68.306 0.322 8.38 12.39 10.23
9/16/2021 4:15:00 PM 20.19 68.342 0.321 8.38 7.21 10.15
9/16/2021 4:30:00 PM 20.16 68.288 0.32 8.37 12.33 10.04
9/16/2021 4:45:00 PM 20.1 68.18 0.319 8.35 8.02 9.92
9/16/2021 5:00:00 PM 19.99 67.982 0.318 8.32 7.01 9.77
9/16/2021 5:15:00 PM 19.88 67.784 0.317 8.3 16.85 9.63
9/16/2021 5:30:00 PM 19.77 67.586 0.316 8.27 8.17 9.5
9/16/2021 5:45:00 PM 19.66 67.388 0.315 8.24 8.14 9.33
9/16/2021 6:00:00 PM 19.52 67.136 0.314 8.2 10.84 9.14
9/16/2021 6:15:00 PM 19.4 66.92 0.313 8.17 6.36 9
9/16/2021 6:30:00 PM 19.29 66.722 0.312 8.14 8.27 8.88
9/16/2021 6:45:00 PM 19.23 66.614 0.311 8.12 7.85 8.8
9/16/2021 7:00:00 PM 19.19 66.542 0.31 8.1 9.78 8.73
9/16/2021 7:15:00 PM 19.15 66.47 0.309 8.09 14.93 8.67
9/16/2021 7:30:00 PM 19.11 66.398 0.309 8.07 32.76 8.6
9/16/2021 7:45:00 PM 19.07 66.326 0.308 8.05 13.4 8.53
9/16/2021 8:00:00 PM 19.01 66.218 0.308 8.04 8.98 8.47
9/16/2021 8:15:00 PM 18.96 66.128 0.308 8.02 7.17 8.42
9/16/2021 8:30:00 PM 18.9 66.02 0.308 8.01 7.21 8.38
9/16/2021 8:45:00 PM 18.84 65.912 0.308 7.99 15.09 8.34
9/16/2021 9:00:00 PM 18.78 65.804 0.309 7.99 10.89 8.32
9/16/2021 9:15:00 PM 18.72 65.696 0.309 7.98 7.51 8.3
9/16/2021 9:30:00 PM 18.65 65.57 0.309 7.97 7.12 8.28
9/16/2021 9:45:00 PM 18.58 65.444 0.31 7.96 6.58 8.27
9/16/2021 10:00:00 PM 18.51 65.318 0.311 7.96 6.82 8.26
9/16/2021 10:15:00 PM 18.43 65.174 0.311 7.95 7.07 8.24
9/16/2021 10:30:00 PM 18.35 65.03 0.312 7.94 7.1 8.24
9/16/2021 10:45:00 PM 18.28 64.904 0.313 7.94 7.28 8.24
9/16/2021 11:00:00 PM 18.21 64.778 0.314 7.94 6.52 8.24
9/16/2021 11:15:00 PM 18.14 64.652 0.315 7.94 6.99 8.25
9/16/2021 11:30:00 PM 18.07 64.526 0.315 7.93 6.8 8.26
9/16/2021 11:45:00 PM 18 64.4 0.316 7.93 8.72 8.25
9/17/2021 12:00:00 AM 17.94 64.292 0.317 7.93 11.47 8.26
9/17/2021 12:15:00 AM 17.88 64.184 0.318 7.93 9.36 8.26
9/17/2021 12:30:00 AM 17.82 64.076 0.319 7.93 7.2 8.28
9/17/2021 12:45:00 AM 17.76 63.968 0.32 7.93 6.97 8.28
9/17/2021 1:00:00 AM 17.7 63.86 0.321 7.92 6.7 8.3
9/17/2021 1:15:00 AM 17.64 63.752 0.322 7.92 6.95 8.31
9/17/2021 1:30:00 AM 17.58 63.644 0.322 7.92 7.28 8.32
9/17/2021 1:45:00 AM 17.53 63.554 0.323 7.92 6.67 8.33
9/17/2021 2:00:00 AM 17.47 63.446 0.324 7.92 6.58 8.33
9/17/2021 2:15:00 AM 17.42 63.356 0.325 7.92 6.6 8.34
9/17/2021 2:30:00 AM 17.36 63.248 0.326 7.92 7.78 8.36
9/17/2021 2:45:00 AM 17.31 63.158 0.326 7.92 6.79 8.36
9/17/2021 3:00:00 AM 17.25 63.05 0.327 7.92 6.58 8.38
9/17/2021 3:15:00 AM 17.2 62.96 0.328 7.92 13.55 8.38
9/17/2021 3:30:00 AM 17.14 62.852 0.328 7.92 6.94 8.4
9/17/2021 3:45:00 AM 17.09 62.762 0.329 7.92 8.52 8.41
9/17/2021 4:00:00 AM 17.05 62.69 0.33 7.92 6.38 8.42
9/17/2021 4:15:00 AM 17.03 62.654 0.33 7.92 7.06 8.43
9/17/2021 4:30:00 AM 17 62.6 0.331 7.92 6.29 8.44
9/17/2021 4:45:00 AM 16.98 62.564 0.331 7.92 6.93 8.45
9/17/2021 5:00:00 AM 16.97 62.546 0.332 7.92 6.37 8.45
9/17/2021 5:15:00 AM 16.95 62.51 0.332 7.92 6.15 8.46
9/17/2021 5:30:00 AM 16.94 62.492 0.333 7.92 6.25 8.46
9/17/2021 5:45:00 AM 16.93 62.474 0.333 7.92 6.22 8.47
9/17/2021 6:00:00 AM 16.92 62.456 0.334 7.92 6.24 8.47
9/17/2021 6:15:00 AM 16.9 62.42 0.334 7.92 13.8 8.47
9/17/2021 6:30:00 AM 16.89 62.402 0.334 7.92 9.87 8.47
9/17/2021 6:45:00 AM 16.88 62.384 0.335 7.92 10.45 8.48
9/17/2021 7:00:00 AM 16.87 62.366 0.335 7.92 11.36 8.49
9/17/2021 7:15:00 AM 16.87 62.366 0.335 7.92 8.96 8.51
9/17/2021 7:30:00 AM 16.87 62.366 0.335 7.93 6.44 8.52
9/17/2021 7:45:00 AM 16.87 62.366 0.335 7.93 12.76 8.56
9/17/2021 8:00:00 AM 16.88 62.384 0.335 7.94 15.05 8.6
9/17/2021 8:15:00 AM 16.89 62.402 0.336 7.94 7.19 8.66
9/17/2021 8:30:00 AM 16.91 62.438 0.336 7.96 7.05 8.77
9/17/2021 8:45:00 AM 16.94 62.492 0.336 7.97 7.67 8.88
9/17/2021 9:00:00 AM 16.96 62.528 0.336 7.98 24.64 8.93
9/17/2021 9:15:00 AM 16.99 62.582 0.336 8 5.97 9
9/17/2021 9:30:00 AM 17.03 62.654 0.336 8.01 14.22 9.08
9/17/2021 9:45:00 AM 17.07 62.726 0.336 8.03 8.53 9.18
9/17/2021 10:00:00 AM 17.14 62.852 0.336 8.05 7.86 9.33
9/17/2021 10:15:00 AM 17.22 62.996 0.336 8.08 7.64 9.51
9/17/2021 10:30:00 AM 17.33 63.194 0.335 8.12 8.49 9.74
9/17/2021 10:45:00 AM 17.43 63.374 0.335 8.16 8.1 9.92
9/17/2021 11:00:00 AM 17.52 63.536 0.335 8.19 8.26 10.04
9/17/2021 11:15:00 AM 17.61 63.698 0.335 8.21 8.53 10.1
9/17/2021 11:30:00 AM 17.78 64.004 0.334 8.26 6.36 10.35
9/17/2021 11:45:00 AM 17.82 64.076 0.334 8.27 6.23 10.33
9/17/2021 12:00:00 PM 17.91 64.238 0.334 8.29 6.65 10.36
9/17/2021 12:15:00 PM 18.04 64.472 0.334 8.32 6.88 10.53
9/17/2021 12:30:00 PM 18.1 64.58 0.333 8.34 6.35 10.55
9/17/2021 12:45:00 PM 18.21 64.778 0.333 8.36 6.4 10.63
9/17/2021 1:00:00 PM 18.3 64.94 0.333 8.38 19.13 10.68
9/17/2021 1:15:00 PM 18.38 65.084 0.333 8.39 33.84 10.67
9/17/2021 1:30:00 PM 18.49 65.282 0.333 8.42 7.93 10.77
9/17/2021 1:45:00 PM 18.55 65.39 0.333 8.42 6.74 10.73
9/17/2021 2:00:00 PM 18.69 65.642 0.332 8.45 5.1 10.86
9/17/2021 2:15:00 PM 18.9 66.02 0.332 8.49 3.78 11.1
9/17/2021 2:30:00 PM 19.02 66.236 0.331 8.51 5.62 11.14
9/17/2021 2:45:00 PM 19.11 66.398 0.331 8.53 4.42 11.14
9/17/2021 3:00:00 PM 19.21 66.578 0.331 8.53 5.47 11.15
9/17/2021 3:15:00 PM 19.36 66.848 0.331 8.56 6.03 11.23
9/17/2021 3:30:00 PM 19.42 66.956 0.331 8.56 5.12 11.19
9/17/2021 3:45:00 PM 19.51 67.118 0.331 8.56 5.88 11.07
9/17/2021 4:00:00 PM 19.53 67.154 0.331 8.56 6.12 10.96
9/17/2021 4:15:00 PM 19.56 67.208 0.332 8.54 17.71 10.79
9/17/2021 4:30:00 PM 19.51 67.118 0.332 8.53 9.85 10.61
9/17/2021 4:45:00 PM 19.54 67.172 0.332 8.52 3.92 10.53
9/17/2021 5:00:00 PM 19.57 67.226 0.333 8.51 3.25 10.42
9/17/2021 5:15:00 PM 19.63 67.334 0.333 8.51 3.46 10.37
9/17/2021 5:30:00 PM 19.65 67.37 0.333 8.5 3.33 10.21
9/17/2021 5:45:00 PM 19.67 67.406 0.334 8.48 3.34 10.08
9/17/2021 6:00:00 PM 19.62 67.316 0.334 8.45 3.18 9.84
9/17/2021 6:15:00 PM 19.55 67.19 0.335 8.41 3.45 9.6
9/17/2021 6:30:00 PM 19.51 67.118 0.336 8.38 17.71 9.42
9/17/2021 6:45:00 PM 19.47 67.046 0.336 8.35 5.13 9.24
9/17/2021 7:00:00 PM 19.43 66.974 0.337 8.31 10.79 9.05
9/17/2021 7:15:00 PM 19.38 66.884 0.338 8.28 3.34 8.91
9/17/2021 7:30:00 PM 19.32 66.776 0.338 8.25 3.76 8.78
9/17/2021 7:45:00 PM 19.27 66.686 0.339 8.22 4.43 8.68
9/17/2021 8:00:00 PM 19.22 66.596 0.339 8.19 3.74 8.6
9/17/2021 8:15:00 PM 19.17 66.506 0.34 8.17 3.96 8.52
9/17/2021 8:30:00 PM 19.11 66.398 0.34 8.15 3.97 8.46
9/17/2021 8:45:00 PM 19.05 66.29 0.341 8.13 3.83 8.4
9/17/2021 9:00:00 PM 19 66.2 0.341 8.11 3.84 8.35
9/17/2021 9:15:00 PM 18.93 66.074 0.341 8.1 3.96 8.32
9/17/2021 9:30:00 PM 18.87 65.966 0.342 8.08 3.95 8.28
9/17/2021 9:45:00 PM 18.81 65.858 0.342 8.07 3.79 8.26
9/17/2021 10:00:00 PM 18.75 65.75 0.342 8.06 3.63 8.24
9/17/2021 10:15:00 PM 18.69 65.642 0.343 8.05 4.02 8.21
9/17/2021 10:30:00 PM 18.63 65.534 0.343 8.04 3.93 8.2
9/17/2021 10:45:00 PM 18.57 65.426 0.343 8.03 3.82 8.18
9/17/2021 11:00:00 PM 18.5 65.3 0.344 8.02 3.93 8.17
9/17/2021 11:15:00 PM 18.45 65.21 0.344 8.01 4.01 8.15
9/17/2021 11:30:00 PM 18.39 65.102 0.344 8.01 3.89 8.16
9/17/2021 11:45:00 PM 18.34 65.012 0.344 8 3.88 8.16
9/18/2021 12:00:00 AM 18.29 64.922 0.345 7.99 7.88 8.14
9/18/2021 12:15:00 AM 18.24 64.832 0.345 7.99 3.88 8.15
9/18/2021 12:30:00 AM 18.19 64.742 0.345 7.98 4.55 8.15
9/18/2021 12:45:00 AM 18.15 64.67 0.345 7.98 3.92 8.15
9/18/2021 1:00:00 AM 18.13 64.634 0.346 7.98 3.87 8.16
9/18/2021 1:15:00 AM 18.1 64.58 0.346 7.98 3.97 8.15
9/18/2021 1:30:00 AM 18.08 64.544 0.346 7.98 4.15 8.14
9/18/2021 1:45:00 AM 18.07 64.526 0.346 7.98 4.03 8.16
9/18/2021 2:00:00 AM 18.05 64.49 0.347 7.97 4.05 8.16
9/18/2021 2:15:00 AM 18.03 64.454 0.347 7.97 5.11 8.15
9/18/2021 2:30:00 AM 18.02 64.436 0.347 7.97 3.82 8.17
9/18/2021 2:45:00 AM 18 64.4 0.347 7.97 3.97 8.17
9/18/2021 3:00:00 AM 17.98 64.364 0.348 7.97 4.18 8.17
9/18/2021 3:15:00 AM 17.96 64.328 0.348 7.97 4.06 8.19
9/18/2021 3:30:00 AM 17.94 64.292 0.348 7.97 4.14 8.18
9/18/2021 3:45:00 AM 17.92 64.256 0.349 7.97 3.87 8.19
9/18/2021 4:00:00 AM 17.9 64.22 0.349 7.97 3.77 8.18
9/18/2021 4:15:00 AM 17.89 64.202 0.349 7.97 3.92 8.19
9/18/2021 4:30:00 AM 17.87 64.166 0.349 7.97 4.18 8.18
9/18/2021 4:45:00 AM 17.85 64.13 0.35 7.97 4.23 8.2
9/18/2021 5:00:00 AM 17.84 64.112 0.349 7.97 4.5 8.2
9/18/2021 5:15:00 AM 17.82 64.076 0.349 7.97 4.15 8.21
9/18/2021 5:30:00 AM 17.8 64.04 0.349 7.97 4.22 8.2
9/18/2021 5:45:00 AM 17.78 64.004 0.349 7.97 4.25 8.2
9/18/2021 6:00:00 AM 17.76 63.968 0.349 7.96 5.48 8.2
9/18/2021 6:15:00 AM 17.73 63.914 0.349 7.96 5.07 8.19
9/18/2021 6:30:00 AM 17.71 63.878 0.35 7.96 4.19 8.22
9/18/2021 6:45:00 AM 17.68 63.824 0.35 7.96 4.4 8.22
9/18/2021 7:00:00 AM 17.66 63.788 0.351 7.96 4.12 8.21
9/18/2021 7:15:00 AM 17.64 63.752 0.351 7.96 4.1 8.25
9/18/2021 7:30:00 AM 17.62 63.716 0.352 7.96 3.73 8.3
9/18/2021 7:45:00 AM 17.61 63.698 0.352 7.97 3.93 8.34
9/18/2021 8:00:00 AM 17.59 63.662 0.352 7.98 3.67 8.41
9/18/2021 8:15:00 AM 17.61 63.698 0.352 8 7.66 8.54
9/18/2021 8:30:00 AM 17.64 63.752 0.352 8.02 3.47 8.74
9/18/2021 8:45:00 AM 17.66 63.788 0.352 8.05 3.39 8.92
9/18/2021 9:00:00 AM 17.67 63.806 0.352 8.07 3.52 9.01
9/18/2021 9:15:00 AM 17.71 63.878 0.352 8.1 3.55 9.2
9/18/2021 9:30:00 AM 17.75 63.95 0.352 8.12 3.34 9.37
9/18/2021 9:45:00 AM 17.82 64.076 0.351 8.16 3.16 9.56
9/18/2021 10:00:00 AM 17.88 64.184 0.351 8.19 3.23 9.73
9/18/2021 10:15:00 AM 17.98 64.364 0.351 8.22 3.39 9.87
9/18/2021 10:30:00 AM 18.01 64.418 0.351 8.24 3.13 9.98
9/18/2021 10:45:00 AM 18.1 64.58 0.351 8.27 2.91 10.1
9/18/2021 11:00:00 AM 18.1 64.58 0.351 8.28 3.12 10.17
9/18/2021 11:15:00 AM 18.27 64.886 0.35 8.33 3.14 10.41
9/18/2021 11:30:00 AM 18.31 64.958 0.35 8.34 2.83 10.41
9/18/2021 11:45:00 AM 18.48 65.264 0.351 8.38 2.82 10.58
9/18/2021 12:00:00 PM 18.65 65.57 0.35 8.41 3.03 10.77
9/18/2021 12:15:00 PM 18.85 65.93 0.349 8.46 2.73 10.98
9/18/2021 12:30:00 PM 19.01 66.218 0.349 8.49 2.77 11.11
9/18/2021 12:45:00 PM 19.03 66.254 0.349 8.47 2.97 10.76
9/18/2021 1:00:00 PM 19.18 66.524 0.349 8.5 2.73 10.89
9/18/2021 1:15:00 PM 19.28 66.704 0.348 8.52 2.65 10.93
9/18/2021 1:30:00 PM 19.38 66.884 0.348 8.54 2.71 10.97
9/18/2021 1:45:00 PM 19.47 67.046 0.348 8.55 2.69 10.98
9/18/2021 2:00:00 PM 19.57 67.226 0.347 8.57 2.71 11.07
9/18/2021 2:15:00 PM 19.79 67.622 0.347 8.61 2.65 11.29
9/18/2021 2:30:00 PM 19.98 67.964 0.346 8.64 3.05 11.5
9/18/2021 2:45:00 PM 20.13 68.234 0.345 8.66 2.78 11.59
9/18/2021 3:00:00 PM 20.21 68.378 0.345 8.67 2.98 11.55
9/18/2021 3:15:00 PM 20.31 68.558 0.344 8.68 3 11.55
9/18/2021 3:30:00 PM 20.34 68.612 0.344 8.68 2.77 11.36
9/18/2021 3:45:00 PM 20.37 68.666 0.345 8.67 2.86 11.17
9/18/2021 4:00:00 PM 20.39 68.702 0.345 8.67 7.93 11.09
9/18/2021 4:15:00 PM 20.41 68.738 0.345 8.67 2.71 11.07
9/18/2021 4:30:00 PM 20.42 68.756 0.345 8.66 2.77 10.9
9/18/2021 4:45:00 PM 20.39 68.702 0.346 8.64 2.79 10.68
9/18/2021 5:00:00 PM 20.37 68.666 0.346 8.64 3.29 10.59
9/18/2021 5:15:00 PM 20.34 68.612 0.347 8.62 2.84 10.43
9/18/2021 5:30:00 PM 20.3 68.54 0.347 8.6 2.76 10.22
9/18/2021 5:45:00 PM 20.29 68.522 0.348 8.58 2.91 10.06
9/18/2021 6:00:00 PM 20.27 68.486 0.348 8.57 2.94 9.95
9/18/2021 6:15:00 PM 20.23 68.414 0.349 8.54 2.87 9.72
9/18/2021 6:30:00 PM 20.17 68.306 0.35 8.51 3.13 9.47
9/18/2021 6:45:00 PM 20.11 68.198 0.351 8.48 2.96 9.29
9/18/2021 7:00:00 PM 20.03 68.054 0.351 8.44 4.69 9.08
9/18/2021 7:15:00 PM 19.94 67.892 0.352 8.41 4.23 8.89
9/18/2021 7:30:00 PM 19.85 67.73 0.353 8.37 3.42 8.74
9/18/2021 7:45:00 PM 19.75 67.55 0.353 8.34 3.39 8.64
9/18/2021 8:00:00 PM 19.66 67.388 0.354 8.31 3.55 8.54
9/18/2021 8:15:00 PM 19.56 67.208 0.354 8.29 3.21 8.45
9/18/2021 8:30:00 PM 19.46 67.028 0.355 8.26 3.25 8.38
9/18/2021 8:45:00 PM 19.36 66.848 0.355 8.24 3.24 8.34
9/18/2021 9:00:00 PM 19.26 66.668 0.356 8.22 3.25 8.29
9/18/2021 9:15:00 PM 19.16 66.488 0.356 8.2 3.4 8.24
9/18/2021 9:30:00 PM 19.06 66.308 0.357 8.18 3.45 8.21
9/18/2021 9:45:00 PM 18.96 66.128 0.357 8.16 3.31 8.19
9/18/2021 10:00:00 PM 18.85 65.93 0.357 8.14 3.5 8.17
9/18/2021 10:15:00 PM 18.75 65.75 0.358 8.12 3.37 8.14
9/18/2021 10:30:00 PM 18.66 65.588 0.358 8.11 3.32 8.14
9/18/2021 10:45:00 PM 18.56 65.408 0.358 8.1 3.71 8.14
9/18/2021 11:00:00 PM 18.46 65.228 0.359 8.09 3.73 8.12
9/18/2021 11:15:00 PM 18.37 65.066 0.359 8.08 3.23 8.13
9/18/2021 11:30:00 PM 18.28 64.904 0.359 8.07 3.48 8.13
9/18/2021 11:45:00 PM 18.19 64.742 0.359 8.06 3.38 8.14
9/19/2021 12:00:00 AM 18.09 64.562 0.359 8.05 3.39 8.15
9/19/2021 12:15:00 AM 18 64.4 0.359 8.05 3.45 8.14
9/19/2021 12:30:00 AM 17.9 64.22 0.36 8.04 3.57 8.17
9/19/2021 12:45:00 AM 17.81 64.058 0.36 8.04 3.94 8.18
9/19/2021 1:00:00 AM 17.72 63.896 0.36 8.03 3.53 8.2
9/19/2021 1:15:00 AM 17.63 63.734 0.36 8.03 3.55 8.2
9/19/2021 1:30:00 AM 17.54 63.572 0.36 8.03 3.43 8.23
9/19/2021 1:45:00 AM 17.45 63.41 0.36 8.02 3.39 8.23
9/19/2021 2:00:00 AM 17.36 63.248 0.36 8.02 3.64 8.25
9/19/2021 2:15:00 AM 17.28 63.104 0.36 8.02 3.75 8.28
9/19/2021 2:30:00 AM 17.21 62.978 0.359 8.01 3.46 8.29
9/19/2021 2:45:00 AM 17.15 62.87 0.359 8.01 3.64 8.29
9/19/2021 3:00:00 AM 17.1 62.78 0.359 8.01 3.36 8.3
9/19/2021 3:15:00 AM 17.04 62.672 0.359 8.01 3.48 8.32
9/19/2021 3:30:00 AM 16.99 62.582 0.359 8.01 3.47 8.33
9/19/2021 3:45:00 AM 16.94 62.492 0.359 8.01 3.46 8.34
9/19/2021 4:00:00 AM 16.88 62.384 0.359 8.01 4.3 8.35
9/19/2021 4:15:00 AM 16.83 62.294 0.359 8.01 3.96 8.36
9/19/2021 4:30:00 AM 16.77 62.186 0.359 8.01 3.58 8.37
9/19/2021 4:45:00 AM 16.72 62.096 0.359 8.01 3.61 8.38
9/19/2021 5:00:00 AM 16.66 61.988 0.359 8.01 3.92 8.41
9/19/2021 5:15:00 AM 16.6 61.88 0.359 8.01 3.88 8.42
9/19/2021 5:30:00 AM 16.54 61.772 0.359 8.01 3.67 8.43
9/19/2021 5:45:00 AM 16.47 61.646 0.359 8.01 3.76 8.44
9/19/2021 6:00:00 AM 16.4 61.52 0.359 8 5.17 8.44
9/19/2021 6:15:00 AM 16.33 61.394 0.359 8 3.43 8.46
9/19/2021 6:30:00 AM 16.25 61.25 0.359 8 3.47 8.5
9/19/2021 6:45:00 AM 16.17 61.106 0.359 8.01 3.43 8.52
9/19/2021 7:00:00 AM 16.09 60.962 0.359 8.01 3.53 8.52
9/19/2021 7:15:00 AM 16.02 60.836 0.359 8.01 3.88 8.58
9/19/2021 7:30:00 AM 15.95 60.71 0.359 8.01 3.31 8.62
9/19/2021 7:45:00 AM 15.88 60.584 0.359 8.02 3.59 8.72
9/19/2021 8:00:00 AM 15.84 60.512 0.359 8.04 3.03 8.85
9/19/2021 8:15:00 AM 15.8 60.44 0.359 8.05 3.1 9
9/19/2021 8:30:00 AM 15.77 60.386 0.36 8.08 3.69 9.18
9/19/2021 8:45:00 AM 15.73 60.314 0.36 8.09 2.8 9.3
9/19/2021 9:00:00 AM 15.7 60.26 0.36 8.12 3.41 9.49
9/19/2021 9:15:00 AM 15.71 60.278 0.36 8.15 2.74 9.71
9/19/2021 9:30:00 AM 15.72 60.296 0.36 8.17 2.95 9.8
9/19/2021 9:45:00 AM 15.76 60.368 0.36 8.19 2.86 9.94
9/19/2021 10:00:00 AM 15.81 60.458 0.36 8.21 2.67 10.05
9/19/2021 10:15:00 AM 15.84 60.512 0.36 8.22 2.75 10.09
9/19/2021 10:30:00 AM 15.87 60.566 0.36 8.24 2.8 10.14
9/19/2021 10:45:00 AM 15.92 60.656 0.36 8.25 2.68 10.24
9/19/2021 11:00:00 AM 16 60.8 0.36 8.27 2.77 10.33
9/19/2021 11:15:00 AM 16.09 60.962 0.36 8.29 2.63 10.46
9/19/2021 11:30:00 AM 16.21 61.178 0.359 8.32 2.53 10.58
9/19/2021 11:45:00 AM 16.33 61.394 0.359 8.35 2.59 10.74
9/19/2021 12:00:00 PM 16.47 61.646 0.359 8.38 2.46 10.86
9/19/2021 12:15:00 PM 16.64 61.952 0.358 8.41 2.49 10.98
9/19/2021 12:30:00 PM 16.84 62.312 0.358 8.44 2.43 11.13
9/19/2021 12:45:00 PM 17.05 62.69 0.357 8.47 2.35 11.25
9/19/2021 1:00:00 PM 17.27 63.086 0.356 8.5 2.37 11.38
9/19/2021 1:15:00 PM 17.51 63.518 0.356 8.53 2.35 11.51
9/19/2021 1:30:00 PM 17.74 63.932 0.355 8.56 2.36 11.63
9/19/2021 1:45:00 PM 17.96 64.328 0.356 8.59 2.47 11.73
9/19/2021 2:00:00 PM 18.17 64.706 0.355 8.62 2.44 11.78
9/19/2021 2:15:00 PM 18.38 65.084 0.355 8.64 2.48 11.85
9/19/2021 2:30:00 PM 18.56 65.408 0.354 8.66 2.34 11.87
9/19/2021 2:45:00 PM 18.73 65.714 0.354 8.68 2.42 11.88
9/19/2021 3:00:00 PM 18.88 65.984 0.353 8.69 2.36 11.86
9/19/2021 3:15:00 PM 19.01 66.218 0.353 8.7 2.67 11.81
9/19/2021 3:30:00 PM 19.12 66.416 0.353 8.71 2.52 11.7
9/19/2021 3:45:00 PM 19.21 66.578 0.352 8.72 2.39 11.67
9/19/2021 4:00:00 PM 19.29 66.722 0.352 8.73 2.39 11.58
9/19/2021 4:15:00 PM 19.34 66.812 0.352 8.73 2.36 11.47
9/19/2021 4:30:00 PM 19.38 66.884 0.352 8.73 2.33 11.36
9/19/2021 4:45:00 PM 19.42 66.956 0.352 8.73 2.51 11.2
9/19/2021 5:00:00 PM 19.42 66.956 0.352 8.72 2.61 11.07
9/19/2021 5:15:00 PM 19.4 66.92 0.353 8.71 2.61 10.92
9/19/2021 5:30:00 PM 19.36 66.848 0.353 8.7 2.54 10.73
9/19/2021 5:45:00 PM 19.29 66.722 0.354 8.67 2.63 10.49
9/19/2021 6:00:00 PM 19.2 66.56 0.355 8.64 2.78 10.16
9/19/2021 6:15:00 PM 19.07 66.326 0.356 8.6 3.29 9.92
9/19/2021 6:30:00 PM 18.93 66.074 0.357 8.56 2.77 9.64
9/19/2021 6:45:00 PM 18.79 65.82201 0.358 8.52 2.67 9.42
9/19/2021 7:00:00 PM 18.66 65.588 0.359 8.48 2.73 9.23
9/19/2021 7:15:00 PM 18.54 65.372 0.36 8.45 2.61 9.05
9/19/2021 7:30:00 PM 18.43 65.174 0.361 8.42 21.28 8.92
9/19/2021 7:45:00 PM 18.34 65.012 0.361 8.39 4.02 8.85
9/19/2021 8:00:00 PM 18.24 64.832 0.362 8.37 2.97 8.78
9/19/2021 8:15:00 PM 18.14 64.652 0.363 8.34 2.82 8.73
9/19/2021 8:30:00 PM 18.04 64.472 0.363 8.32 2.91 8.67
9/19/2021 8:45:00 PM 17.94 64.292 0.364 8.3 2.92 8.64
9/19/2021 9:00:00 PM 17.83 64.094 0.365 8.28 2.77 8.6
9/19/2021 9:15:00 PM 17.72 63.896 0.365 8.26 2.64 8.56
9/19/2021 9:30:00 PM 17.6 63.68 0.366 8.23 2.8 8.54
9/19/2021 9:45:00 PM 17.49 63.482 0.366 8.22 2.77 8.52
9/19/2021 10:00:00 PM 17.37 63.266 0.367 8.19 3.18 8.5
9/19/2021 10:15:00 PM 17.26 63.068 0.368 8.18 2.9 8.49
9/19/2021 10:30:00 PM 17.15 62.87 0.368 8.16 2.74 8.49
9/19/2021 10:45:00 PM 17.03 62.654 0.369 8.14 2.79 8.47
9/19/2021 11:00:00 PM 16.93 62.474 0.369 8.13 2.89 8.46
9/19/2021 11:15:00 PM 16.81 62.258 0.369 8.12 2.87 8.48
9/19/2021 11:30:00 PM 16.7 62.06 0.37 8.11 3.01 8.48
9/19/2021 11:45:00 PM 16.59 61.862 0.37 8.1 2.86 8.49
9/20/2021 12:00:00 AM 16.49 61.682 0.37 8.09 3 8.5
9/20/2021 12:15:00 AM 16.38 61.484 0.371 8.08 2.87 8.52
9/20/2021 12:30:00 AM 16.28 61.304 0.371 8.08 7.3 8.51
9/20/2021 12:45:00 AM 16.18 61.124 0.371 8.07 5.46 8.52
9/20/2021 1:00:00 AM 16.08 60.944 0.371 8.07 3.32 8.53
9/20/2021 1:15:00 AM 15.99 60.782 0.371 8.06 5.48 8.54
9/20/2021 1:30:00 AM 15.92 60.656 0.371 8.06 8.43 8.57
9/20/2021 1:45:00 AM 15.86 60.548 0.371 8.05 5.43 8.57
9/20/2021 2:00:00 AM 15.79 60.422 0.371 8.05 3.4 8.62
9/20/2021 2:15:00 AM 15.71 60.278 0.371 8.05 3.41 8.64
9/20/2021 2:30:00 AM 15.63 60.134 0.371 8.05 3.21 8.65
9/20/2021 2:45:00 AM 15.56 60.008 0.371 8.04 3.07 8.67
9/20/2021 3:00:00 AM 15.5 59.9 0.372 8.04 3.13 8.68
9/20/2021 3:15:00 AM 15.44 59.792 0.372 8.04 3.11 8.68
9/20/2021 3:30:00 AM 15.37 59.666 0.372 8.04 3.05 8.7
9/20/2021 3:45:00 AM 15.29 59.522 0.372 8.04 3.17 8.72
9/20/2021 4:00:00 AM 15.21 59.378 0.372 8.04 3.94 8.73
9/20/2021 4:15:00 AM 15.14 59.252 0.372 8.03 3.36 8.73
9/20/2021 4:30:00 AM 15.07 59.126 0.373 8.03 3.09 8.76
9/20/2021 4:45:00 AM 15.01 59.018 0.373 8.03 2.91 8.77
9/20/2021 5:00:00 AM 14.94 58.892 0.373 8.03 4.21 8.78
9/20/2021 5:15:00 AM 14.88 58.784 0.373 8.03 3.16 8.78
9/20/2021 5:30:00 AM 14.83 58.694 0.373 8.03 3.03 8.82
9/20/2021 5:45:00 AM 14.77 58.586 0.374 8.03 3.12 8.82
9/20/2021 6:00:00 AM 14.7 58.46 0.374 8.03 2.95 8.83
9/20/2021 6:15:00 AM 14.72 58.496 0.373 8.03 3.39 8.83
9/20/2021 6:30:00 AM 14.68 58.424 0.373 8.03 3.22 8.86
9/20/2021 6:45:00 AM 14.62 58.316 0.374 8.03 3.06 8.87
9/20/2021 7:00:00 AM 14.56 58.208 0.374 8.03 2.95 8.88
9/20/2021 7:15:00 AM 14.51 58.118 0.374 8.03 2.97 8.94
9/20/2021 7:30:00 AM 14.47 58.046 0.374 8.04 3.17 9.01
9/20/2021 7:45:00 AM 14.43 57.974 0.374 8.05 2.89 9.11
9/20/2021 8:00:00 AM 14.4 57.92 0.374 8.07 3.01 9.24
9/20/2021 8:15:00 AM 14.37 57.866 0.374 8.09 3.09 9.37
9/20/2021 8:30:00 AM 14.35 57.83 0.374 8.1 2.96 9.47
9/20/2021 8:45:00 AM 14.34 57.812 0.374 8.11 2.79 9.55
9/20/2021 9:00:00 AM 14.35 57.83 0.374 8.13 2.78 9.68
9/20/2021 9:15:00 AM 14.39 57.902 0.374 8.16 2.57 9.84
9/20/2021 9:30:00 AM 14.44 57.992 0.374 8.18 2.68 10.01
9/20/2021 9:45:00 AM 14.5 58.1 0.374 8.2 2.57 10.15
9/20/2021 10:00:00 AM 14.56 58.208 0.375 8.22 2.59 10.23
9/20/2021 10:15:00 AM 14.63 58.334 0.375 8.23 3.12 10.36
9/20/2021 10:30:00 AM 14.72 58.496 0.374 8.25 2.92 10.49
9/20/2021 10:45:00 AM 14.82 58.676 0.374 8.27 2.61 10.59
9/20/2021 11:00:00 AM 14.94 58.892 0.374 8.29 2.58 10.73
9/20/2021 11:15:00 AM 15.07 59.126 0.374 8.32 2.44 10.87
9/20/2021 11:30:00 AM 15.22 59.396 0.374 8.35 2.47 10.99
9/20/2021 11:45:00 AM 15.38 59.684 0.374 8.38 2.51 11.15
9/20/2021 12:00:00 PM 15.56 60.008 0.373 8.41 2.43 11.29
9/20/2021 12:15:00 PM 15.75 60.35 0.374 8.44 2.45 11.42
9/20/2021 12:30:00 PM 15.98 60.764 0.373 8.47 2.35 11.59
9/20/2021 12:45:00 PM 16.24 61.232 0.373 8.5 2.35 11.74
9/20/2021 1:00:00 PM 16.5 61.7 0.372 8.54 2.37 11.91
9/20/2021 1:15:00 PM 16.73 62.114 0.371 8.57 2.29 12.07
9/20/2021 1:30:00 PM 16.87 62.366 0.37 8.6 2.41 12.14
9/20/2021 1:45:00 PM 17.04 62.672 0.37 8.62 2.32 12.2
9/20/2021 2:00:00 PM 17.33 63.194 0.369 8.66 2.28 12.38
9/20/2021 2:15:00 PM 17.55 63.59 0.368 8.69 2.37 12.49
9/20/2021 2:30:00 PM 17.81 64.058 0.367 8.71 2.39 12.56
9/20/2021 2:45:00 PM 18.01 64.418 0.366 8.74 2.37 12.59
9/20/2021 3:00:00 PM 18.2 64.76 0.365 8.75 2.34 12.56
9/20/2021 3:15:00 PM 18.37 65.066 0.365 8.77 2.28 12.54
9/20/2021 3:30:00 PM 18.5 65.3 0.364 8.78 2.28 12.5
9/20/2021 3:45:00 PM 18.6 65.48 0.363 8.79 2.27 12.42
9/20/2021 4:00:00 PM 18.65 65.57 0.363 8.8 2.36 12.24
9/20/2021 4:15:00 PM 18.7 65.66 0.363 8.8 2.66 12.06
9/20/2021 4:30:00 PM 18.75 65.75 0.363 8.8 3.11 11.95
9/20/2021 4:45:00 PM 18.84 65.912 0.362 8.82 2.41 12
9/20/2021 5:00:00 PM 18.87 65.966 0.362 8.82 2.39 11.88
9/20/2021 5:15:00 PM 18.85 65.93 0.362 8.81 2.35 11.69
9/20/2021 5:30:00 PM 18.85 65.93 0.363 8.8 2.37 11.58
9/20/2021 5:45:00 PM 18.8 65.84 0.363 8.79 2.33 11.43
9/20/2021 6:00:00 PM 18.72 65.696 0.364 8.77 2.56 11.1
9/20/2021 6:15:00 PM 18.63 65.534 0.365 8.74 2.42 10.72
9/20/2021 6:30:00 PM 18.54 65.372 0.366 8.7 2.49 10.38
9/20/2021 6:45:00 PM 18.45 65.21 0.368 8.67 2.64 10.09
9/20/2021 7:00:00 PM 18.36 65.048 0.369 8.64 2.47 9.83
9/20/2021 7:15:00 PM 18.27 64.886 0.37 8.6 2.7 9.58
9/20/2021 7:30:00 PM 18.18 64.724 0.371 8.56 2.75 9.35
9/20/2021 7:45:00 PM 18.1 64.58 0.372 8.53 3.08 9.19
9/20/2021 8:00:00 PM 18.02 64.436 0.373 8.5 2.64 9.05
9/20/2021 8:15:00 PM 17.95 64.31 0.374 8.47 2.71 8.93
9/20/2021 8:30:00 PM 17.87 64.166 0.374 8.44 2.68 8.87
9/20/2021 8:45:00 PM 17.79 64.022 0.375 8.41 2.67 8.8
9/20/2021 9:00:00 PM 17.71 63.878 0.376 8.39 3.21 8.75
9/20/2021 9:15:00 PM 17.63 63.734 0.377 8.36 2.57 8.7
9/20/2021 9:30:00 PM 17.56 63.608 0.377 8.34 2.62 8.64
9/20/2021 9:45:00 PM 17.48 63.464 0.378 8.32 2.53 8.61
9/20/2021 10:00:00 PM 17.4 63.32 0.378 8.3 2.69 8.6
9/20/2021 10:15:00 PM 17.33 63.194 0.379 8.28 2.73 8.57
9/20/2021 10:30:00 PM 17.26 63.068 0.379 8.26 2.6 8.54
9/20/2021 10:45:00 PM 17.19 62.942 0.38 8.24 2.57 8.53
9/20/2021 11:00:00 PM 17.12 62.816 0.38 8.22 2.98 8.49
9/20/2021 11:15:00 PM 17.06 62.708 0.381 8.2 2.78 8.48
9/20/2021 11:30:00 PM 17 62.6 0.381 8.19 2.64 8.46
9/20/2021 11:45:00 PM 16.94 62.492 0.382 8.17 2.66 8.44
9/21/2021 12:00:00 AM 16.87 62.366 0.382 8.16 2.63 8.45
9/21/2021 12:15:00 AM 16.81 62.258 0.383 8.15 2.61 8.44
9/21/2021 12:30:00 AM 16.75 62.15 0.383 8.14 2.74 8.44
9/21/2021 12:45:00 AM 16.69 62.042 0.383 8.13 2.68 8.43
9/21/2021 1:00:00 AM 16.63 61.934 0.384 8.12 2.67 8.43
9/21/2021 1:15:00 AM 16.57 61.826 0.384 8.11 2.76 8.44
9/21/2021 1:30:00 AM 16.51 61.718 0.384 8.1 2.74 8.43
9/21/2021 1:45:00 AM 16.46 61.628 0.385 8.1 2.77 8.44
9/21/2021 2:00:00 AM 16.4 61.52 0.385 8.09 2.77 8.44
9/21/2021 2:15:00 AM 16.35 61.43 0.385 8.09 2.77 8.44
9/21/2021 2:30:00 AM 16.29 61.322 0.385 8.08 2.88 8.46
9/21/2021 2:45:00 AM 16.24 61.232 0.386 8.08 2.7 8.47
9/21/2021 3:00:00 AM 16.19 61.142 0.386 8.08 2.85 8.49
9/21/2021 3:15:00 AM 16.14 61.052 0.386 8.07 2.89 8.48
9/21/2021 3:30:00 AM 16.09 60.962 0.386 8.07 2.88 8.49
9/21/2021 3:45:00 AM 16.04 60.872 0.386 8.07 2.91 8.51
9/21/2021 4:00:00 AM 15.99 60.782 0.386 8.07 3.06 8.53
9/21/2021 4:15:00 AM 15.95 60.71 0.386 8.06 2.95 8.52
9/21/2021 4:30:00 AM 15.9 60.62 0.386 8.06 3.02 8.54
9/21/2021 4:45:00 AM 15.86 60.548 0.386 8.06 3.08 8.54
9/21/2021 5:00:00 AM 15.83 60.494 0.386 8.06 2.86 8.55
9/21/2021 5:15:00 AM 15.8 60.44 0.386 8.06 3.04 8.56
9/21/2021 5:30:00 AM 15.79 60.422 0.386 8.06 2.89 8.56
9/21/2021 5:45:00 AM 15.76 60.368 0.386 8.05 2.94 8.58
9/21/2021 6:00:00 AM 15.73 60.314 0.387 8.05 3.15 8.57
9/21/2021 6:15:00 AM 15.7 60.26 0.387 8.05 17.26 8.57
9/21/2021 6:30:00 AM 15.67 60.206 0.387 8.05 3.01 8.59
9/21/2021 6:45:00 AM 15.64 60.152 0.387 8.05 2.82 8.59
9/21/2021 7:00:00 AM 15.62 60.116 0.387 8.05 2.95 8.6
9/21/2021 7:15:00 AM 15.61 60.098 0.387 8.06 2.89 8.67
9/21/2021 7:30:00 AM 15.6 60.08 0.387 8.07 2.78 8.74
9/21/2021 7:45:00 AM 15.6 60.08 0.387 8.08 3.05 8.87
9/21/2021 8:00:00 AM 15.59 60.062 0.387 8.1 2.75 9.05
9/21/2021 8:15:00 AM 15.6 60.08 0.387 8.13 2.65 9.23
9/21/2021 8:30:00 AM 15.6 60.08 0.387 8.15 2.63 9.38
9/21/2021 8:45:00 AM 15.63 60.134 0.387 8.18 2.58 9.59
9/21/2021 9:00:00 AM 15.67 60.206 0.386 8.21 2.65 9.85
9/21/2021 9:15:00 AM 15.71 60.278 0.386 8.25 2.54 10.07
9/21/2021 9:30:00 AM 15.75 60.35 0.386 8.28 2.56 10.29
9/21/2021 9:45:00 AM 15.84 60.512 0.385 8.32 2.54 10.61
9/21/2021 10:00:00 AM 15.96 60.728 0.384 8.37 2.52 10.96
9/21/2021 10:15:00 AM 15.98 60.764 0.384 8.4 2.75 11.08
9/21/2021 10:30:00 AM 16.02 60.836 0.384 8.42 2.35 11.2
9/21/2021 10:45:00 AM 16.1 60.98 0.383 8.44 2.46 11.36
9/21/2021 11:00:00 AM 16.24 61.232 0.382 8.49 2.57 11.65
9/21/2021 11:15:00 AM 16.36 61.448 0.381 8.53 2.42 11.87
9/21/2021 11:30:00 AM 16.39 61.502 0.381 8.54 2.53 11.88
9/21/2021 11:45:00 AM 16.43 61.574 0.381 8.56 2.49 11.88
9/21/2021 12:00:00 PM 16.59 61.862 0.38 8.59 2.41 12.04
9/21/2021 12:15:00 PM 16.81 62.258 0.379 8.62 2.36 12.25
9/21/2021 12:30:00 PM 17.04 62.672 0.378 8.66 2.38 12.48
9/21/2021 12:45:00 PM 17.19 62.942 0.377 8.68 2.36 12.58
9/21/2021 1:00:00 PM 17.41 63.338 0.377 8.7 2.32 12.72
9/21/2021 1:15:00 PM 17.6 63.68 0.376 8.72 2.35 12.77
9/21/2021 1:30:00 PM 17.83 64.094 0.375 8.75 2.31 12.91
9/21/2021 1:45:00 PM 18.01 64.418 0.374 8.77 3.93 13
9/21/2021 2:00:00 PM 18.15 64.67 0.373 8.79 2.35 12.99
9/21/2021 2:15:00 PM 18.37 65.066 0.372 8.81 2.25 13.07
9/21/2021 2:30:00 PM 18.5 65.3 0.371 8.83 2.19 13.05
9/21/2021 2:45:00 PM 18.54 65.372 0.371 8.84 2.19 12.98
9/21/2021 3:00:00 PM 18.63 65.534 0.37 8.85 2.19 12.88
9/21/2021 3:15:00 PM 18.66 65.588 0.37 8.85 2.32 12.69
9/21/2021 3:30:00 PM 18.68 65.624 0.369 8.86 2.19 12.56
9/21/2021 3:45:00 PM 18.7 65.66 0.369 8.86 2.25 12.4
9/21/2021 4:00:00 PM 18.72 65.696 0.369 8.86 2.44 12.23
9/21/2021 4:15:00 PM 18.71 65.67799 0.369 8.85 4.29 11.92
9/21/2021 4:30:00 PM 18.7 65.66 0.37 8.84 3.85 11.64
9/21/2021 4:45:00 PM 18.72 65.696 0.37 8.84 2.43 11.59
9/21/2021 5:00:00 PM 18.71 65.67799 0.369 8.84 2.4 11.59
9/21/2021 5:15:00 PM 18.68 65.624 0.37 8.83 2.45 11.39
9/21/2021 5:30:00 PM 18.64 65.552 0.371 8.81 2.28 11.06
9/21/2021 5:45:00 PM 18.62 65.516 0.372 8.79 2.31 10.81
9/21/2021 6:00:00 PM 18.61 65.498 0.372 8.78 2.4 10.67
9/21/2021 6:15:00 PM 18.6 65.48 0.373 8.76 2.32 10.46
9/21/2021 6:30:00 PM 18.57 65.426 0.374 8.74 2.33 10.22
9/21/2021 6:45:00 PM 18.52 65.336 0.375 8.71 2.32 9.93
9/21/2021 7:00:00 PM 18.46 65.228 0.376 8.68 2.46 9.68
9/21/2021 7:15:00 PM 18.4 65.12 0.377 8.64 2.54 9.44
9/21/2021 7:30:00 PM 18.35 65.03 0.378 8.61 2.44 9.24
9/21/2021 7:45:00 PM 18.28 64.904 0.379 8.58 2.58 9.08
9/21/2021 8:00:00 PM 18.21 64.778 0.38 8.55 2.38 8.94
9/21/2021 8:15:00 PM 18.13 64.634 0.381 8.52 2.48 8.82
9/21/2021 8:30:00 PM 18.06 64.508 0.382 8.48 2.53 8.71
9/21/2021 8:45:00 PM 17.98 64.364 0.383 8.45 2.42 8.64
9/21/2021 9:00:00 PM 17.91 64.238 0.384 8.42 2.51 8.58
9/21/2021 9:15:00 PM 17.83 64.094 0.384 8.4 2.39 8.51
9/21/2021 9:30:00 PM 17.76 63.968 0.385 8.37 2.45 8.49
9/21/2021 9:45:00 PM 17.7 63.86 0.385 8.35 2.41 8.45
9/21/2021 10:00:00 PM 17.64 63.752 0.386 8.33 2.48 8.42
9/21/2021 10:15:00 PM 17.57 63.626 0.387 8.3 2.39 8.39
9/21/2021 10:30:00 PM 17.5 63.5 0.387 8.28 2.43 8.38
9/21/2021 10:45:00 PM 17.44 63.392 0.388 8.26 2.4 8.36
9/21/2021 11:00:00 PM 17.37 63.266 0.388 8.24 2.69 8.34
9/21/2021 11:15:00 PM 17.3 63.14 0.389 8.22 2.52 8.33
9/21/2021 11:30:00 PM 17.23 63.014 0.389 8.21 2.47 8.31
9/21/2021 11:45:00 PM 17.17 62.906 0.39 8.19 2.53 8.3
9/22/2021 12:00:00 AM 17.1 62.78 0.39 8.17 2.42 8.29
9/22/2021 12:15:00 AM 17.04 62.672 0.391 8.16 2.44 8.29
9/22/2021 12:30:00 AM 16.99 62.582 0.391 8.15 2.48 8.28
9/22/2021 12:45:00 AM 16.93 62.474 0.392 8.14 2.46 8.28
9/22/2021 1:00:00 AM 16.88 62.384 0.392 8.13 2.75 8.26
9/22/2021 1:15:00 AM 16.84 62.312 0.392 8.12 2.44 8.25
9/22/2021 1:30:00 AM 16.8 62.24 0.393 8.11 2.68 8.26
9/22/2021 1:45:00 AM 16.76 62.168 0.393 8.1 2.51 8.27
9/22/2021 2:00:00 AM 16.72 62.096 0.393 8.09 3.09 8.27
9/22/2021 2:15:00 AM 16.68 62.024 0.394 8.09 2.55 8.28
9/22/2021 2:30:00 AM 16.65 61.97 0.394 8.08 2.55 8.26
9/22/2021 2:45:00 AM 16.63 61.934 0.394 8.08 2.53 8.27
9/22/2021 3:00:00 AM 16.61 61.898 0.394 8.07 2.58 8.28
9/22/2021 3:15:00 AM 16.59 61.862 0.395 8.07 2.62 8.27
9/22/2021 3:30:00 AM 16.57 61.826 0.395 8.06 2.68 8.27
9/22/2021 3:45:00 AM 16.54 61.772 0.395 8.06 2.81 8.29
9/22/2021 4:00:00 AM 16.51 61.718 0.395 8.05 2.51 8.28
9/22/2021 4:15:00 AM 16.49 61.682 0.395 8.05 2.54 8.3
9/22/2021 4:30:00 AM 16.46 61.628 0.395 8.04 2.56 8.3
9/22/2021 4:45:00 AM 16.45 61.61 0.395 8.04 2.7 8.29
9/22/2021 5:00:00 AM 16.43 61.574 0.396 8.04 3.27 8.3
9/22/2021 5:15:00 AM 16.41 61.538 0.396 8.04 12.72 8.26
9/22/2021 5:30:00 AM 16.4 61.52 0.396 8.03 5.42 8.26
9/22/2021 5:45:00 AM 16.39 61.502 0.396 8.03 2.9 8.3
9/22/2021 6:00:00 AM 16.39 61.502 0.396 8.03 2.86 8.28
9/22/2021 6:15:00 AM 16.38 61.484 0.396 8.03 2.65 8.32
9/22/2021 6:30:00 AM 16.37 61.466 0.396 8.03 2.95 8.31
9/22/2021 6:45:00 AM 16.37 61.466 0.396 8.03 3.03 8.3
9/22/2021 7:00:00 AM 16.37 61.466 0.396 8.03 2.73 8.31
9/22/2021 7:15:00 AM 16.36 61.448 0.396 8.03 2.64 8.33
9/22/2021 7:30:00 AM 16.36 61.448 0.396 8.03 7.84 8.36
9/22/2021 7:45:00 AM 16.37 61.466 0.396 8.04 2.58 8.45
9/22/2021 8:00:00 AM 16.38 61.484 0.396 8.06 2.52 8.58
9/22/2021 8:15:00 AM 16.38 61.484 0.396 8.07 2.56 8.66
9/22/2021 8:30:00 AM 16.41 61.538 0.396 8.08 2.47 8.76
9/22/2021 8:45:00 AM 16.44 61.592 0.396 8.1 2.43 8.89
9/22/2021 9:00:00 AM 16.51 61.718 0.395 8.14 2.47 9.22
9/22/2021 9:15:00 AM 16.62 61.916 0.395 8.19 2.62 9.58
9/22/2021 9:30:00 AM 16.7 62.06 0.394 8.24 2.44 9.88
9/22/2021 9:45:00 AM 16.75 62.15 0.394 8.26 2.29 10.06
9/22/2021 10:00:00 AM 16.82 62.276 0.393 8.3 2.31 10.28
9/22/2021 10:15:00 AM 16.9 62.42 0.393 8.34 2.35 10.55
9/22/2021 10:30:00 AM 16.99 62.582 0.392 8.37 2.4 10.7
9/22/2021 10:45:00 AM 17.05 62.69 0.392 8.39 2.39 10.76
9/22/2021 11:00:00 AM 17.15 62.87 0.392 8.41 2.25 10.89
9/22/2021 11:15:00 AM 17.32 63.176 0.39 8.47 2.31 11.33
9/22/2021 11:30:00 AM 17.47 63.446 0.389 8.52 2.32 11.6
9/22/2021 11:45:00 AM 17.57 63.626 0.388 8.54 2.32 11.6
9/22/2021 12:00:00 PM 17.65 63.77 0.388 8.55 2.26 11.57
9/22/2021 12:15:00 PM 17.77 63.986 0.388 8.57 2.27 11.67
9/22/2021 12:30:00 PM 17.87 64.166 0.387 8.6 2.18 11.82
9/22/2021 12:45:00 PM 17.99 64.382 0.386 8.63 2.19 11.91
9/22/2021 1:00:00 PM 18.07 64.526 0.385 8.64 2.23 11.91
9/22/2021 1:15:00 PM 18.14 64.652 0.385 8.64 2.27 11.79
9/22/2021 1:30:00 PM 18.26 64.868 0.384 8.67 2.18 11.99
9/22/2021 1:45:00 PM 18.44 65.192 0.383 8.72 2.21 12.39
9/22/2021 2:00:00 PM 18.59 65.462 0.381 8.75 2.16 12.6
9/22/2021 2:15:00 PM 18.66 65.588 0.381 8.75 2.16 12.44
9/22/2021 2:30:00 PM 18.69 65.642 0.381 8.73 2.22 12.03
9/22/2021 2:45:00 PM 18.82 65.876 0.38 8.75 2.16 12.13
9/22/2021 3:00:00 PM 19.04 66.272 0.377 8.8 2.17 12.61
9/22/2021 3:15:00 PM 19.13 66.434 0.376 8.83 2.13 12.75
9/22/2021 3:30:00 PM 19.18 66.524 0.375 8.83 2.15 12.56
9/22/2021 3:45:00 PM 19.2 66.56 0.375 8.82 2.12 12.25
9/22/2021 4:00:00 PM 19.25 66.65 0.374 8.82 2.16 12.14
9/22/2021 4:15:00 PM 19.27 66.686 0.374 8.82 2.14 11.95
9/22/2021 4:30:00 PM 19.27 66.686 0.374 8.81 2.19 11.53
9/22/2021 4:45:00 PM 19.25 66.65 0.374 8.79 2.2 11.15
9/22/2021 5:00:00 PM 19.25 66.65 0.374 8.78 2.28 10.94
9/22/2021 5:15:00 PM 19.24 66.632 0.374 8.77 2.21 10.75
9/22/2021 5:30:00 PM 19.21 66.578 0.374 8.75 2.21 10.54
9/22/2021 5:45:00 PM 19.18 66.524 0.375 8.73 2.39 10.27
9/22/2021 6:00:00 PM 19.14 66.452 0.376 8.7 2.43 10.04
9/22/2021 6:15:00 PM 19.1 66.38 0.376 8.68 2.38 9.79
9/22/2021 6:30:00 PM 19.06 66.308 0.377 8.66 2.44 9.57
9/22/2021 6:45:00 PM 19.02 66.236 0.378 8.63 2.3 9.31
9/22/2021 7:00:00 PM 18.98 66.164 0.379 8.6 2.32 9.15
9/22/2021 7:15:00 PM 18.94 66.092 0.38 8.57 8.47 8.94
9/22/2021 7:30:00 PM 18.9 66.02 0.381 8.54 2.92 8.8
9/22/2021 7:45:00 PM 18.87 65.966 0.381 8.51 2.34 8.67
9/22/2021 8:00:00 PM 18.83 65.894 0.382 8.49 2.42 8.55
9/22/2021 8:15:00 PM 18.79 65.82201 0.383 8.46 2.36 8.46
9/22/2021 8:30:00 PM 18.76 65.768 0.384 8.43 2.99 8.35
9/22/2021 8:45:00 PM 18.72 65.696 0.384 8.41 3.05 8.28
9/22/2021 9:00:00 PM 18.69 65.642 0.385 8.39 2.77 8.24
9/22/2021 9:15:00 PM 18.65 65.57 0.386 8.36 2.38 8.18
9/22/2021 9:30:00 PM 18.61 65.498 0.386 8.34 2.47 8.14
9/22/2021 9:45:00 PM 18.57 65.426 0.387 8.32 2.45 8.12
9/22/2021 10:00:00 PM 18.53 65.354 0.388 8.3 2.61 8.08
9/22/2021 10:15:00 PM 18.49 65.282 0.388 8.28 2.41 8.05
9/22/2021 10:30:00 PM 18.45 65.21 0.389 8.26 2.6 8.05
9/22/2021 10:45:00 PM 18.41 65.138 0.389 8.24 2.44 8.02
9/22/2021 11:00:00 PM 18.37 65.066 0.39 8.22 2.48 7.99
9/22/2021 11:15:00 PM 18.34 65.012 0.39 8.21 2.4 7.98
9/22/2021 11:30:00 PM 18.31 64.958 0.391 8.19 2.54 7.95
9/22/2021 11:45:00 PM 18.27 64.886 0.391 8.18 2.56 7.94
9/23/2021 12:00:00 AM 18.23 64.814 0.392 8.16 2.51 7.93
9/23/2021 12:15:00 AM 18.2 64.76 0.392 8.15 2.47 7.91
9/23/2021 12:30:00 AM 18.17 64.706 0.393 8.14 2.48 7.89
9/23/2021 12:45:00 AM 18.13 64.634 0.393 8.13 2.48 7.89
9/23/2021 1:00:00 AM 18.1 64.58 0.394 8.12 2.45 7.88
9/23/2021 1:15:00 AM 18.07 64.526 0.394 8.11 2.55 7.87
9/23/2021 1:30:00 AM 18.03 64.454 0.394 8.1 2.65 7.87
9/23/2021 1:45:00 AM 18.01 64.418 0.395 8.09 2.52 7.87
9/23/2021 2:00:00 AM 17.98 64.364 0.395 8.09 2.68 7.86
9/23/2021 2:15:00 AM 17.96 64.328 0.395 8.08 2.66 7.86
9/23/2021 2:30:00 AM 17.94 64.292 0.395 8.08 2.59 7.85
9/23/2021 2:45:00 AM 17.92 64.256 0.396 8.07 2.6 7.85
9/23/2021 3:00:00 AM 17.89 64.202 0.396 8.07 2.82 7.85
9/23/2021 3:15:00 AM 17.87 64.166 0.396 8.07 2.6 7.86
9/23/2021 3:30:00 AM 17.85 64.13 0.396 8.06 2.63 7.83
9/23/2021 3:45:00 AM 17.83 64.094 0.396 8.06 2.7 7.88
9/23/2021 4:00:00 AM 17.81 64.058 0.397 8.06 2.64 7.87
9/23/2021 4:15:00 AM 17.8 64.04 0.397 8.05 2.56 7.86
9/23/2021 4:30:00 AM 17.78 64.004 0.397 8.05 2.72 7.87
9/23/2021 4:45:00 AM 17.77 63.986 0.397 8.05 2.74 7.86
9/23/2021 5:00:00 AM 17.76 63.968 0.397 8.04 2.62 7.85
9/23/2021 5:15:00 AM 17.75 63.95 0.397 8.04 2.78 7.86
9/23/2021 5:30:00 AM 17.74 63.932 0.397 8.04 4.17 7.88
9/23/2021 5:45:00 AM 17.73 63.914 0.397 8.04 2.65 7.83
9/23/2021 6:00:00 AM 17.71 63.878 0.397 8.04 2.63 7.86
9/23/2021 6:15:00 AM 17.69 63.842 0.398 8.04 3.01 7.87
9/23/2021 6:30:00 AM 17.67 63.806 0.398 8.04 2.58 7.89
9/23/2021 6:45:00 AM 17.66 63.788 0.398 8.04 2.69 7.9
9/23/2021 7:00:00 AM 17.65 63.77 0.398 8.04 2.54 7.9
9/23/2021 7:15:00 AM 17.65 63.77 0.398 8.04 2.49 7.92
9/23/2021 7:30:00 AM 17.65 63.77 0.398 8.04 2.95 7.93
9/23/2021 7:45:00 AM 17.65 63.77 0.398 8.05 2.45 8
9/23/2021 8:00:00 AM 17.66 63.788 0.398 8.05 2.46 8.08
9/23/2021 8:15:00 AM 17.67 63.806 0.398 8.06 2.52 8.15
9/23/2021 8:30:00 AM 17.68 63.824 0.398 8.08 2.38 8.32
9/23/2021 8:45:00 AM 17.71 63.878 0.398 8.12 2.38 8.6
9/23/2021 9:00:00 AM 17.74 63.932 0.397 8.14 2.34 8.73
9/23/2021 9:15:00 AM 17.78 64.004 0.397 8.15 2.31 8.82
9/23/2021 9:30:00 AM 17.83 64.094 0.397 8.18 2.45 9.05
9/23/2021 9:45:00 AM 17.88 64.184 0.397 8.21 7.3 9.26
9/23/2021 10:00:00 AM 17.96 64.328 0.396 8.25 2.53 9.57
9/23/2021 10:15:00 AM 18.06 64.508 0.395 8.31 2.37 10.02
9/23/2021 10:30:00 AM 18.16 64.688 0.394 8.36 2.51 10.32
9/23/2021 10:45:00 AM 18.3 64.94 0.393 8.41 2.33 10.67
9/23/2021 11:00:00 AM 18.46 65.228 0.392 8.46 2.39 11.01
9/23/2021 11:15:00 AM 18.59 65.462 0.391 8.5 2.31 11.31
9/23/2021 11:30:00 AM 18.63 65.534 0.391 8.52 2.46 11.25
9/23/2021 11:45:00 AM 18.68 65.624 0.39 8.53 2.55 11.2
9/23/2021 12:00:00 PM 18.71 65.67799 0.39 8.53 2.4 11.04
9/23/2021 12:15:00 PM 18.73 65.714 0.39 8.52 2.37 10.84
9/23/2021 12:30:00 PM 18.74 65.732 0.39 8.51 2.47 10.59
9/23/2021 12:45:00 PM 18.75 65.75 0.39 8.5 2.42 10.39
9/23/2021 1:00:00 PM 18.75 65.75 0.39 8.49 2.66 10.24
9/23/2021 1:15:00 PM 18.76 65.768 0.389 8.49 2.98 10.17
9/23/2021 1:30:00 PM 18.77 65.786 0.389 8.48 2.49 10.02
9/23/2021 1:45:00 PM 18.77 65.786 0.389 8.47 2.35 9.93
9/23/2021 2:00:00 PM 18.76 65.768 0.389 8.46 2.27 9.81
9/23/2021 2:15:00 PM 18.74 65.732 0.388 8.44 2.29 9.61
9/23/2021 2:30:00 PM 18.72 65.696 0.387 8.42 2.55 9.48
9/23/2021 2:45:00 PM 18.72 65.696 0.385 8.41 2.37 9.31
9/23/2021 3:00:00 PM 18.7 65.66 0.385 8.41 2.37 9.29
9/23/2021 3:15:00 PM 18.7 65.66 0.385 8.41 2.31 9.37
9/23/2021 3:30:00 PM 18.7 65.66 0.384 8.42 2.42 9.42
9/23/2021 3:45:00 PM 18.69 65.642 0.384 8.42 2.31 9.35
9/23/2021 4:00:00 PM 18.68 65.624 0.384 8.41 2.32 9.23
9/23/2021 4:15:00 PM 18.68 65.624 0.384 8.4 2.3 9.19
9/23/2021 4:30:00 PM 18.67 65.606 0.383 8.4 2.44 9.14
9/23/2021 4:45:00 PM 18.67 65.606 0.383 8.39 2.6 9.08
9/23/2021 5:00:00 PM 18.67 65.606 0.383 8.38 2.21 8.99
9/23/2021 5:15:00 PM 18.66 65.588 0.379 8.38 3.01 8.9
9/23/2021 5:30:00 PM 18.66 65.588 0.37 8.36 3.51 8.76
9/23/2021 5:45:00 PM 18.66 65.588 0.365 8.35 3.75 8.68
9/23/2021 6:00:00 PM 18.63 65.534 0.369 8.33 3.52 8.62
9/23/2021 6:15:00 PM 18.54 65.372 0.37 8.3 3.63 8.5
9/23/2021 6:30:00 PM 18.47 65.246 0.364 8.27 4.73 8.44
9/23/2021 6:45:00 PM 18.44 65.192 0.359 8.24 6.87 8.35
9/23/2021 7:00:00 PM 18.42 65.156 0.357 8.21 6.25 8.34
9/23/2021 7:15:00 PM 18.39 65.102 0.358 8.19 5.09 8.25
9/23/2021 7:30:00 PM 18.36 65.048 0.361 8.17 5.3 8.21
9/23/2021 7:45:00 PM 18.34 65.012 0.365 8.15 6.94 8.18
9/23/2021 8:00:00 PM 18.32 64.976 0.368 8.14 8.04 8.14
9/23/2021 8:15:00 PM 18.3 64.94 0.37 8.13 8.28 8.11
9/23/2021 8:30:00 PM 18.27 64.886 0.371 8.12 7.5 8.09
9/23/2021 8:45:00 PM 18.22 64.796 0.373 8.11 6.45 8.09
9/23/2021 9:00:00 PM 18.18 64.724 0.375 8.1 6.14 8.12
9/23/2021 9:15:00 PM 18.13 64.634 0.375 8.1 6.6 8.14
9/23/2021 9:30:00 PM 18.09 64.562 0.375 8.08 8.85 8.13
9/23/2021 9:45:00 PM 18.04 64.472 0.374 8.07 9.78 8.13
9/23/2021 10:00:00 PM 18 64.4 0.372 8.06 8.93 8.12
9/23/2021 10:15:00 PM 17.96 64.328 0.37 8.05 10.3 8.13
9/23/2021 10:30:00 PM 17.93 64.274 0.367 8.04 10.57 8.12
9/23/2021 10:45:00 PM 17.9 64.22 0.363 8.03 11.32 8.12
9/23/2021 11:00:00 PM 17.86 64.148 0.359 8.02 10.62 8.11
9/23/2021 11:15:00 PM 17.82 64.076 0.352 8.01 10.4 8.12
9/23/2021 11:30:00 PM 17.77 63.986 0.342 8 11.33 8.12
9/23/2021 11:45:00 PM 17.71 63.878 0.33 7.99 11.71 8.13
9/24/2021 12:00:00 AM 17.64 63.752 0.318 7.98 13.27 8.13
9/24/2021 12:15:00 AM 17.57 63.626 0.308 7.96 14.04 8.14
9/24/2021 12:30:00 AM 17.49 63.482 0.301 7.95 15.7 8.14
9/24/2021 12:45:00 AM 17.41 63.338 0.299 7.94 16.08 8.15
9/24/2021 1:00:00 AM 17.33 63.194 0.301 7.93 16.89 8.18
9/24/2021 1:15:00 AM 17.25 63.05 0.305 7.93 16.59 8.2
9/24/2021 1:30:00 AM 17.18 62.924 0.309 7.94 13.78 8.21
9/24/2021 1:45:00 AM 17.12 62.816 0.313 7.94 13.72 8.22
9/24/2021 2:00:00 AM 17.05 62.69 0.317 7.94 11.56 8.24
9/24/2021 2:15:00 AM 16.99 62.582 0.32 7.94 12.76 8.25
9/24/2021 2:30:00 AM 16.92 62.456 0.322 7.94 11.58 8.26
9/24/2021 2:45:00 AM 16.86 62.348 0.324 7.95 10.77 8.27
9/24/2021 3:00:00 AM 16.79 62.222 0.325 7.95 10.99 8.28
9/24/2021 3:15:00 AM 16.72 62.096 0.325 7.95 10.33 8.3
9/24/2021 3:30:00 AM 16.65 61.97 0.326 7.95 12.98 8.32
9/24/2021 3:45:00 AM 16.58 61.844 0.325 7.95 10.46 8.33
9/24/2021 4:00:00 AM 16.52 61.736 0.325 7.95 9.88 8.34
9/24/2021 4:15:00 AM 16.45 61.61 0.325 7.95 15.13 8.35
9/24/2021 4:30:00 AM 16.37 61.466 0.325 7.94 10.18 8.38
9/24/2021 4:45:00 AM 16.3 61.34 0.324 7.94 9.68 8.39
9/24/2021 5:00:00 AM 16.23 61.214 0.324 7.94 11.81 8.41
9/24/2021 5:15:00 AM 16.16 61.088 0.323 7.94 9.56 8.42
9/24/2021 5:30:00 AM 16.08 60.944 0.322 7.94 9.63 8.44
9/24/2021 5:45:00 AM 16.01 60.818 0.321 7.94 8.49 8.47
9/24/2021 6:00:00 AM 15.93 60.674 0.319 7.94 8.62 8.48
9/24/2021 6:15:00 AM 15.86 60.548 0.318 7.94 12.08 8.49
9/24/2021 6:30:00 AM 15.78 60.404 0.316 7.94 8.89 8.51
9/24/2021 6:45:00 AM 15.71 60.278 0.314 7.93 9.6 8.53
9/24/2021 7:00:00 AM 15.64 60.152 0.313 7.93 9.81 8.54
9/24/2021 7:15:00 AM 15.57 60.026 0.312 7.93 9.25 8.56
9/24/2021 7:30:00 AM 15.51 59.918 0.313 7.93 9.23 8.59
9/24/2021 7:45:00 AM 15.46 59.828 0.314 7.94 9.24 8.63
9/24/2021 8:00:00 AM 15.42 59.756 0.315 7.94 9.12 8.67
9/24/2021 8:15:00 AM 15.39 59.702 0.317 7.95 8.86 8.71
9/24/2021 8:30:00 AM 15.35 59.63 0.32 7.96 8.5 8.77
9/24/2021 8:45:00 AM 15.33 59.594 0.323 7.97 8.14 8.82
9/24/2021 9:00:00 AM 15.31 59.558 0.325 7.98 7.54 8.89
9/24/2021 9:15:00 AM 15.31 59.558 0.328 7.99 7.4 8.97
9/24/2021 9:30:00 AM 15.32 59.576 0.331 8.01 7.22 9.06
9/24/2021 9:45:00 AM 15.35 59.63 0.333 8.03 6.66 9.17
9/24/2021 10:00:00 AM 15.38 59.684 0.335 8.05 6.36 9.26
9/24/2021 10:15:00 AM 15.37 59.666 0.337 8.06 6.28 9.36
9/24/2021 10:30:00 AM 15.45 59.81 0.339 8.09 5.92 9.52
9/24/2021 10:45:00 AM 15.56 60.008 0.34 8.13 5.64 9.72
9/24/2021 11:00:00 AM 15.69 60.242 0.341 8.16 6.95 9.89
9/24/2021 11:15:00 AM 15.75 60.35 0.342 8.19 5.44 10.05
9/24/2021 11:30:00 AM 15.76 60.368 0.343 8.19 5.82 9.98
9/24/2021 11:45:00 AM 15.88 60.584 0.344 8.21 5.57 10.06
9/24/2021 12:00:00 PM 16.06 60.908 0.345 8.25 5.01 10.24
9/24/2021 12:15:00 PM 16.16 61.088 0.346 8.26 5.47 10.28
9/24/2021 12:30:00 PM 16.27 61.286 0.347 8.27 4.82 10.33
9/24/2021 12:45:00 PM 16.43 61.574 0.347 8.29 4.98 10.4
9/24/2021 1:00:00 PM 16.64 61.952 0.348 8.32 5.08 10.52
9/24/2021 1:15:00 PM 16.73 62.114 0.349 8.33 5.17 10.55
9/24/2021 1:30:00 PM 16.85 62.33 0.349 8.35 5.44 10.61
9/24/2021 1:45:00 PM 16.98 62.564 0.35 8.37 4.92 10.67
9/24/2021 2:00:00 PM 17.1 62.78 0.35 8.39 4.99 10.74
9/24/2021 2:15:00 PM 17.16 62.888 0.351 8.39 5.54 10.63
9/24/2021 2:30:00 PM 17.29 63.122 0.352 8.41 5.34 10.73
9/24/2021 2:45:00 PM 17.37 63.266 0.352 8.41 5.43 10.71
9/24/2021 3:00:00 PM 17.43 63.374 0.353 8.42 5.05 10.69
9/24/2021 3:15:00 PM 17.46 63.428 0.354 8.41 5.09 10.57
9/24/2021 3:30:00 PM 17.48 63.464 0.354 8.4 5.6 10.49
9/24/2021 3:45:00 PM 17.53 63.554 0.355 8.4 5.76 10.42
9/24/2021 4:00:00 PM 17.57 63.626 0.356 8.39 5.29 10.36
9/24/2021 4:15:00 PM 17.64 63.752 0.356 8.39 5.57 10.33
9/24/2021 4:30:00 PM 17.67 63.806 0.357 8.38 5.55 10.23
9/24/2021 4:45:00 PM 17.67 63.806 0.358 8.37 6 10.15
9/24/2021 5:00:00 PM 17.66 63.788 0.358 8.35 5.7 10.07
9/24/2021 5:15:00 PM 17.6 63.68 0.358 8.32 5.79 9.87
9/24/2021 5:30:00 PM 17.54 63.572 0.357 8.29 5.64 9.72
9/24/2021 5:45:00 PM 17.5 63.5 0.356 8.27 5.82 9.57
9/24/2021 6:00:00 PM 17.43 63.374 0.355 8.23 5.79 9.4
9/24/2021 6:15:00 PM 17.35 63.23 0.354 8.2 5.94 9.24
9/24/2021 6:30:00 PM 17.27 63.086 0.352 8.17 6.2 9.11
9/24/2021 6:45:00 PM 17.2 62.96 0.35 8.15 6.05 9.01
9/24/2021 7:00:00 PM 17.13 62.834 0.348 8.12 6.67 8.92
9/24/2021 7:15:00 PM 17.06 62.708 0.346 8.1 6.92 8.84
9/24/2021 7:30:00 PM 17 62.6 0.343 8.08 7.14 8.76
9/24/2021 7:45:00 PM 16.94 62.492 0.341 8.06 8.62 8.7
9/24/2021 8:00:00 PM 16.87 62.366 0.339 8.04 8.19 8.64
9/24/2021 8:15:00 PM 16.79 62.222 0.338 8.02 7.59 8.59
9/24/2021 8:30:00 PM 16.72 62.096 0.337 8 7.89 8.56
9/24/2021 8:45:00 PM 16.64 61.952 0.336 7.99 8.06 8.53
9/24/2021 9:00:00 PM 16.56 61.808 0.335 7.98 8 8.51
9/24/2021 9:15:00 PM 16.48 61.664 0.335 7.97 8.31 8.5
9/24/2021 9:30:00 PM 16.41 61.538 0.335 7.97 7.86 8.49
9/24/2021 9:45:00 PM 16.34 61.412 0.336 7.96 8.7 8.48
9/24/2021 10:00:00 PM 16.27 61.286 0.337 7.95 8.87 8.48
9/24/2021 10:15:00 PM 16.21 61.178 0.338 7.95 7.94 8.48
9/24/2021 10:30:00 PM 16.14 61.052 0.339 7.95 7.96 8.48
9/24/2021 10:45:00 PM 16.08 60.944 0.34 7.95 8.98 8.49
9/24/2021 11:00:00 PM 16.01 60.818 0.341 7.94 9.09 8.49
9/24/2021 11:15:00 PM 15.95 60.71 0.343 7.94 8.71 8.5
9/24/2021 11:30:00 PM 15.88 60.584 0.344 7.94 8.57 8.5
9/24/2021 11:45:00 PM 15.81 60.458 0.344 7.94 8.74 8.51
9/25/2021 12:00:00 AM 15.75 60.35 0.345 7.94 8.42 8.51
9/25/2021 12:15:00 AM 15.68 60.224 0.346 7.94 8.95 8.53
9/25/2021 12:30:00 AM 15.62 60.116 0.346 7.93 8.31 8.53
9/25/2021 12:45:00 AM 15.55 59.99 0.346 7.93 8.74 8.54
9/25/2021 1:00:00 AM 15.49 59.882 0.346 7.93 8.74 8.55
9/25/2021 1:15:00 AM 15.43 59.774 0.346 7.93 9.06 8.56
9/25/2021 1:30:00 AM 15.36 59.648 0.346 7.93 9.86 8.57
9/25/2021 1:45:00 AM 15.3 59.54 0.346 7.92 9.22 8.57
9/25/2021 2:00:00 AM 15.23 59.414 0.345 7.92 8.94 8.59
9/25/2021 2:15:00 AM 15.17 59.306 0.345 7.92 9.78 8.6
9/25/2021 2:30:00 AM 15.1 59.18 0.344 7.92 8.65 8.61
9/25/2021 2:45:00 AM 15.03 59.054 0.344 7.92 9.84 8.62
9/25/2021 3:00:00 AM 14.97 58.946 0.343 7.91 8.96 8.63
9/25/2021 3:15:00 AM 14.91 58.838 0.342 7.91 9.63 8.65
9/25/2021 3:30:00 AM 14.85 58.73 0.342 7.91 9.7 8.66
9/25/2021 3:45:00 AM 14.79 58.622 0.341 7.86 9.5 8.66
9/25/2021 4:00:00 AM 14.73 58.514 0.341 7.87 9.4 8.68
9/25/2021 4:15:00 AM 14.67 58.406 0.34 7.88 9.17 8.7
9/25/2021 4:30:00 AM 14.61 58.298 0.34 7.89 9.49 8.71
9/25/2021 4:45:00 AM 14.56 58.208 0.339 7.89 11.02 8.71
9/25/2021 5:00:00 AM 14.51 58.118 0.339 7.89 9.74 8.73
9/25/2021 5:15:00 AM 14.45 58.01 0.339 7.89 10.36 8.74
9/25/2021 5:30:00 AM 14.4 57.92 0.338 7.89 11.4 8.75
9/25/2021 5:45:00 AM 14.35 57.83 0.338 7.89 8.87 8.77
9/25/2021 6:00:00 AM 14.3 57.74 0.338 7.89 8.78 8.78
9/25/2021 6:15:00 AM 14.25 57.65 0.338 7.89 8.75 8.79
9/25/2021 6:30:00 AM 14.21 57.578 0.338 7.89 8.78 8.8
9/25/2021 6:45:00 AM 14.16 57.488 0.338 7.89 8.39 8.82
9/25/2021 7:00:00 AM 14.12 57.416 0.338 7.89 8.41 8.82
9/25/2021 7:15:00 AM 14.09 57.362 0.338 7.89 8.3 8.85
9/25/2021 7:30:00 AM 14.06 57.308 0.338 7.9 8.25 8.88
9/25/2021 7:45:00 AM 14.04 57.272 0.338 7.9 7.3 8.93
9/25/2021 8:00:00 AM 14.02 57.236 0.339 7.91 6.74 8.99
9/25/2021 8:15:00 AM 14.01 57.218 0.339 7.92 7.19 9.07
9/25/2021 8:30:00 AM 14 57.2 0.339 7.93 6.38 9.14
9/25/2021 8:45:00 AM 13.99 57.182 0.339 7.95 6.96 9.22
9/25/2021 9:00:00 AM 13.99 57.182 0.339 7.96 6.1 9.3
9/25/2021 9:15:00 AM 13.99 57.182 0.339 7.97 5.81 9.4
9/25/2021 9:30:00 AM 14.02 57.236 0.339 8 5.5 9.55
9/25/2021 9:45:00 AM 14.06 57.308 0.339 8.02 5.71 9.69
9/25/2021 10:00:00 AM 14.12 57.416 0.339 8.04 5.21 9.81
9/25/2021 10:15:00 AM 14.19 57.542 0.339 8.06 5.07 9.91
9/25/2021 10:30:00 AM 14.26 57.668 0.339 8.08 4.82 9.99
9/25/2021 10:45:00 AM 14.33 57.794 0.338 8.1 4.7 10.04
9/25/2021 11:00:00 AM 14.41 57.938 0.338 8.11 4.98 10.1
9/25/2021 11:15:00 AM 14.52 58.136 0.338 8.13 5.21 10.18
9/25/2021 11:30:00 AM 14.64 58.352 0.338 8.15 4.83 10.27
9/25/2021 11:45:00 AM 14.78 58.604 0.337 8.17 4.42 10.36
9/25/2021 12:00:00 PM 14.95 58.91 0.337 8.19 4.5 10.46
9/25/2021 12:15:00 PM 15.12 59.216 0.336 8.22 4.74 10.56
9/25/2021 12:30:00 PM 15.32 59.576 0.336 8.25 4.49 10.69
9/25/2021 12:45:00 PM 15.52 59.936 0.335 8.28 4.61 10.81
9/25/2021 1:00:00 PM 15.72 60.296 0.335 8.31 4.77 10.91
9/25/2021 1:15:00 PM 15.92 60.656 0.334 8.34 4.53 11.01
9/25/2021 1:30:00 PM 16.09 60.962 0.334 8.36 4.44 11.06
9/25/2021 1:45:00 PM 16.24 61.232 0.333 8.39 4.51 11.13
9/25/2021 2:00:00 PM 16.43 61.574 0.332 8.41 4.56 11.21
9/25/2021 2:15:00 PM 16.61 61.898 0.332 8.44 4.53 11.26
9/25/2021 2:30:00 PM 16.74 62.132 0.331 8.45 4.51 11.3
9/25/2021 2:45:00 PM 16.85 62.33 0.331 8.47 4.7 11.28
9/25/2021 3:00:00 PM 16.95 62.51 0.331 8.48 4.6 11.27
9/25/2021 3:15:00 PM 17.02 62.636 0.33 8.49 4.6 11.27
9/25/2021 3:30:00 PM 17.1 62.78 0.33 8.51 4.76 11.28
9/25/2021 3:45:00 PM 17.18 62.924 0.329 8.52 4.33 11.25
9/25/2021 4:00:00 PM 17.23 63.014 0.329 8.52 4.37 11.2
9/25/2021 4:15:00 PM 17.27 63.086 0.329 8.52 4.36 11.1
9/25/2021 4:30:00 PM 17.3 63.14 0.329 8.51 4.58 11
9/25/2021 4:45:00 PM 17.34 63.212 0.329 8.51 4.44 10.9
9/25/2021 5:00:00 PM 17.33 63.194 0.329 8.5 4.52 10.8
9/25/2021 5:15:00 PM 17.3 63.14 0.329 8.48 4.44 10.61
9/25/2021 5:30:00 PM 17.25 63.05 0.329 8.45 4.61 10.45
9/25/2021 5:45:00 PM 17.2 62.96 0.329 8.42 4.49 10.24
9/25/2021 6:00:00 PM 17.14 62.852 0.329 8.39 4.46 10.05
9/25/2021 6:15:00 PM 17.08 62.744 0.33 8.35 4.55 9.86
9/25/2021 6:30:00 PM 17.02 62.636 0.33 8.32 4.31 9.69
9/25/2021 6:45:00 PM 16.96 62.528 0.33 8.28 4.64 9.53
9/25/2021 7:00:00 PM 16.89 62.402 0.33 8.25 4.75 9.39
9/25/2021 7:15:00 PM 16.81 62.258 0.33 8.22 5.18 9.26
9/25/2021 7:30:00 PM 16.73 62.114 0.331 8.19 4.94 9.15
9/25/2021 7:45:00 PM 16.65 61.97 0.331 8.16 5.11 9.05
9/25/2021 8:00:00 PM 16.57 61.826 0.331 8.14 5.4 8.96
9/25/2021 8:15:00 PM 16.49 61.682 0.331 8.12 5.05 8.89
9/25/2021 8:30:00 PM 16.42 61.556 0.331 8.09 4.98 8.84
9/25/2021 8:45:00 PM 16.34 61.412 0.331 8.08 5.04 8.79
9/25/2021 9:00:00 PM 16.28 61.304 0.332 8.06 5.23 8.74
9/25/2021 9:15:00 PM 16.21 61.178 0.332 8.05 5.23 8.7
9/25/2021 9:30:00 PM 16.15 61.07 0.332 8.03 5.3 8.67
9/25/2021 9:45:00 PM 16.09 60.962 0.332 8.02 5.24 8.64
9/25/2021 10:00:00 PM 16.03 60.854 0.332 8.01 5.19 8.61
9/25/2021 10:15:00 PM 15.97 60.746 0.332 8 5.28 8.59
9/25/2021 10:30:00 PM 15.9 60.62 0.332 7.99 5.12 8.58
9/25/2021 10:45:00 PM 15.84 60.512 0.332 7.99 5.02 8.57
9/25/2021 11:00:00 PM 15.79 60.422 0.332 7.98 5.04 8.56
9/25/2021 11:15:00 PM 15.75 60.35 0.332 7.97 5.14 8.55
9/25/2021 11:30:00 PM 15.71 60.278 0.332 7.97 5.04 8.55
9/25/2021 11:45:00 PM 15.67 60.206 0.332 7.97 4.66 8.55
9/26/2021 12:00:00 AM 15.62 60.116 0.332 7.96 4.76 8.54
9/26/2021 12:15:00 AM 15.58 60.044 0.332 7.96 5.01 8.55
9/26/2021 12:30:00 AM 15.54 59.972 0.333 7.95 4.86 8.54
9/26/2021 12:45:00 AM 15.49 59.882 0.333 7.95 4.95 8.55
9/26/2021 1:00:00 AM 15.44 59.792 0.333 7.95 4.93 8.55
9/26/2021 1:15:00 AM 15.39 59.702 0.333 7.95 4.9 8.56
9/26/2021 1:30:00 AM 15.35 59.63 0.333 7.95 4.87 8.57
9/26/2021 1:45:00 AM 15.31 59.558 0.333 7.95 4.73 8.58
9/26/2021 2:00:00 AM 15.28 59.504 0.333 7.95 4.98 8.58
9/26/2021 2:15:00 AM 15.25 59.45 0.333 7.95 5.06 8.59
9/26/2021 2:30:00 AM 15.22 59.396 0.333 7.94 5.05 8.59
9/26/2021 2:45:00 AM 15.18 59.324 0.333 7.94 5.35 8.6
9/26/2021 3:00:00 AM 15.14 59.252 0.333 7.95 4.75 8.61
9/26/2021 3:15:00 AM 15.1 59.18 0.333 7.95 4.99 8.63
9/26/2021 3:30:00 AM 15.06 59.108 0.333 7.95 4.9 8.63
9/26/2021 3:45:00 AM 15.03 59.054 0.333 7.94 4.66 8.63
9/26/2021 4:00:00 AM 14.99 58.982 0.333 7.94 15.35 8.63
9/26/2021 4:15:00 AM 14.94 58.892 0.333 7.95 4.83 8.65
9/26/2021 4:30:00 AM 14.9 58.82 0.333 7.95 4.96 8.66
9/26/2021 4:45:00 AM 14.86 58.748 0.334 7.94 4.83 8.67
9/26/2021 5:00:00 AM 14.82 58.676 0.334 7.95 4.71 8.69
9/26/2021 5:15:00 AM 14.78 58.604 0.334 7.95 4.87 8.7
9/26/2021 5:30:00 AM 14.74 58.532 0.334 7.94 4.8 8.7
9/26/2021 5:45:00 AM 14.71 58.478 0.334 7.94 4.69 8.71
9/26/2021 6:00:00 AM 14.67 58.406 0.334 7.95 4.84 8.72
9/26/2021 6:15:00 AM 14.63 58.334 0.334 7.95 5.24 8.73
9/26/2021 6:30:00 AM 14.58 58.244 0.334 7.94 4.81 8.73
9/26/2021 6:45:00 AM 14.52 58.136 0.335 7.95 4.83 8.73
9/26/2021 7:00:00 AM 14.46 58.028 0.335 7.95 4.74 8.75
9/26/2021 7:15:00 AM 14.41 57.938 0.335 7.95 4.57 8.79
9/26/2021 7:30:00 AM 14.35 57.83 0.335 7.96 4.28 8.83
9/26/2021 7:45:00 AM 14.31 57.758 0.335 7.96 4.43 8.9
9/26/2021 8:00:00 AM 14.29 57.722 0.335 7.97 4.3 8.98
9/26/2021 8:15:00 AM 14.27 57.686 0.335 7.99 4.11 9.09
9/26/2021 8:30:00 AM 14.24 57.632 0.335 8 4 9.16
9/26/2021 8:45:00 AM 14.22 57.596 0.335 8.01 3.82 9.23
9/26/2021 9:00:00 AM 14.21 57.578 0.335 8.03 3.9 9.35
9/26/2021 9:15:00 AM 14.2 57.56 0.335 8.05 3.66 9.45
9/26/2021 9:30:00 AM 14.21 57.578 0.335 8.06 3.56 9.56
9/26/2021 9:45:00 AM 14.23 57.614 0.335 8.08 3.53 9.67
9/26/2021 10:00:00 AM 14.26 57.668 0.334 8.1 3.45 9.78
9/26/2021 10:15:00 AM 14.29 57.722 0.334 8.12 3.43 9.89
9/26/2021 10:30:00 AM 14.33 57.794 0.334 8.14 3.28 10
9/26/2021 10:45:00 AM 14.4 57.92 0.334 8.17 3.26 10.16
9/26/2021 11:00:00 AM 14.49 58.082 0.334 8.2 3.28 10.34
9/26/2021 11:15:00 AM 14.62 58.316 0.333 8.24 3.23 10.55
9/26/2021 11:30:00 AM 14.74 58.532 0.333 8.27 3.16 10.71
9/26/2021 11:45:00 AM 14.88 58.784 0.333 8.32 3.14 10.91
9/26/2021 12:00:00 PM 15.02 59.036 0.332 8.35 3.13 11.07
9/26/2021 12:15:00 PM 15.09 59.162 0.332 8.38 3.16 11.11
9/26/2021 12:30:00 PM 15.23 59.414 0.332 8.4 3.11 11.16
9/26/2021 12:45:00 PM 15.3 59.54 0.332 8.43 6.23 11.26
9/26/2021 1:00:00 PM 15.49 59.882 0.332 8.45 3.15 11.37
9/26/2021 1:15:00 PM 15.67 60.206 0.331 8.49 3.03 11.5
9/26/2021 1:30:00 PM 15.87 60.566 0.331 8.52 3.01 11.67
9/26/2021 1:45:00 PM 16.02 60.836 0.331 8.55 3 11.72
9/26/2021 2:00:00 PM 16.11 60.998 0.33 8.57 2.96 11.73
9/26/2021 2:15:00 PM 16.21 61.178 0.33 8.57 2.93 11.65
9/26/2021 2:30:00 PM 16.36 61.448 0.33 8.61 3.01 11.84
9/26/2021 2:45:00 PM 16.39 61.502 0.33 8.62 3.02 11.72
9/26/2021 3:00:00 PM 16.43 61.574 0.33 8.62 2.94 11.6
9/26/2021 3:15:00 PM 16.43 61.574 0.33 8.62 2.97 11.43
9/26/2021 3:30:00 PM 16.54 61.772 0.33 8.63 2.92 11.45
9/26/2021 3:45:00 PM 16.57 61.826 0.33 8.65 3.15 11.44
9/26/2021 4:00:00 PM 16.63 61.934 0.33 8.64 3.11 11.32
9/26/2021 4:15:00 PM 16.65 61.97 0.33 8.65 3.17 11.34
9/26/2021 4:30:00 PM 16.67 62.006 0.33 8.65 3.17 11.26
9/26/2021 4:45:00 PM 16.68 62.024 0.331 8.64 3.11 11.1
9/26/2021 5:00:00 PM 16.71 62.078 0.331 8.64 3.21 11.05
9/26/2021 5:15:00 PM 16.71 62.078 0.331 8.64 3.19 10.92
9/26/2021 5:30:00 PM 16.68 62.024 0.331 8.62 3.24 10.75
9/26/2021 5:45:00 PM 16.63 61.934 0.332 8.59 3.2 10.52
9/26/2021 6:00:00 PM 16.57 61.826 0.333 8.56 3.19 10.32
9/26/2021 6:15:00 PM 16.49 61.682 0.334 8.53 3.22 10.1
9/26/2021 6:30:00 PM 16.37 61.466 0.335 8.48 3.23 9.87
9/26/2021 6:45:00 PM 16.26 61.268 0.336 8.44 3.3 9.68
9/26/2021 7:00:00 PM 16.17 61.106 0.337 8.4 3.37 9.53
9/26/2021 7:15:00 PM 16.1 60.98 0.337 8.37 3 9.41
9/26/2021 7:30:00 PM 16.04 60.872 0.338 8.34 3.17 9.31
9/26/2021 7:45:00 PM 15.98 60.764 0.338 8.31 3.33 9.23
9/26/2021 8:00:00 PM 15.91 60.638 0.339 8.29 3.26 9.15
9/26/2021 8:15:00 PM 15.85 60.53 0.339 8.26 3.27 9.09
9/26/2021 8:30:00 PM 15.78 60.404 0.34 8.24 3.32 9.04
9/26/2021 8:45:00 PM 15.71 60.278 0.34 8.22 3.49 9
9/26/2021 9:00:00 PM 15.65 60.17 0.341 8.19 3.33 8.95
9/26/2021 9:15:00 PM 15.58 60.044 0.341 8.17 3.4 8.91
9/26/2021 9:30:00 PM 15.5 59.9 0.342 8.15 3.36 8.88
9/26/2021 9:45:00 PM 15.42 59.756 0.342 8.13 3.3 8.85
9/26/2021 10:00:00 PM 15.35 59.63 0.343 8.12 3.29 8.83
9/26/2021 10:15:00 PM 15.26 59.468 0.343 8.1 3.4 8.81
9/26/2021 10:30:00 PM 15.17 59.306 0.344 8.09 3.44 8.79
9/26/2021 10:45:00 PM 15.1 59.18 0.344 8.08 3.37 8.78
9/26/2021 11:00:00 PM 15.03 59.054 0.344 8.07 3.57 8.77
9/26/2021 11:15:00 PM 14.94 58.892 0.345 8.05 5.17 8.77
9/26/2021 11:30:00 PM 14.87 58.766 0.345 8.05 3.66 8.77
9/26/2021 11:45:00 PM 14.79 58.622 0.345 8.04 3.55 8.77
9/27/2021 12:00:00 AM 14.71 58.478 0.346 8.04 3.64 8.77
9/27/2021 12:15:00 AM 14.64 58.352 0.346 8.03 3.69 8.78
9/27/2021 12:30:00 AM 14.57 58.226 0.346 8.03 3.92 8.78
9/27/2021 12:45:00 AM 14.5 58.1 0.346 8.02 3.79 8.8
9/27/2021 1:00:00 AM 14.42 57.956 0.347 8.02 3.71 8.81
9/27/2021 1:15:00 AM 14.37 57.866 0.347 8.01 3.84 8.81
9/27/2021 1:30:00 AM 14.32 57.776 0.347 8.01 4.02 8.81
9/27/2021 1:45:00 AM 14.28 57.704 0.347 8.01 3.71 8.83
9/27/2021 2:00:00 AM 14.24 57.632 0.348 8 3.68 8.82
9/27/2021 2:15:00 AM 14.2 57.56 0.348 8 3.92 8.84
9/27/2021 2:30:00 AM 14.17 57.506 0.348 8 3.83 8.84
9/27/2021 2:45:00 AM 14.14 57.452 0.348 8 3.66 8.85
9/27/2021 3:00:00 AM 14.12 57.416 0.349 8 3.7 8.86
9/27/2021 3:15:00 AM 14.09 57.362 0.349 7.99 5.29 8.86
9/27/2021 3:30:00 AM 14.07 57.326 0.349 7.99 4.25 8.86
9/27/2021 3:45:00 AM 14.06 57.308 0.349 7.99 4.25 8.85
9/27/2021 4:00:00 AM 14.04 57.272 0.349 7.99 3.87 8.86
9/27/2021 4:15:00 AM 14.02 57.236 0.35 7.99 3.76 8.87
9/27/2021 4:30:00 AM 14 57.2 0.35 7.99 3.79 8.86
9/27/2021 4:45:00 AM 13.99 57.182 0.35 7.99 3.73 8.88
9/27/2021 5:00:00 AM 13.97 57.146 0.35 7.99 3.87 8.86
9/27/2021 5:15:00 AM 13.96 57.128 0.35 7.99 3.95 8.88
9/27/2021 5:30:00 AM 13.94 57.092 0.351 7.99 3.9 8.88
9/27/2021 5:45:00 AM 13.93 57.074 0.351 7.99 3.45 8.89
9/27/2021 6:00:00 AM 13.92 57.056 0.351 7.99 3.67 8.89
9/27/2021 6:15:00 AM 13.91 57.038 0.351 7.99 3.56 8.88
9/27/2021 6:30:00 AM 13.9 57.02 0.352 7.99 3.57 8.89
9/27/2021 6:45:00 AM 13.89 57.002 0.352 7.99 3.59 8.9
9/27/2021 7:00:00 AM 13.89 57.002 0.352 7.99 3.44 8.89
9/27/2021 7:15:00 AM 13.88 56.984 0.352 7.99 3.36 8.92
9/27/2021 7:30:00 AM 13.88 56.984 0.353 8 3.47 8.94
9/27/2021 7:45:00 AM 13.88 56.984 0.353 8 3.33 8.98
9/27/2021 8:00:00 AM 13.88 56.984 0.353 8.01 3.22 9.06
9/27/2021 8:15:00 AM 13.88 56.984 0.353 8.02 3.47 9.08
9/27/2021 8:30:00 AM 13.86 56.948 0.352 8.02 3.5 9.07
9/27/2021 8:45:00 AM 13.85 56.93 0.351 8.02 3.15 9.08
9/27/2021 9:00:00 AM 13.84 56.912 0.351 8.03 3.97 9.13
9/27/2021 9:15:00 AM 13.83 56.894 0.35 8.03 3.48 9.17
9/27/2021 9:30:00 AM 13.83 56.894 0.35 8.04 3.41 9.24
9/27/2021 9:45:00 AM 13.84 56.912 0.35 8.06 3.39 9.34
9/27/2021 10:00:00 AM 13.88 56.984 0.35 8.09 3.4 9.57
9/27/2021 10:15:00 AM 13.96 57.128 0.349 8.14 3.48 9.93
9/27/2021 10:30:00 AM 14.05 57.29 0.349 8.19 3.53 10.24
9/27/2021 10:45:00 AM 14.11 57.398 0.349 8.23 3.31 10.52
9/27/2021 11:00:00 AM 14.21 57.578 0.349 8.27 3.21 10.76
9/27/2021 11:15:00 AM 14.38 57.884 0.349 8.33 3.26 11.07
9/27/2021 11:30:00 AM 14.54 58.172 0.349 8.38 4.23 11.32
9/27/2021 11:45:00 AM 14.67 58.406 0.348 8.41 4.05 11.48
9/27/2021 12:00:00 PM 14.81 58.658 0.348 8.45 3.29 11.6
9/27/2021 12:15:00 PM 14.94 58.892 0.348 8.47 3.14 11.69
9/27/2021 12:30:00 PM 15.08 59.144 0.348 8.49 3.07 11.73
9/27/2021 12:45:00 PM 15.22 59.396 0.348 8.51 3.05 11.79
9/27/2021 1:00:00 PM 15.33 59.594 0.348 8.53 2.96 11.87
9/27/2021 1:15:00 PM 15.46 59.828 0.347 8.55 3.06 11.95
9/27/2021 1:30:00 PM 15.58 60.044 0.347 8.58 2.97 12.02
9/27/2021 1:45:00 PM 15.76 60.368 0.346 8.61 3.1 12.15
9/27/2021 2:00:00 PM 15.9 60.62 0.346 8.63 2.98 12.24
9/27/2021 2:15:00 PM 16.14 61.052 0.345 8.67 2.97 12.4
9/27/2021 2:30:00 PM 16.33 61.394 0.344 8.7 2.96 12.5
9/27/2021 2:45:00 PM 16.48 61.664 0.344 8.73 3.07 12.52
9/27/2021 3:00:00 PM 16.59 61.862 0.343 8.75 2.99 12.49
9/27/2021 3:15:00 PM 16.7 62.06 0.343 8.77 3.07 12.46
9/27/2021 3:30:00 PM 16.79 62.222 0.342 8.78 3.02 12.36
9/27/2021 3:45:00 PM 16.92 62.456 0.342 8.79 3.14 12.34
9/27/2021 4:00:00 PM 16.99 62.582 0.342 8.8 3.13 12.24
9/27/2021 4:15:00 PM 17.04 62.672 0.342 8.8 3.04 12.06
9/27/2021 4:30:00 PM 17.09 62.762 0.342 8.81 2.97 11.95
9/27/2021 4:45:00 PM 17.14 62.852 0.342 8.81 3.04 11.81
9/27/2021 5:00:00 PM 17.17 62.906 0.342 8.8 3.06 11.67
9/27/2021 5:15:00 PM 17.18 62.924 0.342 8.79 3.02 11.44
9/27/2021 5:30:00 PM 17.17 62.906 0.343 8.77 2.98 11.19
9/27/2021 5:45:00 PM 17.15 62.87 0.343 8.75 3.18 10.98
9/27/2021 6:00:00 PM 17.12 62.816 0.344 8.73 3.18 10.74
9/27/2021 6:15:00 PM 17.09 62.762 0.345 8.7 3.43 10.52
9/27/2021 6:30:00 PM 17.04 62.672 0.345 8.67 3.08 10.25
9/27/2021 6:45:00 PM 16.99 62.582 0.346 8.63 3.37 10
9/27/2021 7:00:00 PM 16.95 62.51 0.347 8.6 3.33 9.78
9/27/2021 7:15:00 PM 16.9 62.42 0.348 8.56 6.91 9.57
9/27/2021 7:30:00 PM 16.86 62.348 0.349 8.53 3.11 9.42
9/27/2021 7:45:00 PM 16.82 62.276 0.349 8.49 3.15 9.28
9/27/2021 8:00:00 PM 16.78 62.204 0.35 8.45 3.14 9.16
9/27/2021 8:15:00 PM 16.75 62.15 0.351 8.42 3.07 9.06
9/27/2021 8:30:00 PM 16.71 62.078 0.352 8.38 3.19 8.96
9/27/2021 8:45:00 PM 16.68 62.024 0.353 8.35 3.12 8.9
9/27/2021 9:00:00 PM 16.65 61.97 0.353 8.32 3 8.83
9/27/2021 9:15:00 PM 16.62 61.916 0.354 8.29 4.69 8.76
9/27/2021 9:30:00 PM 16.58 61.844 0.355 8.26 3.33 8.72
9/27/2021 9:45:00 PM 16.55 61.79 0.355 8.23 3.1 8.67
9/27/2021 10:00:00 PM 16.52 61.736 0.356 8.21 3.25 8.62
9/27/2021 10:15:00 PM 16.48 61.664 0.357 8.18 3.14 8.58
9/27/2021 10:30:00 PM 16.45 61.61 0.357 8.16 3.51 8.54
9/27/2021 10:45:00 PM 16.42 61.556 0.358 8.14 3.2 8.51
9/27/2021 11:00:00 PM 16.38 61.484 0.358 8.12 3.07 8.49
9/27/2021 11:15:00 PM 16.35 61.43 0.358 8.1 3.61 8.47
9/27/2021 11:30:00 PM 16.32 61.376 0.359 8.09 3.21 8.43
9/27/2021 11:45:00 PM 16.29 61.322 0.359 8.08 3.2 8.42
9/28/2021 12:00:00 AM 16.26 61.268 0.359 8.07 3.29 8.41
9/28/2021 12:15:00 AM 16.23 61.214 0.359 8.06 3.15 8.41
9/28/2021 12:30:00 AM 16.2 61.16 0.359 8.04 3.27 8.38
9/28/2021 12:45:00 AM 16.18 61.124 0.36 8.04 5.08 8.37
9/28/2021 1:00:00 AM 16.15 61.07 0.36 8.03 3.54 8.36
9/28/2021 1:15:00 AM 16.13 61.034 0.36 8.02 3.49 8.37
9/28/2021 1:30:00 AM 16.1 60.98 0.36 8.02 3.28 8.37
9/28/2021 1:45:00 AM 16.08 60.944 0.36 8.01 3.24 8.37
9/28/2021 2:00:00 AM 16.06 60.908 0.36 8.01 3.24 8.36
9/28/2021 2:15:00 AM 16.04 60.872 0.361 8 3.48 8.36
9/28/2021 2:30:00 AM 16.02 60.836 0.361 8 3.32 8.36
9/28/2021 2:45:00 AM 15.99 60.782 0.361 8 3.48 8.36
9/28/2021 3:00:00 AM 15.97 60.746 0.361 8 3.66 8.37
9/28/2021 3:15:00 AM 15.95 60.71 0.361 7.99 3.32 8.37
9/28/2021 3:30:00 AM 15.93 60.674 0.361 7.99 3.34 8.37
9/28/2021 3:45:00 AM 15.91 60.638 0.362 7.99 3.31 8.37
9/28/2021 4:00:00 AM 15.89 60.602 0.361 7.98 6.5 8.36
9/28/2021 4:15:00 AM 15.86 60.548 0.362 7.99 3.14 8.38
9/28/2021 4:30:00 AM 15.84 60.512 0.362 7.98 3.29 8.38
9/28/2021 4:45:00 AM 15.82 60.476 0.362 7.98 3.28 8.38
9/28/2021 5:00:00 AM 15.8 60.44 0.363 7.98 3.54 8.38
9/28/2021 5:15:00 AM 15.77 60.386 0.363 7.98 3.25 8.38
9/28/2021 5:30:00 AM 15.74 60.332 0.363 7.98 3.47 8.39
9/28/2021 5:45:00 AM 15.72 60.296 0.364 7.98 2.93 8.38
9/28/2021 6:00:00 AM 15.7 60.26 0.364 7.98 3.46 8.39
9/28/2021 6:15:00 AM 15.66 60.188 0.364 7.98 3.1 8.39
9/28/2021 6:30:00 AM 15.63 60.134 0.364 7.97 3.42 8.41
9/28/2021 6:45:00 AM 15.59 60.062 0.365 7.97 3.25 8.41
9/28/2021 7:00:00 AM 15.56 60.008 0.365 7.97 3.29 8.42
9/28/2021 7:15:00 AM 15.54 59.972 0.365 7.98 3.33 8.45
9/28/2021 7:30:00 AM 15.52 59.936 0.365 7.98 3.25 8.48
9/28/2021 7:45:00 AM 15.51 59.918 0.366 7.99 3.14 8.53
9/28/2021 8:00:00 AM 15.5 59.9 0.366 7.99 3.15 8.57
9/28/2021 8:15:00 AM 15.5 59.9 0.366 8 3.01 8.67
9/28/2021 8:30:00 AM 15.51 59.918 0.366 8.02 3.11 8.82
9/28/2021 8:45:00 AM 15.53 59.954 0.366 8.04 2.93 8.96
9/28/2021 9:00:00 AM 15.54 59.972 0.367 8.05 2.95 8.99
9/28/2021 9:15:00 AM 15.56 60.008 0.367 8.06 3.01 9.05
9/28/2021 9:30:00 AM 15.57 60.026 0.367 8.08 2.89 9.17
9/28/2021 9:45:00 AM 15.57 60.026 0.367 8.09 2.95 9.19
9/28/2021 10:00:00 AM 15.56 60.008 0.367 8.09 2.92 9.19
9/28/2021 10:15:00 AM 15.55 59.99 0.368 8.1 2.98 9.21
9/28/2021 10:30:00 AM 15.54 59.972 0.368 8.11 2.87 9.25
9/28/2021 10:45:00 AM 15.53 59.954 0.368 8.11 2.96 9.28
9/28/2021 11:00:00 AM 15.52 59.936 0.368 8.13 2.84 9.38
9/28/2021 11:15:00 AM 15.51 59.918 0.368 8.14 2.73 9.47
9/28/2021 11:30:00 AM 15.52 59.936 0.368 8.17 2.82 9.63
9/28/2021 11:45:00 AM 15.56 60.008 0.368 8.21 2.8 9.92
9/28/2021 12:00:00 PM 15.62 60.116 0.367 8.26 2.84 10.29
9/28/2021 12:15:00 PM 15.75 60.35 0.366 8.33 2.76 10.75
9/28/2021 12:30:00 PM 15.93 60.674 0.365 8.4 2.79 11.19
9/28/2021 12:45:00 PM 16.04 60.872 0.364 8.46 2.65 11.54
9/28/2021 1:00:00 PM 16.1 60.98 0.364 8.5 2.75 11.72
9/28/2021 1:15:00 PM 16.17 61.106 0.363 8.54 2.74 11.87
9/28/2021 1:30:00 PM 16.26 61.268 0.362 8.57 2.74 12.03
9/28/2021 1:45:00 PM 16.37 61.466 0.362 8.6 2.69 12.16
9/28/2021 2:00:00 PM 16.59 61.862 0.361 8.63 2.75 12.3
9/28/2021 2:15:00 PM 16.77 62.186 0.36 8.65 2.93 12.36
9/28/2021 2:30:00 PM 16.89 62.402 0.36 8.67 2.56 12.36
9/28/2021 2:45:00 PM 16.94 62.492 0.36 8.67 2.78 12.25
9/28/2021 3:00:00 PM 16.97 62.546 0.36 8.68 2.73 12.16
9/28/2021 3:15:00 PM 16.97 62.546 0.36 8.68 2.77 12.05
9/28/2021 3:30:00 PM 16.97 62.546 0.36 8.68 2.8 11.93
9/28/2021 3:45:00 PM 16.98 62.564 0.36 8.69 2.79 11.84
9/28/2021 4:00:00 PM 16.97 62.546 0.36 8.69 2.82 11.75
9/28/2021 4:15:00 PM 16.93 62.474 0.36 8.69 2.8 11.62
9/28/2021 4:30:00 PM 16.92 62.456 0.36 8.7 2.8 11.57
9/28/2021 4:45:00 PM 16.9 62.42 0.36 8.72 2.78 11.6
9/28/2021 5:00:00 PM 16.87 62.366 0.36 8.72 3.02 11.47
9/28/2021 5:15:00 PM 16.8 62.24 0.36 8.71 2.83 11.26
9/28/2021 5:30:00 PM 16.7 62.06 0.361 8.7 2.78 11.05
9/28/2021 5:45:00 PM 16.58 61.844 0.361 8.68 2.84 10.8
9/28/2021 6:00:00 PM 16.49 61.682 0.362 8.66 2.82 10.6
9/28/2021 6:15:00 PM 16.42 61.556 0.362 8.65 2.89 10.45
9/28/2021 6:30:00 PM 16.34 61.412 0.363 8.63 3.27 10.22
9/28/2021 6:45:00 PM 16.25 61.25 0.364 8.59 2.82 9.95
9/28/2021 7:00:00 PM 16.15 61.07 0.365 8.56 2.98 9.74
9/28/2021 7:15:00 PM 16.06 60.908 0.366 8.53 3.37 9.49
9/28/2021 7:30:00 PM 15.98 60.764 0.367 8.51 3.03 9.48
9/28/2021 7:45:00 PM 15.89 60.602 0.367 8.48 3.34 9.37
9/28/2021 8:00:00 PM 15.8 60.44 0.368 8.46 3.04 9.28
9/28/2021 8:15:00 PM 15.71 60.278 0.369 8.43 2.97 9.2
9/28/2021 8:30:00 PM 15.62 60.116 0.369 8.4 3.14 9.14
9/28/2021 8:45:00 PM 15.54 59.972 0.37 8.38 3.35 9.08
9/28/2021 9:00:00 PM 15.47 59.846 0.371 8.35 3.32 9.04
9/28/2021 9:15:00 PM 15.39 59.702 0.371 8.32 3.1 9
9/28/2021 9:30:00 PM 15.3 59.54 0.372 8.3 3.1 8.97
9/28/2021 9:45:00 PM 15.23 59.414 0.373 8.27 3.05 8.94
9/28/2021 10:00:00 PM 15.14 59.252 0.373 8.25 3.22 8.91
9/28/2021 10:15:00 PM 15.06 59.108 0.374 8.23 3.26 8.89
9/28/2021 10:30:00 PM 14.98 58.964 0.374 8.21 2.96 8.87
9/28/2021 10:45:00 PM 14.89 58.802 0.374 8.19 3.06 8.85
9/28/2021 11:00:00 PM 14.8 58.64 0.375 8.18 3.23 8.83
9/28/2021 11:15:00 PM 14.71 58.478 0.375 8.16 3.11 8.83
9/28/2021 11:30:00 PM 14.61 58.298 0.375 8.15 3.01 8.83
9/28/2021 11:45:00 PM 14.53 58.154 0.376 8.14 3.21 8.82
9/29/2021 12:00:00 AM 14.43 57.974 0.376 8.13 3.24 8.83
9/29/2021 12:15:00 AM 14.33 57.794 0.376 8.12 3.08 8.84
9/29/2021 12:30:00 AM 14.24 57.632 0.376 8.11 3.17 8.85
9/29/2021 12:45:00 AM 14.15 57.47 0.377 8.1 3.15 8.86
9/29/2021 1:00:00 AM 14.06 57.308 0.377 8.1 3.16 8.87
9/29/2021 1:15:00 AM 13.98 57.164 0.377 8.09 3.3 8.88
9/29/2021 1:30:00 AM 13.89 57.002 0.377 8.08 3.17 8.88
9/29/2021 1:45:00 AM 13.8 56.84 0.377 8.08 5.47 8.9
9/29/2021 2:00:00 AM 13.72 56.696 0.378 8.08 3.69 8.92
9/29/2021 2:15:00 AM 13.63 56.534 0.378 8.07 3.09 8.94
9/29/2021 2:30:00 AM 13.56 56.408 0.378 8.07 12.66 8.95
9/29/2021 2:45:00 AM 13.48 56.264 0.378 8.06 3.43 8.96
9/29/2021 3:00:00 AM 13.41 56.138 0.378 8.06 3.37 8.98
9/29/2021 3:15:00 AM 13.36 56.048 0.378 8.06 3.08 9
9/29/2021 3:30:00 AM 13.3 55.94 0.378 8.06 3.23 9.01
9/29/2021 3:45:00 AM 13.25 55.85 0.379 8.05 3.31 9.02
9/29/2021 4:00:00 AM 13.2 55.76 0.379 8.05 3.06 9.03
9/29/2021 4:15:00 AM 13.16 55.688 0.379 8.05 4.43 9.02
9/29/2021 4:30:00 AM 13.1 55.58 0.379 8.05 3.66 9.05
9/29/2021 4:45:00 AM 13.04 55.472 0.379 8.05 5.35 9.07
9/29/2021 5:00:00 AM 12.97 55.346 0.379 8.05 3.28 9.09
9/29/2021 5:15:00 AM 12.9 55.22 0.379 8.04 3.5 9.11
9/29/2021 5:30:00 AM 12.84 55.112 0.379 8.04 3.41 9.11
9/29/2021 5:45:00 AM 12.77 54.986 0.379 8.04 3.48 9.14
9/29/2021 6:00:00 AM 12.7 54.86 0.379 8.04 3.39 9.15
9/29/2021 6:15:00 AM 12.64 54.752 0.38 8.04 3.4 9.17
9/29/2021 6:30:00 AM 12.57 54.626 0.38 8.04 3.5 9.17
9/29/2021 6:45:00 AM 12.5 54.5 0.38 8.04 3.53 9.19
9/29/2021 7:00:00 AM 12.43 54.374 0.38 8.04 3.57 9.22
9/29/2021 7:15:00 AM 12.38 54.284 0.38 8.05 3.48 9.27
9/29/2021 7:30:00 AM 12.32 54.176 0.38 8.05 3.34 9.34
9/29/2021 7:45:00 AM 12.27 54.086 0.38 8.06 3.35 9.45
9/29/2021 8:00:00 AM 12.22 53.996 0.38 8.07 3.2 9.54
9/29/2021 8:15:00 AM 12.2 53.96 0.38 8.04 3.2 9.68
9/29/2021 8:30:00 AM 12.17 53.906 0.38 8.06 3.07 9.82
9/29/2021 8:45:00 AM 12.16 53.888 0.38 8.09 3.09 9.98
9/29/2021 9:00:00 AM 12.15 53.87 0.38 8.12 2.87 10.07
9/29/2021 9:15:00 AM 12.17 53.906 0.379 8.14 2.88 10.17
9/29/2021 9:30:00 AM 12.22 53.996 0.379 8.16 2.84 10.29
9/29/2021 9:45:00 AM 12.28 54.104 0.379 8.18 2.8 10.42
9/29/2021 10:00:00 AM 12.34 54.212 0.379 8.21 2.84 10.52
9/29/2021 10:15:00 AM 12.39 54.302 0.379 8.23 2.79 10.66
9/29/2021 10:30:00 AM 12.45 54.41 0.379 8.25 2.79 10.76
9/29/2021 10:45:00 AM 12.52 54.536 0.379 8.27 2.72 10.87
9/29/2021 11:00:00 AM 12.62 54.716 0.378 8.29 2.8 10.99
9/29/2021 11:15:00 AM 12.73 54.914 0.378 8.31 2.74 11.1
9/29/2021 11:30:00 AM 12.84 55.112 0.377 8.34 2.77 11.26
9/29/2021 11:45:00 AM 12.97 55.346 0.377 8.37 2.67 11.43
9/29/2021 12:00:00 PM 13.12 55.616 0.376 8.4 2.78 11.6
9/29/2021 12:15:00 PM 13.29 55.922 0.376 8.43 2.73 11.73
9/29/2021 12:30:00 PM 13.45 56.21 0.375 8.47 2.7 11.91
9/29/2021 12:45:00 PM 13.58 56.444 0.374 8.5 2.7 12.11
9/29/2021 1:00:00 PM 13.72 56.696 0.373 8.54 2.64 12.3
9/29/2021 1:15:00 PM 13.82 56.876 0.372 8.57 2.81 12.4
9/29/2021 1:30:00 PM 13.89 57.002 0.371 8.6 2.61 12.39
9/29/2021 1:45:00 PM 13.91 57.038 0.371 8.59 2.65 12.17
9/29/2021 2:00:00 PM 13.98 57.164 0.371 8.59 2.67 11.98
9/29/2021 2:15:00 PM 14.13 57.434 0.37 8.62 2.63 12.09
9/29/2021 2:30:00 PM 14.23 57.614 0.369 8.66 2.84 12.2
9/29/2021 2:45:00 PM 14.3 57.74 0.369 8.68 2.7 12.22
9/29/2021 3:00:00 PM 14.33 57.794 0.369 8.67 2.9 11.99
9/29/2021 3:15:00 PM 14.42 57.956 0.369 8.68 2.62 11.98
9/29/2021 3:30:00 PM 14.47 58.046 0.368 8.69 2.62 11.95
9/29/2021 3:45:00 PM 14.52 58.136 0.368 8.69 2.68 11.84
9/29/2021 4:00:00 PM 14.56 58.208 0.368 8.69 2.62 11.67
9/29/2021 4:15:00 PM 14.58 58.244 0.368 8.68 2.64 11.43
9/29/2021 4:30:00 PM 14.63 58.334 0.368 8.68 2.82 11.42
9/29/2021 4:45:00 PM 14.64 58.352 0.368 8.68 2.75 11.32
9/29/2021 5:00:00 PM 14.67 58.406 0.368 8.68 2.78 11.3
9/29/2021 5:15:00 PM 14.68 58.424 0.368 8.68 2.8 11.3
9/29/2021 5:30:00 PM 14.66 58.388 0.368 8.68 2.81 11.25
9/29/2021 5:45:00 PM 14.63 58.334 0.369 8.67 2.91 11.11
9/29/2021 6:00:00 PM 14.59 58.262 0.369 8.65 2.7 10.99
9/29/2021 6:15:00 PM 14.55 58.19 0.369 8.64 2.86 10.84
9/29/2021 6:30:00 PM 14.51 58.118 0.37 8.62 2.81 10.65
9/29/2021 6:45:00 PM 14.47 58.046 0.37 8.59 2.75 10.45
9/29/2021 7:00:00 PM 14.42 57.956 0.371 8.56 2.78 10.25
9/29/2021 7:15:00 PM 14.36 57.848 0.372 8.53 2.86 10.08
9/29/2021 7:30:00 PM 14.29 57.722 0.373 8.49 3.4 9.92
9/29/2021 7:45:00 PM 14.23 57.614 0.373 8.46 3.32 9.78
9/29/2021 8:00:00 PM 14.18 57.524 0.374 8.43 3.45 9.67
9/29/2021 8:15:00 PM 14.13 57.434 0.375 8.4 5.73 9.58
9/29/2021 8:30:00 PM 14.09 57.362 0.375 8.37 2.89 9.51
9/29/2021 8:45:00 PM 14.04 57.272 0.376 8.35 2.74 9.47
9/29/2021 9:00:00 PM 14.01 57.218 0.376 8.33 2.84 9.41
9/29/2021 9:15:00 PM 13.98 57.164 0.377 8.31 2.73 9.37
9/29/2021 9:30:00 PM 13.95 57.11 0.377 8.29 2.88 9.34
9/29/2021 9:45:00 PM 13.92 57.056 0.378 8.27 2.8 9.31
9/29/2021 10:00:00 PM 13.89 57.002 0.378 8.26 3.08 9.28
9/29/2021 10:15:00 PM 13.86 56.948 0.379 8.24 6.41 9.25
9/29/2021 10:30:00 PM 13.83 56.894 0.379 8.23 2.83 9.23
9/29/2021 10:45:00 PM 13.8 56.84 0.379 8.22 2.94 9.21
9/29/2021 11:00:00 PM 13.77 56.786 0.38 8.2 4.41 9.19
9/29/2021 11:15:00 PM 13.74 56.732 0.38 8.19 2.71 9.17
9/29/2021 11:30:00 PM 13.71 56.678 0.38 8.18 2.67 9.16
9/29/2021 11:45:00 PM 13.66 56.588 0.381 8.17 2.79 9.14
9/30/2021 12:00:00 AM 13.61 56.498 0.381 8.16 2.63 9.13
9/30/2021 12:15:00 AM 13.55 56.39 0.381 8.15 2.7 9.13
9/30/2021 12:30:00 AM 13.49 56.282 0.381 8.14 2.67 9.12
9/30/2021 12:45:00 AM 13.43 56.174 0.382 8.13 2.77 9.12
9/30/2021 1:00:00 AM 13.37 56.066 0.382 8.13 2.84 9.13
9/30/2021 1:15:00 AM 13.32 55.976 0.382 8.12 2.97 9.13
9/30/2021 1:30:00 AM 13.27 55.886 0.382 8.11 2.85 9.13
9/30/2021 1:45:00 AM 13.23 55.814 0.382 8.11 2.85 9.14
9/30/2021 2:00:00 AM 13.19 55.742 0.382 8.1 2.84 9.14
9/30/2021 2:15:00 AM 13.15 55.67 0.383 8.1 3.05 9.15
9/30/2021 2:30:00 AM 13.11 55.598 0.383 8.1 3.06 9.16
9/30/2021 2:45:00 AM 13.06 55.508 0.383 8.09 2.96 9.16
9/30/2021 3:00:00 AM 13.02 55.436 0.383 8.09 2.96 9.16
9/30/2021 3:15:00 AM 13 55.4 0.383 8.09 2.95 9.17
9/30/2021 3:30:00 AM 12.97 55.346 0.383 8.08 2.83 9.16
9/30/2021 3:45:00 AM 12.95 55.31 0.383 8.08 2.93 9.18
9/30/2021 4:00:00 AM 12.93 55.274 0.383 8.08 2.82 9.17
9/30/2021 4:15:00 AM 12.9 55.22 0.383 8.08 2.91 9.18
9/30/2021 4:30:00 AM 12.87 55.166 0.383 8.07 2.97 9.18
9/30/2021 4:45:00 AM 12.84 55.112 0.383 8.07 3.11 9.18
9/30/2021 5:00:00 AM 12.81 55.058 0.384 8.07 2.9 9.18
9/30/2021 5:15:00 AM 12.79 55.022 0.384 8.07 2.8 9.19
9/30/2021 5:30:00 AM 12.77 54.986 0.384 8.07 2.88 9.2
9/30/2021 5:45:00 AM 12.74 54.932 0.384 8.07 3.06 9.21
9/30/2021 6:00:00 AM 12.72 54.896 0.384 8.06 2.99 9.2
9/30/2021 6:15:00 AM 12.69 54.842 0.384 8.06 3.31 9.21
9/30/2021 6:30:00 AM 12.65 54.77 0.384 8.06 3.18 9.22
9/30/2021 6:45:00 AM 12.61 54.698 0.384 8.06 4.44 9.24
9/30/2021 7:00:00 AM 12.57 54.626 0.385 8.06 3.32 9.26
9/30/2021 7:15:00 AM 12.52 54.536 0.385 8.06 2.96 9.28
9/30/2021 7:30:00 AM 12.48 54.464 0.385 8.07 3.06 9.34
9/30/2021 7:45:00 AM 12.48 54.464 0.385 8.08 3.03 9.44
9/30/2021 8:00:00 AM 12.45 54.41 0.385 8.09 2.96 9.52
9/30/2021 8:15:00 AM 12.43 54.374 0.385 8.1 2.92 9.62
9/30/2021 8:30:00 AM 12.42 54.356 0.385 8.12 2.8 9.73
9/30/2021 8:45:00 AM 12.45 54.41 0.385 8.14 2.86 9.93
9/30/2021 9:00:00 AM 12.46 54.428 0.384 8.17 2.75 10.13
9/30/2021 9:15:00 AM 12.48 54.464 0.384 8.19 2.77 10.28
9/30/2021 9:30:00 AM 12.51 54.518 0.384 8.22 2.68 10.45
9/30/2021 9:45:00 AM 12.57 54.626 0.384 8.25 2.73 10.66
9/30/2021 10:00:00 AM 12.65 54.77 0.383 8.29 2.76 10.94
9/30/2021 10:15:00 AM 12.76